<?xml version='1.0' encoding='UTF-8'?><gpx version="1.1" creator="JPX - https://github.com/jenetics/jpx" xmlns="http://www.topografix.com/GPX/1/1"><trk><trkseg><trkpt lat="40.28407121636075" lon="-1.1924378782426222"><ele>1086.0</ele><time>2026-04-24T17:28:41.999Z</time></trkpt><trkpt lat="40.28401944843817" lon="-1.192379899301776"><ele>1086.0</ele><time>2026-04-24T17:28:42.999Z</time></trkpt><trkpt lat="40.283967907939186" lon="-1.1923288187948982"><ele>1086.0</ele><time>2026-04-24T17:28:43.999Z</time></trkpt><trkpt lat="40.283900911229395" lon="-1.192264124264932"><ele>1086.0</ele><time>2026-04-24T17:28:44.999Z</time></trkpt><trkpt lat="40.2838092819359" lon="-1.192225781394532"><ele>1086.0</ele><time>2026-04-24T17:28:45.999Z</time></trkpt><trkpt lat="40.28374860787086" lon="-1.1921570176218999"><ele>1086.0</ele><time>2026-04-24T17:28:46.999Z</time></trkpt><trkpt lat="40.28369749554406" lon="-1.1920845653926033"><ele>1085.6</ele><time>2026-04-24T17:28:47.999Z</time></trkpt><trkpt lat="40.28363368258503" lon="-1.1919859148089984"><ele>1085.1999999999998</ele><time>2026-04-24T17:28:49.999Z</time></trkpt><trkpt lat="40.283576768142716" lon="-1.1919142563272556"><ele>1084.8000000000002</ele><time>2026-04-24T17:28:51.999Z</time></trkpt><trkpt lat="40.283643152743224" lon="-1.1920177496234663"><ele>1084.4</ele><time>2026-04-24T17:29:01.999Z</time></trkpt><trkpt lat="40.283709935395486" lon="-1.1920774093660003"><ele>1084.0</ele><time>2026-04-24T17:29:02.999Z</time></trkpt><trkpt lat="40.283760275354915" lon="-1.1921764872251117"><ele>1084.0</ele><time>2026-04-24T17:29:03.999Z</time></trkpt><trkpt lat="40.28381884789806" lon="-1.192250193292841"><ele>1084.0</ele><time>2026-04-24T17:29:04.999Z</time></trkpt><trkpt lat="40.283879376867944" lon="-1.1923078577992063"><ele>1084.0</ele><time>2026-04-24T17:29:05.999Z</time></trkpt><trkpt lat="40.283931462171736" lon="-1.1923606335829293"><ele>1084.0</ele><time>2026-04-24T17:29:06.999Z</time></trkpt><trkpt lat="40.283987193565714" lon="-1.1924076226621152"><ele>1084.0</ele><time>2026-04-24T17:29:07.999Z</time></trkpt><trkpt lat="40.2840417170726" lon="-1.1924625560643654"><ele>1084.0</ele><time>2026-04-24T17:29:08.999Z</time></trkpt><trkpt lat="40.28409568449326" lon="-1.1925109914479828"><ele>1084.0</ele><time>2026-04-24T17:29:09.999Z</time></trkpt><trkpt lat="40.28419265015771" lon="-1.1925912855406933"><ele>1084.5</ele><time>2026-04-24T17:29:11.999Z</time></trkpt><trkpt lat="40.28431268308792" lon="-1.192496030277532"><ele>1085.0</ele><time>2026-04-24T17:29:12.999Z</time></trkpt><trkpt lat="40.284406493896256" lon="-1.1924316219069466"><ele>1085.5</ele><time>2026-04-24T17:29:14.999Z</time></trkpt><trkpt lat="40.28446845413799" lon="-1.1923013090837777"><ele>1086.0</ele><time>2026-04-24T17:29:16.999Z</time></trkpt><trkpt lat="40.284485510000444" lon="-1.192167460073687"><ele>1086.3333333333333</ele><time>2026-04-24T17:29:18.999Z</time></trkpt><trkpt lat="40.28446451005171" lon="-1.1920552957142752"><ele>1086.6666666666667</ele><time>2026-04-24T17:29:20.999Z</time></trkpt><trkpt lat="40.28444678075496" lon="-1.1919559543480716"><ele>1087.0</ele><time>2026-04-24T17:29:22.999Z</time></trkpt><trkpt lat="40.284437290443044" lon="-1.1918677782871654"><ele>1087.3333333333335</ele><time>2026-04-24T17:29:24.999Z</time></trkpt><trkpt lat="40.28447325582319" lon="-1.1917798959589188"><ele>1087.6666666666667</ele><time>2026-04-24T17:29:56Z</time></trkpt><trkpt lat="40.284530223611846" lon="-1.1916489923577702"><ele>1088.0</ele><time>2026-04-24T17:29:58Z</time></trkpt><trkpt lat="40.284584905304435" lon="-1.1915102526692924"><ele>1088.6666666666667</ele><time>2026-04-24T17:30:00Z</time></trkpt><trkpt lat="40.2846421196034" lon="-1.1914457949732915"><ele>1089.3333333333335</ele><time>2026-04-24T17:30:01Z</time></trkpt><trkpt lat="40.28468998008468" lon="-1.1913710104902813"><ele>1090.0</ele><time>2026-04-24T17:30:02Z</time></trkpt><trkpt lat="40.284731021366674" lon="-1.1913066561900751"><ele>1090.6666666666667</ele><time>2026-04-24T17:30:03Z</time></trkpt><trkpt lat="40.28481698004543" lon="-1.1911911591121587"><ele>1091.3333333333333</ele><time>2026-04-24T17:30:05Z</time></trkpt><trkpt lat="40.284863947858376" lon="-1.1911274549107735"><ele>1092.0</ele><time>2026-04-24T17:30:06Z</time></trkpt><trkpt lat="40.28490699365837" lon="-1.1910632884527834"><ele>1089.7142857142858</ele><time>2026-04-24T17:30:07Z</time></trkpt><trkpt lat="40.28493553337737" lon="-1.1909699850062652"><ele>1087.4285714285716</ele><time>2026-04-24T17:30:08Z</time></trkpt><trkpt lat="40.28496045031303" lon="-1.1908904070835844"><ele>1085.142857142857</ele><time>2026-04-24T17:30:09Z</time></trkpt><trkpt lat="40.28498195184632" lon="-1.1908101236058937"><ele>1082.857142857143</ele><time>2026-04-24T17:30:10Z</time></trkpt><trkpt lat="40.28499074534469" lon="-1.1907169285933306"><ele>1080.5714285714287</ele><time>2026-04-24T17:30:11Z</time></trkpt><trkpt lat="40.284990981641926" lon="-1.1906194895133781"><ele>1078.2857142857142</ele><time>2026-04-24T17:30:12Z</time></trkpt><trkpt lat="40.28498521036746" lon="-1.1905253161902487"><ele>1076.0</ele><time>2026-04-24T17:30:13Z</time></trkpt><trkpt lat="40.284990242943344" lon="-1.1904322324747993"><ele>1075.4285714285716</ele><time>2026-04-24T17:30:14Z</time></trkpt><trkpt lat="40.28498847858039" lon="-1.190344469383273"><ele>1074.857142857143</ele><time>2026-04-24T17:30:15Z</time></trkpt><trkpt lat="40.28498584057828" lon="-1.1902535143502462"><ele>1074.2857142857142</ele><time>2026-04-24T17:30:16Z</time></trkpt><trkpt lat="40.2849883016987" lon="-1.1901590290932724"><ele>1073.7142857142858</ele><time>2026-04-24T17:30:17Z</time></trkpt><trkpt lat="40.284985581854556" lon="-1.1900678468562285"><ele>1073.142857142857</ele><time>2026-04-24T17:30:18Z</time></trkpt><trkpt lat="40.284972264567074" lon="-1.1899777497380242"><ele>1072.5714285714287</ele><time>2026-04-24T17:30:19Z</time></trkpt><trkpt lat="40.2849189981621" lon="-1.1899005671945695"><ele>1072.0</ele><time>2026-04-24T17:30:19.999Z</time></trkpt><trkpt lat="40.28487038457646" lon="-1.1898170886175772"><ele>1070.5</ele><time>2026-04-24T17:30:20.999Z</time></trkpt><trkpt lat="40.28481410248884" lon="-1.1897103534495332"><ele>1069.0</ele><time>2026-04-24T17:30:21.999Z</time></trkpt><trkpt lat="40.284759391422384" lon="-1.1895816344818892"><ele>1067.5</ele><time>2026-04-24T17:30:22.999Z</time></trkpt><trkpt lat="40.28472439129844" lon="-1.1894320806585301"><ele>1066.0</ele><time>2026-04-24T17:30:23.999Z</time></trkpt><trkpt lat="40.28472317515671" lon="-1.1892725726636921"><ele>1067.25</ele><time>2026-04-24T17:30:24.999Z</time></trkpt><trkpt lat="40.28473410920499" lon="-1.1891253759525497"><ele>1068.5</ele><time>2026-04-24T17:30:25.999Z</time></trkpt><trkpt lat="40.28475811584573" lon="-1.18897271239036"><ele>1069.75</ele><time>2026-04-24T17:30:26.999Z</time></trkpt><trkpt lat="40.284781884698106" lon="-1.188820750291217"><ele>1071.0</ele><time>2026-04-24T17:30:27.999Z</time></trkpt><trkpt lat="40.284772004069445" lon="-1.1886749434852524"><ele>1071.0</ele><time>2026-04-24T17:30:28.999Z</time></trkpt><trkpt lat="40.28478021011215" lon="-1.1885398376117293"><ele>1071.0</ele><time>2026-04-24T17:30:29.999Z</time></trkpt><trkpt lat="40.284801685370944" lon="-1.1884445533249601"><ele>1071.0</ele><time>2026-04-24T17:30:30.999Z</time></trkpt><trkpt lat="40.28488777623773" lon="-1.1883555720415846"><ele>1071.0</ele><time>2026-04-24T17:30:32.999Z</time></trkpt><trkpt lat="40.284987042238406" lon="-1.1883842500131832"><ele>1071.0</ele><time>2026-04-24T17:30:33.999Z</time></trkpt><trkpt lat="40.28507325796785" lon="-1.1884123310021215"><ele>1071.0</ele><time>2026-04-24T17:30:34.999Z</time></trkpt><trkpt lat="40.28516103508486" lon="-1.1884474975182424"><ele>1071.0</ele><time>2026-04-24T17:30:35.999Z</time></trkpt><trkpt lat="40.28523951578454" lon="-1.1884563140250788"><ele>1071.0</ele><time>2026-04-24T17:30:36.999Z</time></trkpt><trkpt lat="40.285303078640936" lon="-1.1884270611123924"><ele>1071.0</ele><time>2026-04-24T17:30:37.999Z</time></trkpt><trkpt lat="40.285365481927975" lon="-1.1883727790368315"><ele>1071.0</ele><time>2026-04-24T17:30:38.999Z</time></trkpt><trkpt lat="40.28540182300805" lon="-1.1882898708312064"><ele>1071.0</ele><time>2026-04-24T17:30:39.999Z</time></trkpt><trkpt lat="40.28543266884064" lon="-1.1881949485019643"><ele>1070.0</ele><time>2026-04-24T17:30:40.999Z</time></trkpt><trkpt lat="40.28549601845868" lon="-1.188071128607272"><ele>1069.0</ele><time>2026-04-24T17:30:41.999Z</time></trkpt><trkpt lat="40.28558289508366" lon="-1.1879683754838475"><ele>1068.0</ele><time>2026-04-24T17:30:42.999Z</time></trkpt><trkpt lat="40.28567320993089" lon="-1.1878896267853567"><ele>1067.0</ele><time>2026-04-24T17:30:43.999Z</time></trkpt><trkpt lat="40.28578070862226" lon="-1.1878260410784258"><ele>1067.0</ele><time>2026-04-24T17:30:44.999Z</time></trkpt><trkpt lat="40.28586286481765" lon="-1.1877255644075286"><ele>1067.0</ele><time>2026-04-24T17:30:45.999Z</time></trkpt><trkpt lat="40.285932236474714" lon="-1.1876467442567868"><ele>1067.0</ele><time>2026-04-24T17:30:46.999Z</time></trkpt><trkpt lat="40.286003171111545" lon="-1.1875879259944353"><ele>1067.0</ele><time>2026-04-24T17:30:47.999Z</time></trkpt><trkpt lat="40.2860725347888" lon="-1.1875097807535193"><ele>1067.0</ele><time>2026-04-24T17:30:48.999Z</time></trkpt><trkpt lat="40.286128000411495" lon="-1.1874067264554726"><ele>1065.5</ele><time>2026-04-24T17:30:49.999Z</time></trkpt><trkpt lat="40.2862091062807" lon="-1.1872797946090403"><ele>1064.0</ele><time>2026-04-24T17:30:50.999Z</time></trkpt><trkpt lat="40.28628558281358" lon="-1.1871327476234304"><ele>1062.5</ele><time>2026-04-24T17:30:51.999Z</time></trkpt><trkpt lat="40.28636256363023" lon="-1.1869743186798989"><ele>1061.0</ele><time>2026-04-24T17:30:52.999Z</time></trkpt><trkpt lat="40.28643925681987" lon="-1.1868109064546508"><ele>1061.0</ele><time>2026-04-24T17:30:53.999Z</time></trkpt><trkpt lat="40.28651378505768" lon="-1.186648910078295"><ele>1061.0</ele><time>2026-04-24T17:30:54.999Z</time></trkpt><trkpt lat="40.28656959184521" lon="-1.186507704065933"><ele>1061.0</ele><time>2026-04-24T17:30:55.999Z</time></trkpt><trkpt lat="40.28662392653933" lon="-1.1863997934174595"><ele>1061.0</ele><time>2026-04-24T17:30:56.999Z</time></trkpt><trkpt lat="40.28668860601289" lon="-1.1863340196207095"><ele>1061.0</ele><time>2026-04-24T17:30:57.999Z</time></trkpt><trkpt lat="40.286747536375195" lon="-1.1862806408257498"><ele>1062.1666666666667</ele><time>2026-04-24T17:30:58.999Z</time></trkpt><trkpt lat="40.28681690817791" lon="-1.1862479064509197"><ele>1063.3333333333335</ele><time>2026-04-24T17:30:59.999Z</time></trkpt><trkpt lat="40.28689096176993" lon="-1.186215135980075"><ele>1064.5</ele><time>2026-04-24T17:31:00.999Z</time></trkpt><trkpt lat="40.2869550429343" lon="-1.1861303832583847"><ele>1065.6666666666667</ele><time>2026-04-24T17:31:01.999Z</time></trkpt><trkpt lat="40.287010322606626" lon="-1.1860327165006777"><ele>1066.8333333333333</ele><time>2026-04-24T17:31:02.999Z</time></trkpt><trkpt lat="40.287014841893864" lon="-1.1859209190073783"><ele>1068.0</ele><time>2026-04-24T17:31:03.999Z</time></trkpt><trkpt lat="40.28701741714305" lon="-1.1858147894813265"><ele>1068.0</ele><time>2026-04-24T17:31:04.999Z</time></trkpt><trkpt lat="40.28700944999372" lon="-1.185693464269006"><ele>1068.0</ele><time>2026-04-24T17:31:05.999Z</time></trkpt><trkpt lat="40.286983165937016" lon="-1.1855588017060459"><ele>1068.0</ele><time>2026-04-24T17:31:06.999Z</time></trkpt><trkpt lat="40.286954458526914" lon="-1.1854387407016986"><ele>1068.0</ele><time>2026-04-24T17:31:07.999Z</time></trkpt><trkpt lat="40.286923327379135" lon="-1.1853378385770057"><ele>1068.0</ele><time>2026-04-24T17:31:08.999Z</time></trkpt><trkpt lat="40.28689072709902" lon="-1.185223677605596"><ele>1067.8</ele><time>2026-04-24T17:31:09.999Z</time></trkpt><trkpt lat="40.28687558428395" lon="-1.185081998511571"><ele>1067.6</ele><time>2026-04-24T17:31:10.999Z</time></trkpt><trkpt lat="40.28688293572837" lon="-1.184942385157047"><ele>1067.4</ele><time>2026-04-24T17:31:11.999Z</time></trkpt><trkpt lat="40.28692575734064" lon="-1.1847993218167516"><ele>1067.2</ele><time>2026-04-24T17:31:12.999Z</time></trkpt><trkpt lat="40.28698726954361" lon="-1.184678113560941"><ele>1067.0</ele><time>2026-04-24T17:31:13.999Z</time></trkpt><trkpt lat="40.28701192677802" lon="-1.1845482294663876"><ele>1066.4</ele><time>2026-04-24T17:31:14.999Z</time></trkpt><trkpt lat="40.28705611709398" lon="-1.184432293214332"><ele>1065.8000000000002</ele><time>2026-04-24T17:31:15.999Z</time></trkpt><trkpt lat="40.28712136516069" lon="-1.1843438279955159"><ele>1065.2</ele><time>2026-04-24T17:31:16.999Z</time></trkpt><trkpt lat="40.28718538383218" lon="-1.1842795801174157"><ele>1064.6000000000001</ele><time>2026-04-24T17:31:17.999Z</time></trkpt><trkpt lat="40.28727642041717" lon="-1.1842365729504707"><ele>1064.0</ele><time>2026-04-24T17:31:18.999Z</time></trkpt><trkpt lat="40.287390509303115" lon="-1.1842002162591605"><ele>1060.8</ele><time>2026-04-24T17:31:19.999Z</time></trkpt><trkpt lat="40.28750227819223" lon="-1.1841618505508942"><ele>1057.6000000000001</ele><time>2026-04-24T17:31:20.999Z</time></trkpt><trkpt lat="40.2876019063265" lon="-1.1841144723749433"><ele>1054.4</ele><time>2026-04-24T17:31:21.998Z</time></trkpt><trkpt lat="40.287675763542694" lon="-1.1840232531885204"><ele>1051.2</ele><time>2026-04-24T17:31:22.998Z</time></trkpt><trkpt lat="40.28773719443261" lon="-1.183916845207412"><ele>1048.0</ele><time>2026-04-24T17:31:23.998Z</time></trkpt><trkpt lat="40.28782241347607" lon="-1.1838102150588665"><ele>1048.0</ele><time>2026-04-24T17:31:24.998Z</time></trkpt><trkpt lat="40.287915228625025" lon="-1.1837307413335687"><ele>1048.0</ele><time>2026-04-24T17:31:25.998Z</time></trkpt><trkpt lat="40.288013009672" lon="-1.1836887899997781"><ele>1048.0</ele><time>2026-04-24T17:31:26.998Z</time></trkpt><trkpt lat="40.28809238259272" lon="-1.1836132696594956"><ele>1048.0</ele><time>2026-04-24T17:31:27.998Z</time></trkpt><trkpt lat="40.28817899314299" lon="-1.1835633447364766"><ele>1048.0</ele><time>2026-04-24T17:31:28.998Z</time></trkpt><trkpt lat="40.28827348583061" lon="-1.183523439399276"><ele>1044.2</ele><time>2026-04-24T17:31:29.998Z</time></trkpt><trkpt lat="40.2883777447971" lon="-1.1835340730472852"><ele>1040.4</ele><time>2026-04-24T17:31:30.998Z</time></trkpt><trkpt lat="40.288474573798865" lon="-1.1835298125861613"><ele>1036.6000000000001</ele><time>2026-04-24T17:31:31.998Z</time></trkpt><trkpt lat="40.28856133524582" lon="-1.1834992295917401"><ele>1032.8</ele><time>2026-04-24T17:31:32.998Z</time></trkpt><trkpt lat="40.28865283337783" lon="-1.1834756040645338"><ele>1029.0</ele><time>2026-04-24T17:31:33.998Z</time></trkpt><trkpt lat="40.28874528610811" lon="-1.1834765870489246"><ele>1029.0</ele><time>2026-04-24T17:31:34.998Z</time></trkpt><trkpt lat="40.28884078726798" lon="-1.1834574307916401"><ele>1029.0</ele><time>2026-04-24T17:31:35.998Z</time></trkpt><trkpt lat="40.28893698518708" lon="-1.1834367181393366"><ele>1029.0</ele><time>2026-04-24T17:31:36.998Z</time></trkpt><trkpt lat="40.289027467010825" lon="-1.1833980189161095"><ele>1029.0</ele><time>2026-04-24T17:31:37.998Z</time></trkpt><trkpt lat="40.289110074029075" lon="-1.1833437092714807"><ele>1029.0</ele><time>2026-04-24T17:31:38.998Z</time></trkpt><trkpt lat="40.28920269579328" lon="-1.1832842413554912"><ele>1027.3333333333333</ele><time>2026-04-24T17:31:39.998Z</time></trkpt><trkpt lat="40.28928803779375" lon="-1.183234531000797"><ele>1025.6666666666667</ele><time>2026-04-24T17:31:40.998Z</time></trkpt><trkpt lat="40.28937368912997" lon="-1.1831955657753501"><ele>1024.0</ele><time>2026-04-24T17:31:41.998Z</time></trkpt><trkpt lat="40.289462045507136" lon="-1.183174684107308"><ele>1022.3333333333334</ele><time>2026-04-24T17:31:42.998Z</time></trkpt><trkpt lat="40.2895369985287" lon="-1.1831215343621055"><ele>1020.6666666666667</ele><time>2026-04-24T17:31:43.998Z</time></trkpt><trkpt lat="40.28960611976058" lon="-1.18306063392707"><ele>1019.0</ele><time>2026-04-24T17:31:44.998Z</time></trkpt><trkpt lat="40.28966774652756" lon="-1.1829600633669128"><ele>1017.6</ele><time>2026-04-24T17:31:45.998Z</time></trkpt><trkpt lat="40.289726506071524" lon="-1.1828554456713711"><ele>1016.2</ele><time>2026-04-24T17:31:46.998Z</time></trkpt><trkpt lat="40.28978061199857" lon="-1.1827517670005598"><ele>1014.8000000000001</ele><time>2026-04-24T17:31:47.998Z</time></trkpt><trkpt lat="40.28983006274645" lon="-1.1826514054825306"><ele>1013.4000000000001</ele><time>2026-04-24T17:31:48.998Z</time></trkpt><trkpt lat="40.289875853633504" lon="-1.1825489188530907"><ele>1012.0</ele><time>2026-04-24T17:31:49.998Z</time></trkpt><trkpt lat="40.289919386031954" lon="-1.1824444755231465"><ele>1009.0</ele><time>2026-04-24T17:31:50.998Z</time></trkpt><trkpt lat="40.28995995190212" lon="-1.1823363892049197"><ele>1006.0</ele><time>2026-04-24T17:31:51.998Z</time></trkpt><trkpt lat="40.29000044229415" lon="-1.182224155508497"><ele>1003.0</ele><time>2026-04-24T17:31:52.998Z</time></trkpt><trkpt lat="40.29005325861166" lon="-1.1821295170644983"><ele>1000.0</ele><time>2026-04-24T17:31:53.998Z</time></trkpt><trkpt lat="40.29008927484317" lon="-1.1820330551716536"><ele>997.0</ele><time>2026-04-24T17:31:55Z</time></trkpt><trkpt lat="40.29012067214141" lon="-1.1819184831537366"><ele>997.0</ele><time>2026-04-24T17:31:56Z</time></trkpt><trkpt lat="40.29016329585167" lon="-1.181809348562674"><ele>997.0</ele><time>2026-04-24T17:31:57Z</time></trkpt><trkpt lat="40.29021715390334" lon="-1.1816984545759615"><ele>997.0</ele><time>2026-04-24T17:31:58Z</time></trkpt><trkpt lat="40.29025792333127" lon="-1.1815806093945862"><ele>997.0</ele><time>2026-04-24T17:31:59Z</time></trkpt><trkpt lat="40.29029056769509" lon="-1.1814702485416162"><ele>997.0</ele><time>2026-04-24T17:32:00Z</time></trkpt><trkpt lat="40.29032817054272" lon="-1.1813510026632525"><ele>995.8</ele><time>2026-04-24T17:32:01Z</time></trkpt><trkpt lat="40.290366169994954" lon="-1.1812419843621818"><ele>994.6</ele><time>2026-04-24T17:32:02Z</time></trkpt><trkpt lat="40.29041245297153" lon="-1.1811459274433849"><ele>993.3999999999999</ele><time>2026-04-24T17:32:03Z</time></trkpt><trkpt lat="40.290450352645514" lon="-1.1810166972797296"><ele>992.1999999999999</ele><time>2026-04-24T17:32:04Z</time></trkpt><trkpt lat="40.290505125021774" lon="-1.1808793008996876"><ele>991.0</ele><time>2026-04-24T17:32:05Z</time></trkpt><trkpt lat="40.29057582002673" lon="-1.1807501598883274"><ele>988.5999999999999</ele><time>2026-04-24T17:32:06Z</time></trkpt><trkpt lat="40.29062712175532" lon="-1.180625048100202"><ele>986.1999999999999</ele><time>2026-04-24T17:32:07Z</time></trkpt><trkpt lat="40.29069490491572" lon="-1.18052859735693"><ele>983.8000000000001</ele><time>2026-04-24T17:32:08Z</time></trkpt><trkpt lat="40.29074868694088" lon="-1.1804027245291773"><ele>981.4000000000001</ele><time>2026-04-24T17:32:09Z</time></trkpt><trkpt lat="40.29081414930731" lon="-1.180299378493575"><ele>979.0</ele><time>2026-04-24T17:32:10Z</time></trkpt><trkpt lat="40.29087256875607" lon="-1.1801890011897116"><ele>979.0</ele><time>2026-04-24T17:32:11Z</time></trkpt><trkpt lat="40.29093629914568" lon="-1.1800832670396029"><ele>979.0000000000001</ele><time>2026-04-24T17:32:12Z</time></trkpt><trkpt lat="40.29100383378951" lon="-1.1799953927672129"><ele>979.0000000000001</ele><time>2026-04-24T17:32:13Z</time></trkpt><trkpt lat="40.29107193100039" lon="-1.1799125850762917"><ele>979.0</ele><time>2026-04-24T17:32:14Z</time></trkpt><trkpt lat="40.29113591470751" lon="-1.179812816810255"><ele>979.0</ele><time>2026-04-24T17:32:15Z</time></trkpt><trkpt lat="40.29119491310556" lon="-1.1796994053778591"><ele>977.8000000000001</ele><time>2026-04-24T17:32:16Z</time></trkpt><trkpt lat="40.291241888965004" lon="-1.1795959164864667"><ele>976.6000000000001</ele><time>2026-04-24T17:32:17Z</time></trkpt><trkpt lat="40.291278684908164" lon="-1.1794945110393864"><ele>975.4</ele><time>2026-04-24T17:32:18Z</time></trkpt><trkpt lat="40.2912928914819" lon="-1.1793758083876582"><ele>974.2</ele><time>2026-04-24T17:32:19Z</time></trkpt><trkpt lat="40.291285627043926" lon="-1.1792386246768123"><ele>973.0</ele><time>2026-04-24T17:32:20Z</time></trkpt><trkpt lat="40.29123314598284" lon="-1.1791372723267761"><ele>972.9999999999999</ele><time>2026-04-24T17:32:21Z</time></trkpt><trkpt lat="40.29120268148983" lon="-1.1790301261850473"><ele>973.0</ele><time>2026-04-24T17:32:22Z</time></trkpt><trkpt lat="40.291187866459325" lon="-1.1789270322662986"><ele>973.0</ele><time>2026-04-24T17:32:23Z</time></trkpt><trkpt lat="40.29121657177649" lon="-1.1788218395558234"><ele>973.0</ele><time>2026-04-24T17:32:24Z</time></trkpt><trkpt lat="40.2912437327764" lon="-1.178712192381749"><ele>972.9999999999999</ele><time>2026-04-24T17:32:25Z</time></trkpt><trkpt lat="40.29128023386973" lon="-1.178605131610308"><ele>973.0</ele><time>2026-04-24T17:32:26Z</time></trkpt><trkpt lat="40.29132101535618" lon="-1.178513788994509"><ele>971.6666666666666</ele><time>2026-04-24T17:32:27Z</time></trkpt><trkpt lat="40.29137070425438" lon="-1.1784412441522227"><ele>970.3333333333333</ele><time>2026-04-24T17:32:28Z</time></trkpt><trkpt lat="40.291439174193094" lon="-1.17839819364508"><ele>969.0</ele><time>2026-04-24T17:32:29Z</time></trkpt><trkpt lat="40.29151854568317" lon="-1.1783781233261403"><ele>967.6666666666667</ele><time>2026-04-24T17:32:29.999Z</time></trkpt><trkpt lat="40.29159858574409" lon="-1.1783714975671296"><ele>966.3333333333334</ele><time>2026-04-24T17:32:30.999Z</time></trkpt><trkpt lat="40.29168084155614" lon="-1.178388017942332"><ele>965.0</ele><time>2026-04-24T17:32:31.999Z</time></trkpt><trkpt lat="40.291768343105346" lon="-1.1784235491681787"><ele>964.2</ele><time>2026-04-24T17:32:32.999Z</time></trkpt><trkpt lat="40.29185650967682" lon="-1.1784388897435834"><ele>963.4</ele><time>2026-04-24T17:32:33.999Z</time></trkpt><trkpt lat="40.29193850395311" lon="-1.1783634890263868"><ele>962.5999999999999</ele><time>2026-04-24T17:32:34.999Z</time></trkpt><trkpt lat="40.292020121619814" lon="-1.178270895528505"><ele>961.8</ele><time>2026-04-24T17:32:35.999Z</time></trkpt><trkpt lat="40.29213823008358" lon="-1.1782113310459903"><ele>961.0</ele><time>2026-04-24T17:32:36.999Z</time></trkpt><trkpt lat="40.29226667440098" lon="-1.178176095739599"><ele>959.8</ele><time>2026-04-24T17:32:37.999Z</time></trkpt><trkpt lat="40.292389772178694" lon="-1.1781825300440691"><ele>958.5999999999999</ele><time>2026-04-24T17:32:38.999Z</time></trkpt><trkpt lat="40.292499796188" lon="-1.1781532389171026"><ele>957.4</ele><time>2026-04-24T17:32:39.999Z</time></trkpt><trkpt lat="40.29259917238706" lon="-1.1781396482560795"><ele>956.2</ele><time>2026-04-24T17:32:40.999Z</time></trkpt><trkpt lat="40.29269106495923" lon="-1.1781215224048025"><ele>955.0</ele><time>2026-04-24T17:32:41.999Z</time></trkpt><trkpt lat="40.2927846407565" lon="-1.178096835333776"><ele>955.0</ele><time>2026-04-24T17:32:42.999Z</time></trkpt><trkpt lat="40.29287792619219" lon="-1.1780708155268202"><ele>955.0</ele><time>2026-04-24T17:32:43.999Z</time></trkpt><trkpt lat="40.29295362704173" lon="-1.1779877068553668"><ele>955.0</ele><time>2026-04-24T17:32:44.999Z</time></trkpt><trkpt lat="40.29297588344973" lon="-1.177866653100636"><ele>955.0</ele><time>2026-04-24T17:32:45.999Z</time></trkpt><trkpt lat="40.293028314587836" lon="-1.1777332959596631"><ele>955.0</ele><time>2026-04-24T17:32:46.999Z</time></trkpt><trkpt lat="40.29308016512144" lon="-1.1775792247431653"><ele>953.25</ele><time>2026-04-24T17:32:47.999Z</time></trkpt><trkpt lat="40.29313370900117" lon="-1.1774115340372184"><ele>951.5</ele><time>2026-04-24T17:32:48.999Z</time></trkpt><trkpt lat="40.29318746781816" lon="-1.1772507896977231"><ele>949.75</ele><time>2026-04-24T17:32:49.999Z</time></trkpt><trkpt lat="40.293266472351505" lon="-1.1771279652767737"><ele>948.0</ele><time>2026-04-24T17:32:50.999Z</time></trkpt><trkpt lat="40.29334349750505" lon="-1.1770072501196518"><ele>948.0</ele><time>2026-04-24T17:32:51.999Z</time></trkpt><trkpt lat="40.293427370506386" lon="-1.1768940181860597"><ele>948.0</ele><time>2026-04-24T17:32:52.999Z</time></trkpt><trkpt lat="40.29348921938086" lon="-1.17678409347013"><ele>948.0</ele><time>2026-04-24T17:32:53.999Z</time></trkpt><trkpt lat="40.293549649246714" lon="-1.176680217912577"><ele>948.0</ele><time>2026-04-24T17:32:54.999Z</time></trkpt><trkpt lat="40.293614179513575" lon="-1.176570914569201"><ele>948.0</ele><time>2026-04-24T17:32:55.999Z</time></trkpt><trkpt lat="40.293689628955235" lon="-1.1764647656309422"><ele>946.4</ele><time>2026-04-24T17:32:56.999Z</time></trkpt><trkpt lat="40.29376852329102" lon="-1.1763602755368097"><ele>944.8</ele><time>2026-04-24T17:32:57.999Z</time></trkpt><trkpt lat="40.29386130999927" lon="-1.176289927608362"><ele>943.2</ele><time>2026-04-24T17:32:58.999Z</time></trkpt><trkpt lat="40.29394375433889" lon="-1.1762000029217539"><ele>941.6</ele><time>2026-04-24T17:32:59.999Z</time></trkpt><trkpt lat="40.29403257634408" lon="-1.1761083000854105"><ele>940.0</ele><time>2026-04-24T17:33:00.999Z</time></trkpt><trkpt lat="40.29411055805193" lon="-1.1760181348997307"><ele>940.0</ele><time>2026-04-24T17:33:01.999Z</time></trkpt><trkpt lat="40.29419842029347" lon="-1.1759370496188002"><ele>940.0</ele><time>2026-04-24T17:33:02.999Z</time></trkpt><trkpt lat="40.294278422693786" lon="-1.175857038703906"><ele>940.0</ele><time>2026-04-24T17:33:03.999Z</time></trkpt><trkpt lat="40.29444658837605" lon="-1.1756691912522008"><ele>940.0</ele><time>2026-04-24T17:33:05.999Z</time></trkpt><trkpt lat="40.29454409159324" lon="-1.1755715089725136"><ele>939.25</ele><time>2026-04-24T17:33:06.999Z</time></trkpt><trkpt lat="40.29464537486927" lon="-1.1754700396918807"><ele>938.5</ele><time>2026-04-24T17:33:07.999Z</time></trkpt><trkpt lat="40.29475317284184" lon="-1.175395306922138"><ele>937.75</ele><time>2026-04-24T17:33:08.999Z</time></trkpt><trkpt lat="40.29484410546911" lon="-1.1753086753288666"><ele>937.0</ele><time>2026-04-24T17:33:09.999Z</time></trkpt><trkpt lat="40.294914157237386" lon="-1.1751921973003139"><ele>937.0</ele><time>2026-04-24T17:33:10.999Z</time></trkpt><trkpt lat="40.29496780536334" lon="-1.1750460269091532"><ele>937.0</ele><time>2026-04-24T17:33:11.999Z</time></trkpt><trkpt lat="40.29501562513398" lon="-1.174876015105378"><ele>937.0</ele><time>2026-04-24T17:33:12.999Z</time></trkpt><trkpt lat="40.29506984741898" lon="-1.1746740008356376"><ele>937.0</ele><time>2026-04-24T17:33:13.999Z</time></trkpt><trkpt lat="40.295118250928695" lon="-1.174474141323344"><ele>936.5</ele><time>2026-04-24T17:33:14.999Z</time></trkpt><trkpt lat="40.29516107293516" lon="-1.1743098483148804"><ele>936.0</ele><time>2026-04-24T17:33:15.999Z</time></trkpt><trkpt lat="40.29520279435721" lon="-1.1741514069013617"><ele>935.5</ele><time>2026-04-24T17:33:16.999Z</time></trkpt><trkpt lat="40.29524465680026" lon="-1.1740001808584997"><ele>935.0</ele><time>2026-04-24T17:33:17.999Z</time></trkpt><trkpt lat="40.29528419511889" lon="-1.1738542184353933"><ele>936.25</ele><time>2026-04-24T17:33:18.999Z</time></trkpt><trkpt lat="40.29532245945948" lon="-1.173706939611377"><ele>937.5</ele><time>2026-04-24T17:33:19.999Z</time></trkpt><trkpt lat="40.2953709216866" lon="-1.173562255004478"><ele>938.75</ele><time>2026-04-24T17:33:20.999Z</time></trkpt><trkpt lat="40.295443297016114" lon="-1.1734287788814968"><ele>940.0</ele><time>2026-04-24T17:33:21.999Z</time></trkpt><trkpt lat="40.29553499778162" lon="-1.173296621115315"><ele>937.5</ele><time>2026-04-24T17:33:22.999Z</time></trkpt><trkpt lat="40.29563665321968" lon="-1.173158707086879"><ele>935.0</ele><time>2026-04-24T17:33:23.999Z</time></trkpt><trkpt lat="40.29574505034232" lon="-1.1730202837404535"><ele>932.5</ele><time>2026-04-24T17:33:24.999Z</time></trkpt><trkpt lat="40.29584432170238" lon="-1.1728853141859297"><ele>930.0</ele><time>2026-04-24T17:33:25.999Z</time></trkpt><trkpt lat="40.29592600684261" lon="-1.1727568103687793"><ele>930.0</ele><time>2026-04-24T17:33:26.999Z</time></trkpt><trkpt lat="40.295993077944985" lon="-1.1726316705229416"><ele>930.0</ele><time>2026-04-24T17:33:27.999Z</time></trkpt><trkpt lat="40.296047384930844" lon="-1.172510080165226"><ele>930.0</ele><time>2026-04-24T17:33:28.999Z</time></trkpt><trkpt lat="40.2960936001025" lon="-1.1724049618280983"><ele>930.0</ele><time>2026-04-24T17:33:29.999Z</time></trkpt><trkpt lat="40.296135540105745" lon="-1.172302977679075"><ele>930.0</ele><time>2026-04-24T17:33:30.999Z</time></trkpt><trkpt lat="40.296162346734796" lon="-1.1721931043413059"><ele>930.25</ele><time>2026-04-24T17:33:31.999Z</time></trkpt><trkpt lat="40.296194654048655" lon="-1.1720498753543709"><ele>930.5</ele><time>2026-04-24T17:33:32.999Z</time></trkpt><trkpt lat="40.296221257535876" lon="-1.1719032600308763"><ele>930.75</ele><time>2026-04-24T17:33:33.999Z</time></trkpt><trkpt lat="40.29622931206222" lon="-1.171754310550802"><ele>931.0</ele><time>2026-04-24T17:33:34.999Z</time></trkpt><trkpt lat="40.29622087453099" lon="-1.1715873698423611"><ele>929.5</ele><time>2026-04-24T17:33:35.998Z</time></trkpt><trkpt lat="40.296209610941546" lon="-1.171406219393599"><ele>928.0</ele><time>2026-04-24T17:33:36.998Z</time></trkpt><trkpt lat="40.29619467268842" lon="-1.171241859501926"><ele>926.5</ele><time>2026-04-24T17:33:37.998Z</time></trkpt><trkpt lat="40.296179114104014" lon="-1.1711001083267674"><ele>925.0</ele><time>2026-04-24T17:33:38.998Z</time></trkpt><trkpt lat="40.296163169220954" lon="-1.1709780307276811"><ele>924.9999999999999</ele><time>2026-04-24T17:33:39.998Z</time></trkpt><trkpt lat="40.29614579768834" lon="-1.1708617252863738"><ele>925.0</ele><time>2026-04-24T17:33:40.998Z</time></trkpt><trkpt lat="40.29612671527498" lon="-1.1707625573507023"><ele>925.0</ele><time>2026-04-24T17:33:41.998Z</time></trkpt><trkpt lat="40.29610137811381" lon="-1.1706663194536087"><ele>925.0</ele><time>2026-04-24T17:33:42.998Z</time></trkpt><trkpt lat="40.29607052175666" lon="-1.1705862994587113"><ele>924.9999999999999</ele><time>2026-04-24T17:33:43.998Z</time></trkpt><trkpt lat="40.29603028370666" lon="-1.170508375662124"><ele>925.0</ele><time>2026-04-24T17:33:44.998Z</time></trkpt><trkpt lat="40.29595019302295" lon="-1.1704547294150889"><ele>924.2</ele><time>2026-04-24T17:33:45.998Z</time></trkpt><trkpt lat="40.29589487244525" lon="-1.170368492978388"><ele>923.4</ele><time>2026-04-24T17:33:46.998Z</time></trkpt><trkpt lat="40.29583751367962" lon="-1.1702617574482177"><ele>922.5999999999999</ele><time>2026-04-24T17:33:47.998Z</time></trkpt><trkpt lat="40.29575379393045" lon="-1.1701790866542467"><ele>921.8</ele><time>2026-04-24T17:33:48.998Z</time></trkpt><trkpt lat="40.29567247033561" lon="-1.1700799549295213"><ele>921.0</ele><time>2026-04-24T17:33:49.998Z</time></trkpt><trkpt lat="40.29558882072122" lon="-1.1699794400600003"><ele>920.5999999999999</ele><time>2026-04-24T17:33:50.998Z</time></trkpt><trkpt lat="40.29552310946526" lon="-1.169870769046675"><ele>920.1999999999999</ele><time>2026-04-24T17:33:51.998Z</time></trkpt><trkpt lat="40.29544444742111" lon="-1.1698065727831983"><ele>919.8000000000001</ele><time>2026-04-24T17:33:52.998Z</time></trkpt><trkpt lat="40.29536762109589" lon="-1.169729857828123"><ele>919.4000000000001</ele><time>2026-04-24T17:33:53.998Z</time></trkpt><trkpt lat="40.29526637863826" lon="-1.1696452275785965"><ele>919.0</ele><time>2026-04-24T17:33:54.998Z</time></trkpt><trkpt lat="40.29515692555771" lon="-1.1695576512899002"><ele>919.0</ele><time>2026-04-24T17:33:55.998Z</time></trkpt><trkpt lat="40.29505882096977" lon="-1.1694963276739452"><ele>919.0</ele><time>2026-04-24T17:33:56.998Z</time></trkpt><trkpt lat="40.294961280895855" lon="-1.1694547476070332"><ele>919.0</ele><time>2026-04-24T17:33:57.998Z</time></trkpt><trkpt lat="40.2948549285579" lon="-1.1694347552647335"><ele>919.0</ele><time>2026-04-24T17:33:58.998Z</time></trkpt><trkpt lat="40.29472303899295" lon="-1.1694238531918377"><ele>918.25</ele><time>2026-04-24T17:33:59.998Z</time></trkpt><trkpt lat="40.2945861455147" lon="-1.1694258786334797"><ele>917.5</ele><time>2026-04-24T17:34:01Z</time></trkpt><trkpt lat="40.29447434383598" lon="-1.1694306546945625"><ele>916.75</ele><time>2026-04-24T17:34:02Z</time></trkpt><trkpt lat="40.294369824625434" lon="-1.1694106304594105"><ele>916.0</ele><time>2026-04-24T17:34:03Z</time></trkpt><trkpt lat="40.29425661070542" lon="-1.169418988696972"><ele>916.0</ele><time>2026-04-24T17:34:04Z</time></trkpt><trkpt lat="40.29412626847187" lon="-1.1693492634808027"><ele>916.0</ele><time>2026-04-24T17:34:05Z</time></trkpt><trkpt lat="40.29399477444896" lon="-1.1693154958055543"><ele>916.0</ele><time>2026-04-24T17:34:06Z</time></trkpt><trkpt lat="40.29387983100213" lon="-1.1692337179516117"><ele>916.0</ele><time>2026-04-24T17:34:07Z</time></trkpt><trkpt lat="40.29374970369167" lon="-1.1691769929402187"><ele>915.25</ele><time>2026-04-24T17:34:08Z</time></trkpt><trkpt lat="40.293637450979865" lon="-1.1690769590655479"><ele>914.5</ele><time>2026-04-24T17:34:09Z</time></trkpt><trkpt lat="40.29356058008241" lon="-1.1689585798617868"><ele>913.75</ele><time>2026-04-24T17:34:10Z</time></trkpt><trkpt lat="40.29349240064829" lon="-1.1688324327602617"><ele>913.0</ele><time>2026-04-24T17:34:11Z</time></trkpt><trkpt lat="40.29341974223761" lon="-1.1686616223553994"><ele>913.0</ele><time>2026-04-24T17:34:12Z</time></trkpt><trkpt lat="40.293338446091646" lon="-1.168448454992626"><ele>913.0</ele><time>2026-04-24T17:34:13Z</time></trkpt><trkpt lat="40.29323166726433" lon="-1.1682192706984216"><ele>913.0</ele><time>2026-04-24T17:34:14Z</time></trkpt><trkpt lat="40.29312847934747" lon="-1.1679872926542068"><ele>913.0</ele><time>2026-04-24T17:34:15Z</time></trkpt><trkpt lat="40.29302301134497" lon="-1.1677610168059531"><ele>913.0</ele><time>2026-04-24T17:34:16Z</time></trkpt><trkpt lat="40.29292405755151" lon="-1.1675348622702568"><ele>913.0</ele><time>2026-04-24T17:34:17Z</time></trkpt><trkpt lat="40.29283549985587" lon="-1.1673200232493657"><ele>911.6666666666666</ele><time>2026-04-24T17:34:18Z</time></trkpt><trkpt lat="40.29274925432807" lon="-1.1671045613287903"><ele>910.3333333333333</ele><time>2026-04-24T17:34:19Z</time></trkpt><trkpt lat="40.29266997556837" lon="-1.1668604407788556"><ele>909.0</ele><time>2026-04-24T17:34:20Z</time></trkpt><trkpt lat="40.292611019650316" lon="-1.166597360006843"><ele>907.6666666666667</ele><time>2026-04-24T17:34:21Z</time></trkpt><trkpt lat="40.29253891157594" lon="-1.1663259556529366"><ele>906.3333333333334</ele><time>2026-04-24T17:34:22Z</time></trkpt><trkpt lat="40.29246684453347" lon="-1.1660680728577166"><ele>905.0</ele><time>2026-04-24T17:34:23Z</time></trkpt><trkpt lat="40.2923936782912" lon="-1.1658269244788906"><ele>905.0</ele><time>2026-04-24T17:34:24Z</time></trkpt><trkpt lat="40.29231198688353" lon="-1.1655749132528994"><ele>905.0</ele><time>2026-04-24T17:34:25Z</time></trkpt><trkpt lat="40.29222578071861" lon="-1.1653153036483093"><ele>905.0</ele><time>2026-04-24T17:34:26Z</time></trkpt><trkpt lat="40.29213388413669" lon="-1.1650468149938373"><ele>904.5</ele><time>2026-04-24T17:34:27Z</time></trkpt><trkpt lat="40.29204097449712" lon="-1.1647648864019258"><ele>904.0</ele><time>2026-04-24T17:34:28Z</time></trkpt><trkpt lat="40.291941258836324" lon="-1.164498794571021"><ele>904.0</ele><time>2026-04-24T17:34:29Z</time></trkpt><trkpt lat="40.29184558836282" lon="-1.1642571334769543"><ele>904.0</ele><time>2026-04-24T17:34:30Z</time></trkpt><trkpt lat="40.29175719494998" lon="-1.1640338540149533"><ele>904.0</ele><time>2026-04-24T17:34:31Z</time></trkpt><trkpt lat="40.29166907225282" lon="-1.16381125838107"><ele>905.0</ele><time>2026-04-24T17:34:32Z</time></trkpt><trkpt lat="40.291572457178034" lon="-1.1635898925333776"><ele>906.0</ele><time>2026-04-24T17:34:33Z</time></trkpt><trkpt lat="40.291467715392734" lon="-1.1633542064788527"><ele>907.0</ele><time>2026-04-24T17:34:34Z</time></trkpt><trkpt lat="40.29138456230781" lon="-1.1631200763481646"><ele>907.0</ele><time>2026-04-24T17:34:35Z</time></trkpt><trkpt lat="40.29132460552702" lon="-1.1629032217326654"><ele>907.0</ele><time>2026-04-24T17:34:36Z</time></trkpt><trkpt lat="40.291283565981765" lon="-1.1626965858560245"><ele>907.0</ele><time>2026-04-24T17:34:37Z</time></trkpt><trkpt lat="40.29126577843718" lon="-1.162481097365395"><ele>906.0</ele><time>2026-04-24T17:34:38Z</time></trkpt><trkpt lat="40.29125918008362" lon="-1.162252397802604"><ele>905.0</ele><time>2026-04-24T17:34:39Z</time></trkpt><trkpt lat="40.29126176807025" lon="-1.162003289126806"><ele>904.0</ele><time>2026-04-24T17:34:40Z</time></trkpt><trkpt lat="40.29128019379433" lon="-1.1617493585753165"><ele>902.3333333333333</ele><time>2026-04-24T17:34:41Z</time></trkpt><trkpt lat="40.291300556340396" lon="-1.1614982989098876"><ele>900.6666666666667</ele><time>2026-04-24T17:34:42Z</time></trkpt><trkpt lat="40.29133508626989" lon="-1.1612516961599966"><ele>899.0</ele><time>2026-04-24T17:34:43Z</time></trkpt><trkpt lat="40.29136629043463" lon="-1.161025042987063"><ele>899.0</ele><time>2026-04-24T17:34:44Z</time></trkpt><trkpt lat="40.291388907269045" lon="-1.1607988200995014"><ele>899.0</ele><time>2026-04-24T17:34:45Z</time></trkpt><trkpt lat="40.29141835014397" lon="-1.16055385346816"><ele>899.0</ele><time>2026-04-24T17:34:45.999Z</time></trkpt><trkpt lat="40.29144730789936" lon="-1.16031697912613"><ele>898.3333333333334</ele><time>2026-04-24T17:34:46.999Z</time></trkpt><trkpt lat="40.29145207801558" lon="-1.1600804099982254"><ele>897.6666666666667</ele><time>2026-04-24T17:34:47.999Z</time></trkpt><trkpt lat="40.29143800158926" lon="-1.1598337513539165"><ele>897.0</ele><time>2026-04-24T17:34:48.999Z</time></trkpt><trkpt lat="40.29141270402876" lon="-1.159601987329612"><ele>896.0</ele><time>2026-04-24T17:34:49.999Z</time></trkpt><trkpt lat="40.29136686550691" lon="-1.1593522510965"><ele>895.0</ele><time>2026-04-24T17:34:50.999Z</time></trkpt><trkpt lat="40.291316915310304" lon="-1.1590941915999315"><ele>894.0</ele><time>2026-04-24T17:34:51.999Z</time></trkpt><trkpt lat="40.291244923086815" lon="-1.1588311140862866"><ele>894.0</ele><time>2026-04-24T17:34:52.999Z</time></trkpt><trkpt lat="40.2911547948904" lon="-1.1585673927513729"><ele>894.0</ele><time>2026-04-24T17:34:53.999Z</time></trkpt><trkpt lat="40.291068723415336" lon="-1.1583115357596285"><ele>894.0</ele><time>2026-04-24T17:34:54.999Z</time></trkpt><trkpt lat="40.29100348279495" lon="-1.1580692919238884"><ele>893.3333333333333</ele><time>2026-04-24T17:34:55.999Z</time></trkpt><trkpt lat="40.29095671806886" lon="-1.1578262632071525"><ele>892.6666666666666</ele><time>2026-04-24T17:34:56.999Z</time></trkpt><trkpt lat="40.29092341672485" lon="-1.1575687650850037"><ele>892.0</ele><time>2026-04-24T17:34:57.999Z</time></trkpt><trkpt lat="40.29090240809318" lon="-1.1573128128443244"><ele>890.0</ele><time>2026-04-24T17:34:58.999Z</time></trkpt><trkpt lat="40.29088384145391" lon="-1.1570575113179309"><ele>888.0</ele><time>2026-04-24T17:34:59.999Z</time></trkpt><trkpt lat="40.29086892206865" lon="-1.1568061750983314"><ele>886.0</ele><time>2026-04-24T17:35:00.999Z</time></trkpt><trkpt lat="40.29084903599992" lon="-1.1565709179197725"><ele>885.6666666666666</ele><time>2026-04-24T17:35:01.999Z</time></trkpt><trkpt lat="40.290812764936206" lon="-1.156347312380372"><ele>885.3333333333333</ele><time>2026-04-24T17:35:02.999Z</time></trkpt><trkpt lat="40.29079108537921" lon="-1.156129321093463"><ele>885.0</ele><time>2026-04-24T17:35:03.999Z</time></trkpt><trkpt lat="40.29077651356787" lon="-1.1559311027663475"><ele>885.0</ele><time>2026-04-24T17:35:04.999Z</time></trkpt><trkpt lat="40.2907457078831" lon="-1.155734507959914"><ele>885.0</ele><time>2026-04-24T17:35:05.999Z</time></trkpt><trkpt lat="40.290693761072525" lon="-1.155538669332145"><ele>885.0</ele><time>2026-04-24T17:35:06.999Z</time></trkpt><trkpt lat="40.29062477976554" lon="-1.1553428887363115"><ele>884.6666666666667</ele><time>2026-04-24T17:35:07.999Z</time></trkpt><trkpt lat="40.29053246820981" lon="-1.155169071539614"><ele>884.3333333333334</ele><time>2026-04-24T17:35:08.999Z</time></trkpt><trkpt lat="40.29042622384605" lon="-1.1550162916212243"><ele>884.0</ele><time>2026-04-24T17:35:09.999Z</time></trkpt><trkpt lat="40.29031437102731" lon="-1.15487396461926"><ele>882.3333333333334</ele><time>2026-04-24T17:35:10.999Z</time></trkpt><trkpt lat="40.290182749867036" lon="-1.1547450505948114"><ele>880.6666666666667</ele><time>2026-04-24T17:35:11.999Z</time></trkpt><trkpt lat="40.29004601306329" lon="-1.154628102177018"><ele>879.0</ele><time>2026-04-24T17:35:12.999Z</time></trkpt><trkpt lat="40.28992316201498" lon="-1.1545174740289497"><ele>879.0</ele><time>2026-04-24T17:35:13.999Z</time></trkpt><trkpt lat="40.28982274398989" lon="-1.1544132861724954"><ele>879.0</ele><time>2026-04-24T17:35:14.999Z</time></trkpt><trkpt lat="40.28973438600538" lon="-1.1543134977576193"><ele>879.0</ele><time>2026-04-24T17:35:15.999Z</time></trkpt><trkpt lat="40.28964118875778" lon="-1.1541966758386468"><ele>879.0</ele><time>2026-04-24T17:35:16.999Z</time></trkpt><trkpt lat="40.28953895650561" lon="-1.154025115227948"><ele>879.0</ele><time>2026-04-24T17:35:17.999Z</time></trkpt><trkpt lat="40.2894851583851" lon="-1.1538057391114604"><ele>879.0</ele><time>2026-04-24T17:35:18.999Z</time></trkpt><trkpt lat="40.28946765816732" lon="-1.153622391153968"><ele>879.0</ele><time>2026-04-24T17:35:19.999Z</time></trkpt><trkpt lat="40.28949608300481" lon="-1.1534421859384003"><ele>879.0</ele><time>2026-04-24T17:35:20.999Z</time></trkpt><trkpt lat="40.28951009891907" lon="-1.1532355388114617"><ele>879.0</ele><time>2026-04-24T17:35:21.999Z</time></trkpt><trkpt lat="40.289509781239914" lon="-1.152988970185094"><ele>879.0</ele><time>2026-04-24T17:35:22.999Z</time></trkpt><trkpt lat="40.28951564166851" lon="-1.152719147884975"><ele>878.0</ele><time>2026-04-24T17:35:23.999Z</time></trkpt><trkpt lat="40.289510203632624" lon="-1.1524321494712253"><ele>877.0</ele><time>2026-04-24T17:35:24.999Z</time></trkpt><trkpt lat="40.28949735895191" lon="-1.1521370243739508"><ele>876.0</ele><time>2026-04-24T17:35:25.999Z</time></trkpt><trkpt lat="40.289487600799525" lon="-1.1518420226796229"><ele>875.3333333333333</ele><time>2026-04-24T17:35:26.999Z</time></trkpt><trkpt lat="40.28945298145977" lon="-1.151546477414894"><ele>874.6666666666666</ele><time>2026-04-24T17:35:27.999Z</time></trkpt><trkpt lat="40.289392000941824" lon="-1.1512939481384656"><ele>874.0</ele><time>2026-04-24T17:35:28.999Z</time></trkpt><trkpt lat="40.28932726811387" lon="-1.1510619431615638"><ele>873.3333333333333</ele><time>2026-04-24T17:35:29.999Z</time></trkpt><trkpt lat="40.289257918596746" lon="-1.150830545507529"><ele>872.6666666666667</ele><time>2026-04-24T17:35:30.999Z</time></trkpt><trkpt lat="40.28919181003294" lon="-1.150605627704881"><ele>872.0</ele><time>2026-04-24T17:35:31.999Z</time></trkpt><trkpt lat="40.289122040468584" lon="-1.1503697963803727"><ele>872.0</ele><time>2026-04-24T17:35:32.999Z</time></trkpt><trkpt lat="40.289045762754114" lon="-1.150136244840075"><ele>872.0</ele><time>2026-04-24T17:35:33.999Z</time></trkpt><trkpt lat="40.28895655751478" lon="-1.1498987603751496"><ele>872.0</ele><time>2026-04-24T17:35:34.999Z</time></trkpt><trkpt lat="40.28887838422668" lon="-1.1496253144120847"><ele>870.0</ele><time>2026-04-24T17:35:35.999Z</time></trkpt><trkpt lat="40.288730300309155" lon="-1.149375646448412"><ele>868.0</ele><time>2026-04-24T17:35:36.999Z</time></trkpt><trkpt lat="40.28858274599724" lon="-1.1491434459055836"><ele>868.0</ele><time>2026-04-24T17:35:37.999Z</time></trkpt><trkpt lat="40.28843776520467" lon="-1.148930131941443"><ele>868.0</ele><time>2026-04-24T17:35:38.999Z</time></trkpt><trkpt lat="40.28826443035141" lon="-1.1487423410116966"><ele>868.0</ele><time>2026-04-24T17:35:39.999Z</time></trkpt><trkpt lat="40.28814272160947" lon="-1.1485300941109717"><ele>867.6666666666666</ele><time>2026-04-24T17:35:40.999Z</time></trkpt><trkpt lat="40.288020147751915" lon="-1.14831633848897"><ele>867.3333333333333</ele><time>2026-04-24T17:35:41.999Z</time></trkpt><trkpt lat="40.28789395785681" lon="-1.1481022944705088"><ele>867.0</ele><time>2026-04-24T17:35:42.999Z</time></trkpt><trkpt lat="40.28775898204788" lon="-1.147898769822301"><ele>867.0</ele><time>2026-04-24T17:35:43.999Z</time></trkpt><trkpt lat="40.28763992437691" lon="-1.147716741645786"><ele>867.0</ele><time>2026-04-24T17:35:44.999Z</time></trkpt><trkpt lat="40.28756328180391" lon="-1.147551375534761"><ele>867.0</ele><time>2026-04-24T17:35:45.999Z</time></trkpt><trkpt lat="40.28750603358617" lon="-1.147425047673288"><ele>867.0</ele><time>2026-04-24T17:35:46.999Z</time></trkpt><trkpt lat="40.2874522577987" lon="-1.1473377601771904"><ele>866.5</ele><time>2026-04-24T17:35:47.999Z</time></trkpt><trkpt lat="40.287390771151856" lon="-1.1472888998805175"><ele>866.0</ele><time>2026-04-24T17:35:48.999Z</time></trkpt><trkpt lat="40.28728551738331" lon="-1.1472540566434937"><ele>865.5</ele><time>2026-04-24T17:35:49.998Z</time></trkpt><trkpt lat="40.287142708156026" lon="-1.1472192243936385"><ele>865.0</ele><time>2026-04-24T17:35:50.998Z</time></trkpt><trkpt lat="40.287000956714294" lon="-1.1471433044707213"><ele>865.0</ele><time>2026-04-24T17:35:51.998Z</time></trkpt><trkpt lat="40.286878984749244" lon="-1.147034439211106"><ele>865.0</ele><time>2026-04-24T17:35:52.998Z</time></trkpt><trkpt lat="40.28674862725592" lon="-1.1469132379764084"><ele>865.0</ele><time>2026-04-24T17:35:53.998Z</time></trkpt><trkpt lat="40.28663234111777" lon="-1.146818317707225"><ele>865.0</ele><time>2026-04-24T17:35:54.998Z</time></trkpt><trkpt lat="40.28652272673215" lon="-1.146744917579378"><ele>864.8</ele><time>2026-04-24T17:35:55.998Z</time></trkpt><trkpt lat="40.28641638352808" lon="-1.1466785150553165"><ele>864.6</ele><time>2026-04-24T17:35:56.998Z</time></trkpt><trkpt lat="40.28633079966241" lon="-1.146606005166448"><ele>864.4000000000001</ele><time>2026-04-24T17:35:57.998Z</time></trkpt><trkpt lat="40.28625965601474" lon="-1.146566899019421"><ele>864.2</ele><time>2026-04-24T17:35:58.998Z</time></trkpt><trkpt lat="40.28617011972396" lon="-1.1465201843977355"><ele>864.0</ele><time>2026-04-24T17:36:00.998Z</time></trkpt><trkpt lat="40.28609452110695" lon="-1.1464694058988572"><ele>863.5</ele><time>2026-04-24T17:36:02.998Z</time></trkpt><trkpt lat="40.28607000261956" lon="-1.1463759569467176"><ele>863.0</ele><time>2026-04-24T17:36:05.998Z</time></trkpt><trkpt lat="40.28616584710156" lon="-1.1463091159735157"><ele>862.5</ele><time>2026-04-24T17:36:09Z</time></trkpt><trkpt lat="40.28624529990071" lon="-1.146290193062489"><ele>862.0</ele><time>2026-04-24T17:36:11Z</time></trkpt><trkpt lat="40.286354377196034" lon="-1.1462554946873005"><ele>861.5</ele><time>2026-04-24T17:36:13Z</time></trkpt><trkpt lat="40.28641910842119" lon="-1.1462279741505972"><ele>861.0</ele><time>2026-04-24T17:36:14Z</time></trkpt><trkpt lat="40.28648533977898" lon="-1.1461990258421968"><ele>861.0</ele><time>2026-04-24T17:36:15Z</time></trkpt><trkpt lat="40.28654642546716" lon="-1.146166919806384"><ele>861.0</ele><time>2026-04-24T17:36:16Z</time></trkpt><trkpt lat="40.28660439850329" lon="-1.146128590717688"><ele>861.0</ele><time>2026-04-24T17:36:17Z</time></trkpt><trkpt lat="40.28666034993524" lon="-1.1460839852712816"><ele>861.0</ele><time>2026-04-24T17:36:18Z</time></trkpt><trkpt lat="40.286716856632246" lon="-1.1460348156034639"><ele>861.0</ele><time>2026-04-24T17:36:19Z</time></trkpt><trkpt lat="40.28677947414328" lon="-1.1459754978171557"><ele>861.0</ele><time>2026-04-24T17:36:20Z</time></trkpt><trkpt lat="40.2868611399214" lon="-1.1458920009719185"><ele>861.0</ele><time>2026-04-24T17:36:21Z</time></trkpt><trkpt lat="40.286950931396206" lon="-1.1457961951744449"><ele>861.0</ele><time>2026-04-24T17:36:22Z</time></trkpt><trkpt lat="40.28707798649122" lon="-1.1456567268606004"><ele>861.0</ele><time>2026-04-24T17:36:23Z</time></trkpt><trkpt lat="40.28722275629069" lon="-1.1454889977804232"><ele>861.0</ele><time>2026-04-24T17:36:24Z</time></trkpt><trkpt lat="40.287354280714375" lon="-1.1453319992100675"><ele>860.6666666666667</ele><time>2026-04-24T17:36:25Z</time></trkpt><trkpt lat="40.28749883886616" lon="-1.1451593841627419"><ele>860.3333333333334</ele><time>2026-04-24T17:36:26Z</time></trkpt><trkpt lat="40.28763967405915" lon="-1.1449922547390676"><ele>860.0</ele><time>2026-04-24T17:36:27Z</time></trkpt><trkpt lat="40.287770691843974" lon="-1.1448387709382548"><ele>860.0</ele><time>2026-04-24T17:36:28Z</time></trkpt><trkpt lat="40.28789035878645" lon="-1.144700436150188"><ele>860.0</ele><time>2026-04-24T17:36:29Z</time></trkpt><trkpt lat="40.28799690805307" lon="-1.1445762986567314"><ele>860.0</ele><time>2026-04-24T17:36:30Z</time></trkpt><trkpt lat="40.288090100771036" lon="-1.1444676919540637"><ele>860.0</ele><time>2026-04-24T17:36:31Z</time></trkpt><trkpt lat="40.28817568895868" lon="-1.1443679475297632"><ele>860.75</ele><time>2026-04-24T17:36:32Z</time></trkpt><trkpt lat="40.28825337341065" lon="-1.1442774141446186"><ele>861.5</ele><time>2026-04-24T17:36:33Z</time></trkpt><trkpt lat="40.28833589443658" lon="-1.144181244203829"><ele>862.25</ele><time>2026-04-24T17:36:34Z</time></trkpt><trkpt lat="40.28842262435304" lon="-1.144080169223795"><ele>863.0</ele><time>2026-04-24T17:36:35Z</time></trkpt><trkpt lat="40.288513500069826" lon="-1.1439742627380738"><ele>863.25</ele><time>2026-04-24T17:36:36Z</time></trkpt><trkpt lat="40.28860431765256" lon="-1.1438684239868153"><ele>863.5</ele><time>2026-04-24T17:36:37Z</time></trkpt><trkpt lat="40.288697453848286" lon="-1.14375988313666"><ele>863.75</ele><time>2026-04-24T17:36:38Z</time></trkpt><trkpt lat="40.28879069250322" lon="-1.14365122920224"><ele>864.0</ele><time>2026-04-24T17:36:39Z</time></trkpt><trkpt lat="40.28888243754785" lon="-1.1435449097286863"><ele>864.25</ele><time>2026-04-24T17:36:40Z</time></trkpt><trkpt lat="40.28897334372556" lon="-1.1434395623754856"><ele>864.5</ele><time>2026-04-24T17:36:41Z</time></trkpt><trkpt lat="40.28906323562751" lon="-1.143335390435483"><ele>864.75</ele><time>2026-04-24T17:36:42Z</time></trkpt><trkpt lat="40.28917715455445" lon="-1.1432683548524716"><ele>865.0</ele><time>2026-04-24T17:36:43Z</time></trkpt><trkpt lat="40.28926528362873" lon="-1.143160129594821"><ele>865.0</ele><time>2026-04-24T17:36:44Z</time></trkpt><trkpt lat="40.28935615181782" lon="-1.1430475561934488"><ele>865.0</ele><time>2026-04-24T17:36:45Z</time></trkpt><trkpt lat="40.289448445632786" lon="-1.1429361635921536"><ele>865.0</ele><time>2026-04-24T17:36:46Z</time></trkpt><trkpt lat="40.28951565995907" lon="-1.1428017422011005"><ele>865.0</ele><time>2026-04-24T17:36:47Z</time></trkpt><trkpt lat="40.289602935195326" lon="-1.142700021371785"><ele>865.0</ele><time>2026-04-24T17:36:48Z</time></trkpt><trkpt lat="40.28969406099899" lon="-1.1425941171102385"><ele>865.0</ele><time>2026-04-24T17:36:49Z</time></trkpt><trkpt lat="40.289792468582014" lon="-1.1424835604595978"><ele>865.0</ele><time>2026-04-24T17:36:50Z</time></trkpt><trkpt lat="40.289901916861474" lon="-1.1423652552710026"><ele>865.0</ele><time>2026-04-24T17:36:51Z</time></trkpt><trkpt lat="40.29002333279047" lon="-1.1422540309159817"><ele>865.0</ele><time>2026-04-24T17:36:52Z</time></trkpt><trkpt lat="40.29014493007872" lon="-1.1421689276079572"><ele>865.0</ele><time>2026-04-24T17:36:53Z</time></trkpt><trkpt lat="40.29028300604877" lon="-1.1420963992690238"><ele>865.0</ele><time>2026-04-24T17:36:54Z</time></trkpt><trkpt lat="40.29043300769052" lon="-1.1420300560040348"><ele>865.0</ele><time>2026-04-24T17:36:55Z</time></trkpt><trkpt lat="40.29058073494244" lon="-1.141966591738985"><ele>865.0</ele><time>2026-04-24T17:36:55.999Z</time></trkpt><trkpt lat="40.290724250931675" lon="-1.1419057782302504"><ele>865.0</ele><time>2026-04-24T17:36:56.999Z</time></trkpt><trkpt lat="40.29085787954958" lon="-1.1418508668016745"><ele>865.0</ele><time>2026-04-24T17:36:57.999Z</time></trkpt><trkpt lat="40.29098110757577" lon="-1.141800229252169"><ele>865.0</ele><time>2026-04-24T17:36:58.999Z</time></trkpt><trkpt lat="40.29110373491703" lon="-1.1417770145425241"><ele>865.0</ele><time>2026-04-24T17:36:59.999Z</time></trkpt><trkpt lat="40.291214739491544" lon="-1.1417171007135198"><ele>865.0</ele><time>2026-04-24T17:37:00.999Z</time></trkpt><trkpt lat="40.29133329567135" lon="-1.1417189168568587"><ele>865.0</ele><time>2026-04-24T17:37:01.999Z</time></trkpt><trkpt lat="40.29144660301951" lon="-1.1417080379395845"><ele>865.0</ele><time>2026-04-24T17:37:02.999Z</time></trkpt><trkpt lat="40.29156066798831" lon="-1.1417095612017711"><ele>865.25</ele><time>2026-04-24T17:37:03.999Z</time></trkpt><trkpt lat="40.291695830055495" lon="-1.141718939758091"><ele>865.5</ele><time>2026-04-24T17:37:04.999Z</time></trkpt><trkpt lat="40.291841938112064" lon="-1.1417274047966013"><ele>865.75</ele><time>2026-04-24T17:37:05.999Z</time></trkpt><trkpt lat="40.29199857483789" lon="-1.1417055944753909"><ele>866.0</ele><time>2026-04-24T17:37:06.999Z</time></trkpt><trkpt lat="40.2921702099315" lon="-1.1416413163783696"><ele>866.3333333333334</ele><time>2026-04-24T17:37:07.999Z</time></trkpt><trkpt lat="40.29234927609666" lon="-1.1415494093480243"><ele>866.6666666666667</ele><time>2026-04-24T17:37:08.999Z</time></trkpt><trkpt lat="40.292511440067834" lon="-1.141439304229365"><ele>867.0</ele><time>2026-04-24T17:37:09.999Z</time></trkpt><trkpt lat="40.29266442005673" lon="-1.1413400587759814"><ele>867.0</ele><time>2026-04-24T17:37:10.999Z</time></trkpt><trkpt lat="40.292812656562745" lon="-1.1412488022589786"><ele>867.0</ele><time>2026-04-24T17:37:11.999Z</time></trkpt><trkpt lat="40.292963367432435" lon="-1.1411570088391134"><ele>867.0</ele><time>2026-04-24T17:37:12.999Z</time></trkpt><trkpt lat="40.2931259620619" lon="-1.1410600678986507"><ele>868.3333333333333</ele><time>2026-04-24T17:37:13.999Z</time></trkpt><trkpt lat="40.293265468820145" lon="-1.1409722980832513"><ele>869.6666666666666</ele><time>2026-04-24T17:37:14.999Z</time></trkpt><trkpt lat="40.293403728964904" lon="-1.1408812907953874"><ele>871.0</ele><time>2026-04-24T17:37:15.999Z</time></trkpt><trkpt lat="40.293533555446224" lon="-1.1408003933008488"><ele>871.0</ele><time>2026-04-24T17:37:16.999Z</time></trkpt><trkpt lat="40.29365437710315" lon="-1.1407227642908133"><ele>871.0</ele><time>2026-04-24T17:37:17.999Z</time></trkpt><trkpt lat="40.29376766994654" lon="-1.140651340544476"><ele>871.0</ele><time>2026-04-24T17:37:18.999Z</time></trkpt><trkpt lat="40.293865309848925" lon="-1.140573202391618"><ele>871.0</ele><time>2026-04-24T17:37:19.999Z</time></trkpt><trkpt lat="40.2939687222471" lon="-1.1405106889706422"><ele>870.0</ele><time>2026-04-24T17:37:20.999Z</time></trkpt><trkpt lat="40.294076409370966" lon="-1.140445591718319"><ele>869.0</ele><time>2026-04-24T17:37:21.999Z</time></trkpt><trkpt lat="40.29418409354781" lon="-1.1403827215509124"><ele>868.0</ele><time>2026-04-24T17:37:22.999Z</time></trkpt><trkpt lat="40.29429559854461" lon="-1.1403165631174597"><ele>867.0</ele><time>2026-04-24T17:37:23.999Z</time></trkpt><trkpt lat="40.29441283220747" lon="-1.1402454239966482"><ele>867.0</ele><time>2026-04-24T17:37:24.999Z</time></trkpt><trkpt lat="40.29454030205799" lon="-1.1401884311509032"><ele>867.0</ele><time>2026-04-24T17:37:25.999Z</time></trkpt><trkpt lat="40.29465981675632" lon="-1.1401122109782882"><ele>867.0</ele><time>2026-04-24T17:37:26.999Z</time></trkpt><trkpt lat="40.29478797736133" lon="-1.140027684705516"><ele>867.0</ele><time>2026-04-24T17:37:27.999Z</time></trkpt><trkpt lat="40.2949458747166" lon="-1.1399272018067819"><ele>867.3333333333333</ele><time>2026-04-24T17:37:28.999Z</time></trkpt><trkpt lat="40.295121847178685" lon="-1.1398162289210692"><ele>867.6666666666666</ele><time>2026-04-24T17:37:29.999Z</time></trkpt><trkpt lat="40.295308244529814" lon="-1.1397021799105158"><ele>868.0</ele><time>2026-04-24T17:37:30.999Z</time></trkpt><trkpt lat="40.29550216352553" lon="-1.1395879370287347"><ele>869.0</ele><time>2026-04-24T17:37:31.999Z</time></trkpt><trkpt lat="40.295699103082" lon="-1.1394744999770892"><ele>870.0</ele><time>2026-04-24T17:37:32.999Z</time></trkpt><trkpt lat="40.295902300211175" lon="-1.1393679867659803"><ele>871.0</ele><time>2026-04-24T17:37:33.999Z</time></trkpt><trkpt lat="40.296103939524045" lon="-1.1392672757038238"><ele>871.0</ele><time>2026-04-24T17:37:34.999Z</time></trkpt><trkpt lat="40.29630453739672" lon="-1.139169326726903"><ele>871.0</ele><time>2026-04-24T17:37:35.999Z</time></trkpt><trkpt lat="40.2965009748289" lon="-1.1390741739557717"><ele>871.0</ele><time>2026-04-24T17:37:36.999Z</time></trkpt><trkpt lat="40.296689136024725" lon="-1.1389762069803993"><ele>870.3333333333333</ele><time>2026-04-24T17:37:37.999Z</time></trkpt><trkpt lat="40.29687316093824" lon="-1.1388764706526928"><ele>869.6666666666667</ele><time>2026-04-24T17:37:38.999Z</time></trkpt><trkpt lat="40.29704910984206" lon="-1.1387786368170132"><ele>869.0</ele><time>2026-04-24T17:37:39.999Z</time></trkpt><trkpt lat="40.29721531712622" lon="-1.1386789854943833"><ele>869.6666666666667</ele><time>2026-04-24T17:37:40.999Z</time></trkpt><trkpt lat="40.297379763287054" lon="-1.1385831851824173"><ele>870.3333333333333</ele><time>2026-04-24T17:37:41.999Z</time></trkpt><trkpt lat="40.2975414927537" lon="-1.1384890375863732"><ele>871.0</ele><time>2026-04-24T17:37:42.999Z</time></trkpt><trkpt lat="40.29769535034692" lon="-1.1384131732211524"><ele>871.0</ele><time>2026-04-24T17:37:43.999Z</time></trkpt><trkpt lat="40.29784245281184" lon="-1.1383427550416028"><ele>871.0</ele><time>2026-04-24T17:37:44.999Z</time></trkpt><trkpt lat="40.29797136388425" lon="-1.1382738423922987"><ele>871.0</ele><time>2026-04-24T17:37:45.999Z</time></trkpt><trkpt lat="40.29807899429971" lon="-1.1382132702008125"><ele>871.0</ele><time>2026-04-24T17:37:46.999Z</time></trkpt><trkpt lat="40.29817163147905" lon="-1.1381611585114626"><ele>871.1999999999999</ele><time>2026-04-24T17:37:47.999Z</time></trkpt><trkpt lat="40.29826405034378" lon="-1.138110800418725"><ele>871.3999999999999</ele><time>2026-04-24T17:37:48.999Z</time></trkpt><trkpt lat="40.29835721853525" lon="-1.138040395096702"><ele>871.6</ele><time>2026-04-24T17:37:49.999Z</time></trkpt><trkpt lat="40.29842436185904" lon="-1.1379490480989163"><ele>871.8</ele><time>2026-04-24T17:37:50.999Z</time></trkpt><trkpt lat="40.29845599111857" lon="-1.1378502597260816"><ele>872.0</ele><time>2026-04-24T17:37:51.999Z</time></trkpt><trkpt lat="40.29843911954305" lon="-1.1377553375363278"><ele>872.0000000000001</ele><time>2026-04-24T17:37:52.999Z</time></trkpt><trkpt lat="40.29842360670771" lon="-1.1376734955590089"><ele>872.0</ele><time>2026-04-24T17:37:53.999Z</time></trkpt><trkpt lat="40.29840983588222" lon="-1.1375668724596883"><ele>872.0</ele><time>2026-04-24T17:37:54.999Z</time></trkpt><trkpt lat="40.298430041789736" lon="-1.1374688210621902"><ele>872.0</ele><time>2026-04-24T17:37:55.998Z</time></trkpt><trkpt lat="40.29846691022853" lon="-1.1373879071003057"><ele>872.0000000000001</ele><time>2026-04-24T17:37:56.998Z</time></trkpt><trkpt lat="40.298533762504405" lon="-1.137338482648055"><ele>872.0</ele><time>2026-04-24T17:37:57.998Z</time></trkpt><trkpt lat="40.29862281817758" lon="-1.137306891347241"><ele>871.6666666666667</ele><time>2026-04-24T17:37:58.998Z</time></trkpt><trkpt lat="40.298754799701996" lon="-1.1372686384895605"><ele>871.3333333333333</ele><time>2026-04-24T17:37:59.998Z</time></trkpt><trkpt lat="40.29889414676345" lon="-1.137180922477484"><ele>871.0</ele><time>2026-04-24T17:38:00.998Z</time></trkpt><trkpt lat="40.29903125224403" lon="-1.1370440545365192"><ele>871.0</ele><time>2026-04-24T17:38:01.998Z</time></trkpt><trkpt lat="40.29915644985518" lon="-1.1369060325467346"><ele>871.0</ele><time>2026-04-24T17:38:02.998Z</time></trkpt><trkpt lat="40.299280706759895" lon="-1.136776098970945"><ele>871.0</ele><time>2026-04-24T17:38:03.998Z</time></trkpt><trkpt lat="40.299381548075" lon="-1.1366307795456485"><ele>870.0</ele><time>2026-04-24T17:38:04.998Z</time></trkpt><trkpt lat="40.299503042362375" lon="-1.1365268079451936"><ele>869.0</ele><time>2026-04-24T17:38:05.998Z</time></trkpt><trkpt lat="40.299621646017364" lon="-1.1364089397980985"><ele>868.0</ele><time>2026-04-24T17:38:06.998Z</time></trkpt><trkpt lat="40.29976291410635" lon="-1.1363260878040142"><ele>867.0</ele><time>2026-04-24T17:38:07.998Z</time></trkpt><trkpt lat="40.29991669272181" lon="-1.1362688506824457"><ele>867.0</ele><time>2026-04-24T17:38:08.998Z</time></trkpt><trkpt lat="40.30007619884258" lon="-1.1362368862357035"><ele>867.0</ele><time>2026-04-24T17:38:09.998Z</time></trkpt><trkpt lat="40.300247997862236" lon="-1.1362186293650198"><ele>867.0</ele><time>2026-04-24T17:38:10.998Z</time></trkpt><trkpt lat="40.300412297517326" lon="-1.1362088653895024"><ele>867.0</ele><time>2026-04-24T17:38:12Z</time></trkpt><trkpt lat="40.300581973375586" lon="-1.1362086785837033"><ele>867.0</ele><time>2026-04-24T17:38:13Z</time></trkpt><trkpt lat="40.300752160735385" lon="-1.1362088015898442"><ele>867.0</ele><time>2026-04-24T17:38:14Z</time></trkpt><trkpt lat="40.300921826311615" lon="-1.1361967742292465"><ele>867.6666666666667</ele><time>2026-04-24T17:38:15Z</time></trkpt><trkpt lat="40.301091755537925" lon="-1.1361716870249672"><ele>868.3333333333334</ele><time>2026-04-24T17:38:16Z</time></trkpt><trkpt lat="40.30127558904436" lon="-1.1361118304928266"><ele>869.0</ele><time>2026-04-24T17:38:17Z</time></trkpt><trkpt lat="40.301466023265796" lon="-1.136040718020698"><ele>869.3333333333334</ele><time>2026-04-24T17:38:18Z</time></trkpt><trkpt lat="40.30165855325656" lon="-1.1359536599103057"><ele>869.6666666666667</ele><time>2026-04-24T17:38:19Z</time></trkpt><trkpt lat="40.301857348186445" lon="-1.1358563216025894"><ele>870.0</ele><time>2026-04-24T17:38:20Z</time></trkpt><trkpt lat="40.30205474634734" lon="-1.1357612997344717"><ele>868.6666666666667</ele><time>2026-04-24T17:38:21Z</time></trkpt><trkpt lat="40.302244962541565" lon="-1.135673499162938"><ele>867.3333333333334</ele><time>2026-04-24T17:38:22Z</time></trkpt><trkpt lat="40.302420301678794" lon="-1.1355963351462874"><ele>866.0</ele><time>2026-04-24T17:38:23Z</time></trkpt><trkpt lat="40.30259247172103" lon="-1.1355287174233983"><ele>866.0</ele><time>2026-04-24T17:38:24Z</time></trkpt><trkpt lat="40.30277496503884" lon="-1.1354803031798735"><ele>866.0</ele><time>2026-04-24T17:38:25Z</time></trkpt><trkpt lat="40.302964679660484" lon="-1.1354564918512708"><ele>866.0</ele><time>2026-04-24T17:38:26Z</time></trkpt><trkpt lat="40.30315905647047" lon="-1.1354511221999284"><ele>867.6666666666667</ele><time>2026-04-24T17:38:27Z</time></trkpt><trkpt lat="40.303352510273626" lon="-1.1354557933165912"><ele>869.3333333333333</ele><time>2026-04-24T17:38:28Z</time></trkpt><trkpt lat="40.30353753848019" lon="-1.135482675006395"><ele>871.0</ele><time>2026-04-24T17:38:29Z</time></trkpt><trkpt lat="40.30372380661816" lon="-1.1355457258749015"><ele>872.6666666666666</ele><time>2026-04-24T17:38:30Z</time></trkpt><trkpt lat="40.30392545032677" lon="-1.13560928874335"><ele>874.3333333333333</ele><time>2026-04-24T17:38:31Z</time></trkpt><trkpt lat="40.304105694977224" lon="-1.1357115918294347"><ele>876.0</ele><time>2026-04-24T17:38:32Z</time></trkpt><trkpt lat="40.304250359236114" lon="-1.135829056578524"><ele>877.0</ele><time>2026-04-24T17:38:33Z</time></trkpt><trkpt lat="40.30436380027252" lon="-1.1359821237472982"><ele>878.0</ele><time>2026-04-24T17:38:34Z</time></trkpt><trkpt lat="40.30447182417785" lon="-1.13614555578396"><ele>879.0</ele><time>2026-04-24T17:38:35Z</time></trkpt><trkpt lat="40.30456294546805" lon="-1.1363439764154617"><ele>879.3333333333333</ele><time>2026-04-24T17:38:36Z</time></trkpt><trkpt lat="40.30464624092185" lon="-1.136562192719597"><ele>879.6666666666666</ele><time>2026-04-24T17:38:37Z</time></trkpt><trkpt lat="40.30472426932307" lon="-1.1367906011315434"><ele>880.0</ele><time>2026-04-24T17:38:38Z</time></trkpt><trkpt lat="40.30481965884185" lon="-1.1370232483556735"><ele>880.0</ele><time>2026-04-24T17:38:39Z</time></trkpt><trkpt lat="40.30491458282162" lon="-1.137234509877644"><ele>880.0</ele><time>2026-04-24T17:38:40Z</time></trkpt><trkpt lat="40.305006179755715" lon="-1.1374114529617312"><ele>880.0</ele><time>2026-04-24T17:38:41Z</time></trkpt><trkpt lat="40.30512976707392" lon="-1.1375683684961593"><ele>881.3333333333333</ele><time>2026-04-24T17:38:42Z</time></trkpt><trkpt lat="40.305266503201416" lon="-1.1376366812239904"><ele>882.6666666666667</ele><time>2026-04-24T17:38:43Z</time></trkpt><trkpt lat="40.30542225669013" lon="-1.137691602480587"><ele>884.0</ele><time>2026-04-24T17:38:44Z</time></trkpt><trkpt lat="40.30557909531369" lon="-1.1376912281945852"><ele>885.25</ele><time>2026-04-24T17:38:45Z</time></trkpt><trkpt lat="40.30572468658158" lon="-1.1376282358793797"><ele>886.5</ele><time>2026-04-24T17:38:46Z</time></trkpt><trkpt lat="40.30584906306888" lon="-1.1375554902551621"><ele>887.75</ele><time>2026-04-24T17:38:47Z</time></trkpt><trkpt lat="40.30599019177211" lon="-1.137489411530004"><ele>889.0</ele><time>2026-04-24T17:38:48Z</time></trkpt><trkpt lat="40.3061270573324" lon="-1.1373859712770737"><ele>886.3333333333333</ele><time>2026-04-24T17:38:49Z</time></trkpt><trkpt lat="40.30626711233817" lon="-1.1372930131634238"><ele>883.6666666666667</ele><time>2026-04-24T17:38:50Z</time></trkpt><trkpt lat="40.30640945708354" lon="-1.1371889468757408"><ele>881.0</ele><time>2026-04-24T17:38:51Z</time></trkpt><trkpt lat="40.30658417196163" lon="-1.1371010512521726"><ele>879.3333333333334</ele><time>2026-04-24T17:38:52Z</time></trkpt><trkpt lat="40.30677796789024" lon="-1.137072037438556"><ele>877.6666666666667</ele><time>2026-04-24T17:38:53Z</time></trkpt><trkpt lat="40.306978493631014" lon="-1.1370912183206805"><ele>876.0</ele><time>2026-04-24T17:38:54Z</time></trkpt><trkpt lat="40.307180850527885" lon="-1.1371025799345647"><ele>874.6666666666667</ele><time>2026-04-24T17:38:55Z</time></trkpt><trkpt lat="40.307379394236015" lon="-1.1371193115204836"><ele>873.3333333333334</ele><time>2026-04-24T17:38:56Z</time></trkpt><trkpt lat="40.30756610052452" lon="-1.1371169886385688"><ele>872.0</ele><time>2026-04-24T17:38:57Z</time></trkpt><trkpt lat="40.307738975375415" lon="-1.137095911923807"><ele>872.0</ele><time>2026-04-24T17:38:58Z</time></trkpt><trkpt lat="40.30790922094406" lon="-1.1370564653111856"><ele>872.0</ele><time>2026-04-24T17:38:59Z</time></trkpt><trkpt lat="40.30807320803922" lon="-1.1369755864352369"><ele>872.0</ele><time>2026-04-24T17:38:59.999Z</time></trkpt><trkpt lat="40.30823061608935" lon="-1.136860264243428"><ele>872.0</ele><time>2026-04-24T17:39:00.999Z</time></trkpt><trkpt lat="40.30837108450476" lon="-1.1367255179648086"><ele>872.0</ele><time>2026-04-24T17:39:01.999Z</time></trkpt><trkpt lat="40.3085100393833" lon="-1.1365842235090926"><ele>872.0</ele><time>2026-04-24T17:39:02.999Z</time></trkpt><trkpt lat="40.30865032751837" lon="-1.136452813296543"><ele>871.3333333333334</ele><time>2026-04-24T17:39:03.999Z</time></trkpt><trkpt lat="40.3088012569096" lon="-1.136330276590497"><ele>870.6666666666667</ele><time>2026-04-24T17:39:04.999Z</time></trkpt><trkpt lat="40.30895479802922" lon="-1.1362186130524548"><ele>870.0</ele><time>2026-04-24T17:39:05.999Z</time></trkpt><trkpt lat="40.30911633751237" lon="-1.1361014740949167"><ele>872.0</ele><time>2026-04-24T17:39:06.999Z</time></trkpt><trkpt lat="40.309272021251374" lon="-1.1359784768368868"><ele>874.0</ele><time>2026-04-24T17:39:07.999Z</time></trkpt><trkpt lat="40.309424586960894" lon="-1.1358489223642838"><ele>876.0</ele><time>2026-04-24T17:39:08.999Z</time></trkpt><trkpt lat="40.309572758799774" lon="-1.135711288436919"><ele>877.3333333333333</ele><time>2026-04-24T17:39:09.999Z</time></trkpt><trkpt lat="40.309715051384295" lon="-1.1355711579345231"><ele>878.6666666666666</ele><time>2026-04-24T17:39:10.999Z</time></trkpt><trkpt lat="40.30985840334157" lon="-1.1354247682872052"><ele>880.0</ele><time>2026-04-24T17:39:11.999Z</time></trkpt><trkpt lat="40.3099984974492" lon="-1.1352791633631094"><ele>880.3333333333333</ele><time>2026-04-24T17:39:12.999Z</time></trkpt><trkpt lat="40.310139017426984" lon="-1.1351312181463606"><ele>880.6666666666667</ele><time>2026-04-24T17:39:13.999Z</time></trkpt><trkpt lat="40.31027950565298" lon="-1.134990941624617"><ele>881.0</ele><time>2026-04-24T17:39:14.999Z</time></trkpt><trkpt lat="40.310422867918916" lon="-1.134867287714824"><ele>881.0</ele><time>2026-04-24T17:39:15.999Z</time></trkpt><trkpt lat="40.31055728659781" lon="-1.1347671259511585"><ele>881.0</ele><time>2026-04-24T17:39:16.999Z</time></trkpt><trkpt lat="40.31066542177436" lon="-1.1346744497409689"><ele>881.0</ele><time>2026-04-24T17:39:17.999Z</time></trkpt><trkpt lat="40.310750615837485" lon="-1.134559652002381"><ele>881.0</ele><time>2026-04-24T17:39:18.999Z</time></trkpt><trkpt lat="40.310804807490676" lon="-1.1344240493570508"><ele>880.75</ele><time>2026-04-24T17:39:19.999Z</time></trkpt><trkpt lat="40.310827425703856" lon="-1.1342644409749472"><ele>880.5</ele><time>2026-04-24T17:39:20.999Z</time></trkpt><trkpt lat="40.3108270084124" lon="-1.1340939844614428"><ele>880.25</ele><time>2026-04-24T17:39:21.999Z</time></trkpt><trkpt lat="40.31083899766319" lon="-1.1339117030196881"><ele>880.0</ele><time>2026-04-24T17:39:22.999Z</time></trkpt><trkpt lat="40.31091569285418" lon="-1.1337739339756816"><ele>880.0</ele><time>2026-04-24T17:39:23.999Z</time></trkpt><trkpt lat="40.3110275103746" lon="-1.1336549863552925"><ele>880.0</ele><time>2026-04-24T17:39:24.999Z</time></trkpt><trkpt lat="40.311171274874624" lon="-1.133562452729779"><ele>880.0</ele><time>2026-04-24T17:39:25.999Z</time></trkpt><trkpt lat="40.311319532039164" lon="-1.1334724460294168"><ele>879.3333333333333</ele><time>2026-04-24T17:39:26.999Z</time></trkpt><trkpt lat="40.31146425237211" lon="-1.1333510358689312"><ele>878.6666666666667</ele><time>2026-04-24T17:39:27.999Z</time></trkpt><trkpt lat="40.31162250508464" lon="-1.133270568371586"><ele>878.0</ele><time>2026-04-24T17:39:28.999Z</time></trkpt><trkpt lat="40.31178309657487" lon="-1.1331800051315464"><ele>878.0</ele><time>2026-04-24T17:39:29.999Z</time></trkpt><trkpt lat="40.31195165589383" lon="-1.1330900080380875"><ele>878.0</ele><time>2026-04-24T17:39:30.999Z</time></trkpt><trkpt lat="40.31212184386428" lon="-1.132998823357752"><ele>878.0</ele><time>2026-04-24T17:39:31.999Z</time></trkpt><trkpt lat="40.31229193645408" lon="-1.1329120166239066"><ele>880.3333333333334</ele><time>2026-04-24T17:39:32.999Z</time></trkpt><trkpt lat="40.3124648067183" lon="-1.1328316749667873"><ele>882.6666666666667</ele><time>2026-04-24T17:39:33.999Z</time></trkpt><trkpt lat="40.31263481651661" lon="-1.1327632300918349"><ele>885.0</ele><time>2026-04-24T17:39:34.999Z</time></trkpt><trkpt lat="40.31281012874635" lon="-1.1327116665469987"><ele>885.0</ele><time>2026-04-24T17:39:35.999Z</time></trkpt><trkpt lat="40.312996334538255" lon="-1.1326784704238304"><ele>885.0</ele><time>2026-04-24T17:39:36.999Z</time></trkpt><trkpt lat="40.313204789785274" lon="-1.1326280990202449"><ele>885.0</ele><time>2026-04-24T17:39:37.999Z</time></trkpt><trkpt lat="40.31341265092701" lon="-1.1326133037521477"><ele>885.3333333333333</ele><time>2026-04-24T17:39:38.999Z</time></trkpt><trkpt lat="40.313621676826074" lon="-1.1325628490037347"><ele>885.6666666666666</ele><time>2026-04-24T17:39:39.999Z</time></trkpt><trkpt lat="40.31382204458634" lon="-1.132514967932303"><ele>886.0</ele><time>2026-04-24T17:39:40.999Z</time></trkpt><trkpt lat="40.31402643439829" lon="-1.1324528370877773"><ele>883.6666666666666</ele><time>2026-04-24T17:39:41.999Z</time></trkpt><trkpt lat="40.31420962353922" lon="-1.1323320659125045"><ele>881.3333333333333</ele><time>2026-04-24T17:39:42.999Z</time></trkpt><trkpt lat="40.31439479943462" lon="-1.1321925892556088"><ele>879.0</ele><time>2026-04-24T17:39:43.999Z</time></trkpt><trkpt lat="40.314574280861294" lon="-1.1320401139873786"><ele>882.0</ele><time>2026-04-24T17:39:44.999Z</time></trkpt><trkpt lat="40.31475988701395" lon="-1.131880970715165"><ele>885.0</ele><time>2026-04-24T17:39:45.999Z</time></trkpt><trkpt lat="40.314970812122446" lon="-1.1317180946621412"><ele>881.0</ele><time>2026-04-24T17:39:46.999Z</time></trkpt><trkpt lat="40.31518494312958" lon="-1.131530864040482"><ele>877.0</ele><time>2026-04-24T17:39:47.999Z</time></trkpt><trkpt lat="40.31539883711345" lon="-1.131346448352607"><ele>880.0</ele><time>2026-04-24T17:39:48.999Z</time></trkpt><trkpt lat="40.31559446857442" lon="-1.1311819550992979"><ele>883.0</ele><time>2026-04-24T17:39:49.999Z</time></trkpt><trkpt lat="40.31577582796906" lon="-1.1310228205081485"><ele>883.0</ele><time>2026-04-24T17:39:50.999Z</time></trkpt><trkpt lat="40.31596153638362" lon="-1.1308647714631321"><ele>883.0</ele><time>2026-04-24T17:39:51.999Z</time></trkpt><trkpt lat="40.31614212397921" lon="-1.13070854967535"><ele>883.0</ele><time>2026-04-24T17:39:52.999Z</time></trkpt><trkpt lat="40.316321801704184" lon="-1.1305504903933272"><ele>881.0</ele><time>2026-04-24T17:39:53.999Z</time></trkpt><trkpt lat="40.31648904431853" lon="-1.1304088857356018"><ele>879.0</ele><time>2026-04-24T17:39:54.999Z</time></trkpt><trkpt lat="40.31666092868962" lon="-1.1302580031215181"><ele>877.0</ele><time>2026-04-24T17:39:55.999Z</time></trkpt><trkpt lat="40.31683525934126" lon="-1.1301030776363488"><ele>877.0</ele><time>2026-04-24T17:39:56.999Z</time></trkpt><trkpt lat="40.31700824905587" lon="-1.1299335977066587"><ele>877.0</ele><time>2026-04-24T17:39:57.999Z</time></trkpt><trkpt lat="40.317185754580095" lon="-1.1297801142892452"><ele>877.0</ele><time>2026-04-24T17:39:58.998Z</time></trkpt><trkpt lat="40.31736550537288" lon="-1.1296246895082045"><ele>878.5</ele><time>2026-04-24T17:39:59.998Z</time></trkpt><trkpt lat="40.31755240868656" lon="-1.1294636181671693"><ele>880.0</ele><time>2026-04-24T17:40:00.998Z</time></trkpt><trkpt lat="40.317751983428714" lon="-1.129292716470672"><ele>880.0</ele><time>2026-04-24T17:40:01.998Z</time></trkpt><trkpt lat="40.31795010889137" lon="-1.1291230569494557"><ele>880.0</ele><time>2026-04-24T17:40:02.998Z</time></trkpt><trkpt lat="40.318154290861784" lon="-1.1289482111708629"><ele>879.5</ele><time>2026-04-24T17:40:03.998Z</time></trkpt><trkpt lat="40.3183621658178" lon="-1.1287784576015298"><ele>879.0</ele><time>2026-04-24T17:40:04.998Z</time></trkpt><trkpt lat="40.31857310526545" lon="-1.1286022212242959"><ele>879.0</ele><time>2026-04-24T17:40:05.998Z</time></trkpt><trkpt lat="40.31877697049107" lon="-1.1284249178744759"><ele>879.0</ele><time>2026-04-24T17:40:06.998Z</time></trkpt><trkpt lat="40.318963247488846" lon="-1.128222058400229"><ele>878.5</ele><time>2026-04-24T17:40:07.998Z</time></trkpt><trkpt lat="40.319156716109426" lon="-1.1280263172962484"><ele>878.0</ele><time>2026-04-24T17:40:08.998Z</time></trkpt><trkpt lat="40.31933924074013" lon="-1.1278313868648377"><ele>878.0</ele><time>2026-04-24T17:40:09.998Z</time></trkpt><trkpt lat="40.3195223848818" lon="-1.1276253345299185"><ele>878.0</ele><time>2026-04-24T17:40:10.998Z</time></trkpt><trkpt lat="40.3196977881063" lon="-1.1274235071538663"><ele>879.5</ele><time>2026-04-24T17:40:11.998Z</time></trkpt><trkpt lat="40.31987541235229" lon="-1.1272175541687803"><ele>881.0</ele><time>2026-04-24T17:40:12.998Z</time></trkpt><trkpt lat="40.3200497202109" lon="-1.1270175347654108"><ele>881.0</ele><time>2026-04-24T17:40:13.998Z</time></trkpt><trkpt lat="40.32023726551269" lon="-1.1268338098272628"><ele>881.0</ele><time>2026-04-24T17:40:14.998Z</time></trkpt><trkpt lat="40.320394372839225" lon="-1.1266278692247071"><ele>881.0</ele><time>2026-04-24T17:40:15.998Z</time></trkpt><trkpt lat="40.320556620394214" lon="-1.1264421197013206"><ele>881.0</ele><time>2026-04-24T17:40:16.998Z</time></trkpt><trkpt lat="40.32072749495208" lon="-1.1262660466305405"><ele>881.0</ele><time>2026-04-24T17:40:18Z</time></trkpt><trkpt lat="40.3208762877752" lon="-1.126054795773807"><ele>881.0</ele><time>2026-04-24T17:40:19Z</time></trkpt><trkpt lat="40.32103024652046" lon="-1.125857046035875"><ele>881.0</ele><time>2026-04-24T17:40:20Z</time></trkpt><trkpt lat="40.321192040766384" lon="-1.1256711274356295"><ele>881.0</ele><time>2026-04-24T17:40:21Z</time></trkpt><trkpt lat="40.32132376381785" lon="-1.12545569509068"><ele>880.0</ele><time>2026-04-24T17:40:22Z</time></trkpt><trkpt lat="40.32144819552194" lon="-1.1252342617861237"><ele>879.0</ele><time>2026-04-24T17:40:23Z</time></trkpt><trkpt lat="40.32157907088023" lon="-1.1250175396751474"><ele>878.0</ele><time>2026-04-24T17:40:24Z</time></trkpt><trkpt lat="40.321716236951765" lon="-1.1248012202129507"><ele>876.0</ele><time>2026-04-24T17:40:25Z</time></trkpt><trkpt lat="40.32185226432584" lon="-1.1245841654406914"><ele>874.0</ele><time>2026-04-24T17:40:26Z</time></trkpt><trkpt lat="40.32198510736527" lon="-1.1243654157658518"><ele>872.0</ele><time>2026-04-24T17:40:27Z</time></trkpt><trkpt lat="40.32212040492555" lon="-1.124144121988715"><ele>875.0</ele><time>2026-04-24T17:40:28Z</time></trkpt><trkpt lat="40.32225925743251" lon="-1.123923542618406"><ele>878.0</ele><time>2026-04-24T17:40:29Z</time></trkpt><trkpt lat="40.32239849601864" lon="-1.1237073831651931"><ele>881.0</ele><time>2026-04-24T17:40:30Z</time></trkpt><trkpt lat="40.322546620204385" lon="-1.1234912608965846"><ele>881.0</ele><time>2026-04-24T17:40:31Z</time></trkpt><trkpt lat="40.32271281047289" lon="-1.1232872579858457"><ele>881.0</ele><time>2026-04-24T17:40:32Z</time></trkpt><trkpt lat="40.32290519126638" lon="-1.1231106628277328"><ele>883.5</ele><time>2026-04-24T17:40:33Z</time></trkpt><trkpt lat="40.32312220982929" lon="-1.12293062972507"><ele>886.0</ele><time>2026-04-24T17:40:34Z</time></trkpt><trkpt lat="40.323328292621724" lon="-1.1227275639231158"><ele>886.0</ele><time>2026-04-24T17:40:35Z</time></trkpt><trkpt lat="40.3235214345598" lon="-1.1225038257702509"><ele>886.0</ele><time>2026-04-24T17:40:36Z</time></trkpt><trkpt lat="40.32370520324115" lon="-1.1222751218808424"><ele>886.0</ele><time>2026-04-24T17:40:37Z</time></trkpt><trkpt lat="40.32388135953147" lon="-1.122064529722423"><ele>886.0</ele><time>2026-04-24T17:40:38Z</time></trkpt><trkpt lat="40.324046475262506" lon="-1.1218618839837369"><ele>886.0</ele><time>2026-04-24T17:40:39Z</time></trkpt><trkpt lat="40.32419770824969" lon="-1.1216748084808954"><ele>886.0</ele><time>2026-04-24T17:40:40Z</time></trkpt><trkpt lat="40.32433717390948" lon="-1.1214860965199296"><ele>886.0</ele><time>2026-04-24T17:40:41Z</time></trkpt><trkpt lat="40.32446827922952" lon="-1.1212809632741911"><ele>883.0</ele><time>2026-04-24T17:40:42Z</time></trkpt><trkpt lat="40.32458619880088" lon="-1.1210608549917689"><ele>880.0</ele><time>2026-04-24T17:40:43Z</time></trkpt><trkpt lat="40.32469424628575" lon="-1.1208370191951502"><ele>877.0</ele><time>2026-04-24T17:40:44Z</time></trkpt><trkpt lat="40.32480359815473" lon="-1.1206189647797162"><ele>877.0</ele><time>2026-04-24T17:40:45Z</time></trkpt><trkpt lat="40.32492011161033" lon="-1.1204049056846899"><ele>877.0</ele><time>2026-04-24T17:40:46Z</time></trkpt><trkpt lat="40.325044953313274" lon="-1.1201960504976038"><ele>877.0</ele><time>2026-04-24T17:40:47Z</time></trkpt><trkpt lat="40.325187856609006" lon="-1.1199986935107673"><ele>876.0</ele><time>2026-04-24T17:40:48Z</time></trkpt><trkpt lat="40.32535241194717" lon="-1.1198190264547794"><ele>875.0</ele><time>2026-04-24T17:40:49Z</time></trkpt><trkpt lat="40.32553535903254" lon="-1.1196759580730828"><ele>874.0</ele><time>2026-04-24T17:40:50Z</time></trkpt><trkpt lat="40.32572465033251" lon="-1.1195479171702314"><ele>874.0</ele><time>2026-04-24T17:40:51Z</time></trkpt><trkpt lat="40.325924619437195" lon="-1.1194477905170064"><ele>874.0</ele><time>2026-04-24T17:40:52Z</time></trkpt><trkpt lat="40.32613947118293" lon="-1.1193862314201704"><ele>874.0</ele><time>2026-04-24T17:40:53Z</time></trkpt><trkpt lat="40.32638502317557" lon="-1.1193817816590175"><ele>875.0</ele><time>2026-04-24T17:40:54Z</time></trkpt><trkpt lat="40.32663748702272" lon="-1.1194061229676966"><ele>876.0</ele><time>2026-04-24T17:40:55Z</time></trkpt><trkpt lat="40.32690508468898" lon="-1.1194832705136508"><ele>876.0</ele><time>2026-04-24T17:40:56Z</time></trkpt><trkpt lat="40.32717536689315" lon="-1.119574065839522"><ele>876.0</ele><time>2026-04-24T17:40:57Z</time></trkpt><trkpt lat="40.327420419659575" lon="-1.1196804497489068"><ele>874.0</ele><time>2026-04-24T17:40:58Z</time></trkpt><trkpt lat="40.32765147759559" lon="-1.1197781720480842"><ele>872.0</ele><time>2026-04-24T17:40:59Z</time></trkpt><trkpt lat="40.32787914367895" lon="-1.1198463326754067"><ele>870.0</ele><time>2026-04-24T17:41:00Z</time></trkpt><trkpt lat="40.32811875465348" lon="-1.1198659084680083"><ele>868.0</ele><time>2026-04-24T17:41:01Z</time></trkpt><trkpt lat="40.328361274190385" lon="-1.1198395395841292"><ele>868.0</ele><time>2026-04-24T17:41:02Z</time></trkpt><trkpt lat="40.32859913433276" lon="-1.1197645875249835"><ele>868.0</ele><time>2026-04-24T17:41:03Z</time></trkpt><trkpt lat="40.32882615780966" lon="-1.1196421163310815"><ele>871.0</ele><time>2026-04-24T17:41:04Z</time></trkpt><trkpt lat="40.32903753762939" lon="-1.1194889277965643"><ele>874.0</ele><time>2026-04-24T17:41:04.999Z</time></trkpt><trkpt lat="40.329213367635774" lon="-1.1193141953549486"><ele>874.0</ele><time>2026-04-24T17:41:05.999Z</time></trkpt><trkpt lat="40.32935207962821" lon="-1.1191362257646347"><ele>874.0</ele><time>2026-04-24T17:41:06.999Z</time></trkpt><trkpt lat="40.329460937756295" lon="-1.1189496781472"><ele>874.0</ele><time>2026-04-24T17:41:07.999Z</time></trkpt><trkpt lat="40.32955127637069" lon="-1.1187726422230952"><ele>873.6</ele><time>2026-04-24T17:41:08.999Z</time></trkpt><trkpt lat="40.32960432853161" lon="-1.118634364765474"><ele>873.2</ele><time>2026-04-24T17:41:09.999Z</time></trkpt><trkpt lat="40.329645882326204" lon="-1.118505275639685"><ele>872.8000000000001</ele><time>2026-04-24T17:41:10.999Z</time></trkpt><trkpt lat="40.32968600914039" lon="-1.118393310129476"><ele>872.4000000000001</ele><time>2026-04-24T17:41:11.999Z</time></trkpt><trkpt lat="40.329710937238495" lon="-1.1183026164910335"><ele>872.0</ele><time>2026-04-24T17:41:12.999Z</time></trkpt><trkpt lat="40.32970603516254" lon="-1.1181866307448496"><ele>871.8</ele><time>2026-04-24T17:41:14.999Z</time></trkpt><trkpt lat="40.32969658360119" lon="-1.1181041955574766"><ele>871.6</ele><time>2026-04-24T17:41:15.999Z</time></trkpt><trkpt lat="40.32967913625674" lon="-1.1179723104412078"><ele>871.3999999999999</ele><time>2026-04-24T17:41:16.999Z</time></trkpt><trkpt lat="40.329676970629976" lon="-1.1178280877900302"><ele>871.1999999999999</ele><time>2026-04-24T17:41:17.999Z</time></trkpt><trkpt lat="40.329674186329946" lon="-1.1176856504794892"><ele>871.0</ele><time>2026-04-24T17:41:18.999Z</time></trkpt><trkpt lat="40.32964811190525" lon="-1.1175474361787148"><ele>871.0</ele><time>2026-04-24T17:41:19.999Z</time></trkpt><trkpt lat="40.32959357449806" lon="-1.1174219290751257"><ele>871.0</ele><time>2026-04-24T17:41:20.999Z</time></trkpt><trkpt lat="40.329500389200604" lon="-1.1173301340574322"><ele>871.0</ele><time>2026-04-24T17:41:21.999Z</time></trkpt><trkpt lat="40.32937217700362" lon="-1.1172347387241015"><ele>871.0</ele><time>2026-04-24T17:41:22.999Z</time></trkpt><trkpt lat="40.32922618321385" lon="-1.1171259443969699"><ele>871.0</ele><time>2026-04-24T17:41:23.999Z</time></trkpt><trkpt lat="40.329064559182015" lon="-1.1169889497476087"><ele>871.0</ele><time>2026-04-24T17:41:24.999Z</time></trkpt><trkpt lat="40.32888801539599" lon="-1.1168154203219978"><ele>871.0</ele><time>2026-04-24T17:41:25.999Z</time></trkpt><trkpt lat="40.32870403357797" lon="-1.1166278281108293"><ele>869.5</ele><time>2026-04-24T17:41:26.999Z</time></trkpt><trkpt lat="40.32851385411251" lon="-1.1164241816476954"><ele>868.0</ele><time>2026-04-24T17:41:27.999Z</time></trkpt><trkpt lat="40.32831164779572" lon="-1.116192910957665"><ele>868.0</ele><time>2026-04-24T17:41:28.999Z</time></trkpt><trkpt lat="40.32811689451782" lon="-1.1159466275315135"><ele>868.0</ele><time>2026-04-24T17:41:29.999Z</time></trkpt><trkpt lat="40.32795362491788" lon="-1.1157137064042344"><ele>867.0</ele><time>2026-04-24T17:41:30.999Z</time></trkpt><trkpt lat="40.32782009975296" lon="-1.1154921372657893"><ele>866.0</ele><time>2026-04-24T17:41:31.999Z</time></trkpt><trkpt lat="40.32768935224901" lon="-1.1152814504031197"><ele>865.0</ele><time>2026-04-24T17:41:32.999Z</time></trkpt><trkpt lat="40.32756145634784" lon="-1.115070365529581"><ele>865.75</ele><time>2026-04-24T17:41:33.999Z</time></trkpt><trkpt lat="40.327461701210204" lon="-1.1148996712209942"><ele>866.5</ele><time>2026-04-24T17:41:34.999Z</time></trkpt><trkpt lat="40.32738079547448" lon="-1.1147612975970256"><ele>867.25</ele><time>2026-04-24T17:41:35.999Z</time></trkpt><trkpt lat="40.327302227189556" lon="-1.114627213045292"><ele>868.0</ele><time>2026-04-24T17:41:36.999Z</time></trkpt><trkpt lat="40.32721900209571" lon="-1.1145124134768931"><ele>868.25</ele><time>2026-04-24T17:41:37.999Z</time></trkpt><trkpt lat="40.327123724538374" lon="-1.114441829899214"><ele>868.5</ele><time>2026-04-24T17:41:38.999Z</time></trkpt><trkpt lat="40.32701113725105" lon="-1.1144168373225936"><ele>868.75</ele><time>2026-04-24T17:41:39.999Z</time></trkpt><trkpt lat="40.32688937983585" lon="-1.1144484776267642"><ele>869.0</ele><time>2026-04-24T17:41:40.999Z</time></trkpt><trkpt lat="40.32678546690492" lon="-1.114521900899955"><ele>869.0</ele><time>2026-04-24T17:41:41.999Z</time></trkpt><trkpt lat="40.326702293202" lon="-1.1145327438061725"><ele>869.0000000000001</ele><time>2026-04-24T17:41:42.999Z</time></trkpt><trkpt lat="40.326656784202704" lon="-1.1146577438843461"><ele>869.0000000000001</ele><time>2026-04-24T17:41:43.999Z</time></trkpt><trkpt lat="40.326593325856024" lon="-1.1147355394785465"><ele>869.0</ele><time>2026-04-24T17:41:44.999Z</time></trkpt><trkpt lat="40.32651936184497" lon="-1.114806825163793"><ele>869.0</ele><time>2026-04-24T17:41:45.999Z</time></trkpt><trkpt lat="40.32644189215204" lon="-1.1148681439713564"><ele>868.1428571428572</ele><time>2026-04-24T17:41:46.999Z</time></trkpt><trkpt lat="40.326367201839155" lon="-1.1149202022578215"><ele>867.2857142857142</ele><time>2026-04-24T17:41:47.999Z</time></trkpt><trkpt lat="40.326302289795066" lon="-1.11495949557407"><ele>866.4285714285714</ele><time>2026-04-24T17:41:48.999Z</time></trkpt><trkpt lat="40.32623444079599" lon="-1.1149960979380973"><ele>865.5714285714287</ele><time>2026-04-24T17:41:49.999Z</time></trkpt><trkpt lat="40.32616497140133" lon="-1.1150323723875235"><ele>864.7142857142858</ele><time>2026-04-24T17:41:50.999Z</time></trkpt><trkpt lat="40.32609447921841" lon="-1.1150637842049334"><ele>863.8571428571429</ele><time>2026-04-24T17:41:51.999Z</time></trkpt><trkpt lat="40.32603244853147" lon="-1.1150850794777614"><ele>863.0</ele><time>2026-04-24T17:41:52.999Z</time></trkpt><trkpt lat="40.32593648842292" lon="-1.1151360426729267"><ele>863.0000000000001</ele><time>2026-04-24T17:41:54.999Z</time></trkpt><trkpt lat="40.32586288188056" lon="-1.1150769529330915"><ele>863.0</ele><time>2026-04-24T17:41:56.999Z</time></trkpt><trkpt lat="40.32577731359754" lon="-1.1150442178189233"><ele>863.0</ele><time>2026-04-24T17:41:59.999Z</time></trkpt><trkpt lat="40.325696216797624" lon="-1.115002505788243"><ele>863.0</ele><time>2026-04-24T17:42:01.999Z</time></trkpt><trkpt lat="40.325654000219906" lon="-1.1149047841158701"><ele>863.0000000000001</ele><time>2026-04-24T17:42:50Z</time></trkpt><trkpt lat="40.32559491609882" lon="-1.1148562147926988"><ele>863.0</ele><time>2026-04-24T17:42:51Z</time></trkpt><trkpt lat="40.325520624771976" lon="-1.1148341609273262"><ele>863.4285714285714</ele><time>2026-04-24T17:42:52Z</time></trkpt><trkpt lat="40.325462463292695" lon="-1.1147852885476925"><ele>863.8571428571429</ele><time>2026-04-24T17:42:53Z</time></trkpt><trkpt lat="40.32542156541524" lon="-1.114716144414893"><ele>864.2857142857142</ele><time>2026-04-24T17:42:54Z</time></trkpt><trkpt lat="40.32539600831082" lon="-1.1146382587997656"><ele>864.7142857142858</ele><time>2026-04-24T17:42:55Z</time></trkpt><trkpt lat="40.32536197659294" lon="-1.114560904697281"><ele>865.1428571428571</ele><time>2026-04-24T17:42:56Z</time></trkpt><trkpt lat="40.32540347590965" lon="-1.1144722172086157"><ele>865.5714285714286</ele><time>2026-04-24T17:42:57Z</time></trkpt><trkpt lat="40.32548657756243" lon="-1.1144189919573089"><ele>866.0</ele><time>2026-04-24T17:42:58Z</time></trkpt><trkpt lat="40.325573001238865" lon="-1.114422284705876"><ele>866.0</ele><time>2026-04-24T17:42:59Z</time></trkpt><trkpt lat="40.32564608780197" lon="-1.114423760573977"><ele>865.9999999999999</ele><time>2026-04-24T17:43:00Z</time></trkpt><trkpt lat="40.32573037017671" lon="-1.11443203996367"><ele>865.9999999999999</ele><time>2026-04-24T17:43:01Z</time></trkpt><trkpt lat="40.325825076756054" lon="-1.1144128758345462"><ele>866.0</ele><time>2026-04-24T17:43:02Z</time></trkpt><trkpt lat="40.32591002045639" lon="-1.114320847945106"><ele>866.0</ele><time>2026-04-24T17:43:03Z</time></trkpt><trkpt lat="40.326014163343416" lon="-1.1142529565221435"><ele>866.0</ele><time>2026-04-24T17:43:04Z</time></trkpt><trkpt lat="40.32613707311146" lon="-1.1141925853066832"><ele>866.0</ele><time>2026-04-24T17:43:05Z</time></trkpt><trkpt lat="40.32630667266872" lon="-1.114082698010217"><ele>866.0</ele><time>2026-04-24T17:43:06Z</time></trkpt><trkpt lat="40.326484273412774" lon="-1.1139562091221593"><ele>868.6666666666667</ele><time>2026-04-24T17:43:07Z</time></trkpt><trkpt lat="40.32663638685147" lon="-1.1138549576079597"><ele>871.3333333333333</ele><time>2026-04-24T17:43:08Z</time></trkpt><trkpt lat="40.326769752798185" lon="-1.1137737327355597"><ele>874.0</ele><time>2026-04-24T17:43:09Z</time></trkpt><trkpt lat="40.32689083008983" lon="-1.1136922646321386"><ele>874.0</ele><time>2026-04-24T17:43:10Z</time></trkpt><trkpt lat="40.32701866316682" lon="-1.1136154196546424"><ele>874.0</ele><time>2026-04-24T17:43:10.999Z</time></trkpt><trkpt lat="40.3271484774144" lon="-1.113534977118494"><ele>874.0</ele><time>2026-04-24T17:43:11.999Z</time></trkpt><trkpt lat="40.32727680402063" lon="-1.1134508157163123"><ele>874.0</ele><time>2026-04-24T17:43:12.999Z</time></trkpt><trkpt lat="40.32740583281671" lon="-1.113371452010205"><ele>874.25</ele><time>2026-04-24T17:43:13.999Z</time></trkpt><trkpt lat="40.32753794055873" lon="-1.1132933996129946"><ele>874.5</ele><time>2026-04-24T17:43:14.999Z</time></trkpt><trkpt lat="40.32767609958073" lon="-1.1132150294151346"><ele>874.75</ele><time>2026-04-24T17:43:15.999Z</time></trkpt><trkpt lat="40.32780524975645" lon="-1.1131463294017245"><ele>875.0</ele><time>2026-04-24T17:43:16.999Z</time></trkpt><trkpt lat="40.327930346709145" lon="-1.113070976977609"><ele>875.0</ele><time>2026-04-24T17:43:17.999Z</time></trkpt><trkpt lat="40.32804528542695" lon="-1.112977093543299"><ele>875.0</ele><time>2026-04-24T17:43:18.999Z</time></trkpt><trkpt lat="40.32815238352349" lon="-1.1128642039456544"><ele>875.0</ele><time>2026-04-24T17:43:19.999Z</time></trkpt><trkpt lat="40.328259741488175" lon="-1.1127452553650208"><ele>875.0</ele><time>2026-04-24T17:43:20.999Z</time></trkpt><trkpt lat="40.328359243234566" lon="-1.112635001761094"><ele>874.25</ele><time>2026-04-24T17:43:21.999Z</time></trkpt><trkpt lat="40.32845132871851" lon="-1.1125466680052971"><ele>873.5</ele><time>2026-04-24T17:43:22.999Z</time></trkpt><trkpt lat="40.328495784263865" lon="-1.1123953739654369"><ele>872.75</ele><time>2026-04-24T17:43:23.999Z</time></trkpt><trkpt lat="40.328534403481285" lon="-1.112247038356834"><ele>872.0</ele><time>2026-04-24T17:43:24.999Z</time></trkpt><trkpt lat="40.32851671482942" lon="-1.1120881301769696"><ele>873.75</ele><time>2026-04-24T17:43:25.999Z</time></trkpt><trkpt lat="40.32851423662348" lon="-1.1119214322972841"><ele>875.5</ele><time>2026-04-24T17:43:26.999Z</time></trkpt><trkpt lat="40.32847406430215" lon="-1.1117620120145477"><ele>877.25</ele><time>2026-04-24T17:43:27.999Z</time></trkpt><trkpt lat="40.32843827970138" lon="-1.1116141884998367"><ele>879.0</ele><time>2026-04-24T17:43:28.999Z</time></trkpt><trkpt lat="40.32847591068772" lon="-1.1114653354817163"><ele>880.6</ele><time>2026-04-24T17:43:29.999Z</time></trkpt><trkpt lat="40.32846490955876" lon="-1.1113256339403836"><ele>882.2</ele><time>2026-04-24T17:43:30.999Z</time></trkpt><trkpt lat="40.328446934268186" lon="-1.111182439548862"><ele>883.8000000000001</ele><time>2026-04-24T17:43:31.999Z</time></trkpt><trkpt lat="40.32843519766619" lon="-1.1110480466825834"><ele>885.4000000000001</ele><time>2026-04-24T17:43:32.999Z</time></trkpt><trkpt lat="40.32845426074236" lon="-1.1108837945260102"><ele>887.0</ele><time>2026-04-24T17:43:33.999Z</time></trkpt><trkpt lat="40.3285354658196" lon="-1.1106881141723297"><ele>888.6666666666667</ele><time>2026-04-24T17:43:34.999Z</time></trkpt><trkpt lat="40.32864531995437" lon="-1.1104661921417516"><ele>890.3333333333333</ele><time>2026-04-24T17:43:35.999Z</time></trkpt><trkpt lat="40.328648297354306" lon="-1.1101904321753469"><ele>892.0</ele><time>2026-04-24T17:43:36.999Z</time></trkpt><trkpt lat="40.32870028917864" lon="-1.1099750790702174"><ele>893.6666666666666</ele><time>2026-04-24T17:43:37.999Z</time></trkpt><trkpt lat="40.32872009633991" lon="-1.1097541650043123"><ele>895.3333333333333</ele><time>2026-04-24T17:43:38.999Z</time></trkpt><trkpt lat="40.328686364571155" lon="-1.1095164311321637"><ele>897.0</ele><time>2026-04-24T17:43:39.999Z</time></trkpt><trkpt lat="40.32867931545329" lon="-1.109332726638066"><ele>897.0</ele><time>2026-04-24T17:43:40.999Z</time></trkpt><trkpt lat="40.328733665872804" lon="-1.1091465319963134"><ele>897.0</ele><time>2026-04-24T17:43:41.999Z</time></trkpt><trkpt lat="40.32886732834247" lon="-1.1090162086375965"><ele>897.0</ele><time>2026-04-24T17:43:42.999Z</time></trkpt><trkpt lat="40.329018470431265" lon="-1.1089338491096463"><ele>900.75</ele><time>2026-04-24T17:43:43.999Z</time></trkpt><trkpt lat="40.329150167654646" lon="-1.108858135436859"><ele>904.5</ele><time>2026-04-24T17:43:44.999Z</time></trkpt><trkpt lat="40.32921240123492" lon="-1.108719377455228"><ele>908.25</ele><time>2026-04-24T17:43:45.999Z</time></trkpt><trkpt lat="40.32923198634335" lon="-1.1085737271671277"><ele>912.0</ele><time>2026-04-24T17:43:46.999Z</time></trkpt><trkpt lat="40.329234928407985" lon="-1.1084370951647298"><ele>912.0</ele><time>2026-04-24T17:43:47.999Z</time></trkpt><trkpt lat="40.32920156153543" lon="-1.1082980744631907"><ele>912.0</ele><time>2026-04-24T17:43:48.999Z</time></trkpt><trkpt lat="40.3290911270642" lon="-1.1081951765689262"><ele>912.0</ele><time>2026-04-24T17:43:49.999Z</time></trkpt><trkpt lat="40.328999318480214" lon="-1.1080929004561344"><ele>912.0</ele><time>2026-04-24T17:43:50.999Z</time></trkpt><trkpt lat="40.32893821995705" lon="-1.1080066171157308"><ele>912.4000000000001</ele><time>2026-04-24T17:43:52.999Z</time></trkpt><trkpt lat="40.32888342587066" lon="-1.10791423936196"><ele>912.8000000000001</ele><time>2026-04-24T17:43:55.999Z</time></trkpt><trkpt lat="40.328831117677495" lon="-1.107788393703383"><ele>913.2</ele><time>2026-04-24T17:43:57.999Z</time></trkpt><trkpt lat="40.32880543660644" lon="-1.1076489020303595"><ele>913.6</ele><time>2026-04-24T17:43:59.999Z</time></trkpt><trkpt lat="40.32889129340485" lon="-1.1075196802537934"><ele>914.0</ele><time>2026-04-24T17:44:01.999Z</time></trkpt><trkpt lat="40.32895869787852" lon="-1.1074547591438915"><ele>914.5000000000001</ele><time>2026-04-24T17:44:02.999Z</time></trkpt><trkpt lat="40.32901837057497" lon="-1.1073846561109675"><ele>915.0</ele><time>2026-04-24T17:44:03.999Z</time></trkpt><trkpt lat="40.32908042099545" lon="-1.1072981071445518"><ele>915.5</ele><time>2026-04-24T17:44:05.999Z</time></trkpt><trkpt lat="40.3290739584741" lon="-1.1071891593947865"><ele>916.0</ele><time>2026-04-24T17:44:07.998Z</time></trkpt><trkpt lat="40.32903151103191" lon="-1.1071106061267815"><ele>916.5000000000001</ele><time>2026-04-24T17:44:08.998Z</time></trkpt><trkpt lat="40.32898972592141" lon="-1.1070083194983782"><ele>917.0</ele><time>2026-04-24T17:44:09.998Z</time></trkpt><trkpt lat="40.32894941848469" lon="-1.1069056829401143"><ele>917.0</ele><time>2026-04-24T17:44:10.998Z</time></trkpt><trkpt lat="40.32892627743341" lon="-1.1068154042163743"><ele>917.0</ele><time>2026-04-24T17:44:11.998Z</time></trkpt><trkpt lat="40.32897711289962" lon="-1.1067239764869796"><ele>917.0</ele><time>2026-04-24T17:44:16.998Z</time></trkpt><trkpt lat="40.32907123523859" lon="-1.107035554449928"><ele>917.0</ele><time>2026-04-24T17:44:17.998Z</time></trkpt><trkpt lat="40.32912641068036" lon="-1.1071461793662827"><ele>917.0000000000001</ele><time>2026-04-24T17:44:18.998Z</time></trkpt><trkpt lat="40.32917221917873" lon="-1.1072198321217992"><ele>917.0</ele><time>2026-04-24T17:44:19.998Z</time></trkpt><trkpt lat="40.32923065579515" lon="-1.107330632111939"><ele>917.0</ele><time>2026-04-24T17:44:21.998Z</time></trkpt><trkpt lat="40.32929705921604" lon="-1.1074440319844896"><ele>917.0</ele><time>2026-04-24T17:44:23.998Z</time></trkpt><trkpt lat="40.32936080788001" lon="-1.1074941716665159"><ele>917.0000000000001</ele><time>2026-04-24T17:44:24.998Z</time></trkpt><trkpt lat="40.32943388767378" lon="-1.1075257327613388"><ele>917.0</ele><time>2026-04-24T17:44:25.998Z</time></trkpt><trkpt lat="40.329511990709115" lon="-1.107538979358271"><ele>916.8</ele><time>2026-04-24T17:44:26.998Z</time></trkpt><trkpt lat="40.32959566172926" lon="-1.107555794607304"><ele>916.6</ele><time>2026-04-24T17:44:27.998Z</time></trkpt><trkpt lat="40.32967749049838" lon="-1.1075935792166187"><ele>916.3999999999999</ele><time>2026-04-24T17:44:28.998Z</time></trkpt><trkpt lat="40.329751736672804" lon="-1.107598005868423"><ele>916.1999999999999</ele><time>2026-04-24T17:44:30Z</time></trkpt><trkpt lat="40.32981727270335" lon="-1.1075806626112066"><ele>916.0</ele><time>2026-04-24T17:44:31Z</time></trkpt><trkpt lat="40.32993588276402" lon="-1.1074777537594367"><ele>918.0</ele><time>2026-04-24T17:44:33Z</time></trkpt><trkpt lat="40.3300086209477" lon="-1.1073828990176469"><ele>920.0</ele><time>2026-04-24T17:44:34Z</time></trkpt><trkpt lat="40.330073263996695" lon="-1.1072603312958604"><ele>922.0</ele><time>2026-04-24T17:44:35Z</time></trkpt><trkpt lat="40.330185980154226" lon="-1.1071409853397194"><ele>924.0</ele><time>2026-04-24T17:44:36Z</time></trkpt><trkpt lat="40.33029714059515" lon="-1.1070070729880996"><ele>924.0</ele><time>2026-04-24T17:44:37Z</time></trkpt><trkpt lat="40.33039707933972" lon="-1.1069007621405265"><ele>924.0</ele><time>2026-04-24T17:44:38Z</time></trkpt><trkpt lat="40.33049357780939" lon="-1.1067824188420345"><ele>924.0</ele><time>2026-04-24T17:44:39Z</time></trkpt><trkpt lat="40.33058293798379" lon="-1.106672971409177"><ele>924.0</ele><time>2026-04-24T17:44:40Z</time></trkpt><trkpt lat="40.33065514051162" lon="-1.1065702010971639"><ele>924.0</ele><time>2026-04-24T17:44:41Z</time></trkpt><trkpt lat="40.33072454312551" lon="-1.106488456043277"><ele>924.0000000000001</ele><time>2026-04-24T17:44:42Z</time></trkpt><trkpt lat="40.33078096460277" lon="-1.1064358610767528"><ele>924.0000000000001</ele><time>2026-04-24T17:44:43Z</time></trkpt><trkpt lat="40.33087885608594" lon="-1.1063150275571274"><ele>924.0</ele><time>2026-04-24T17:44:45Z</time></trkpt><trkpt lat="40.330933559982824" lon="-1.1062430326686523"><ele>924.0</ele><time>2026-04-24T17:44:46Z</time></trkpt><trkpt lat="40.33099712043526" lon="-1.1061637374465274"><ele>924.0</ele><time>2026-04-24T17:44:47Z</time></trkpt><trkpt lat="40.33106522075166" lon="-1.10607603844959"><ele>924.0</ele><time>2026-04-24T17:44:48Z</time></trkpt><trkpt lat="40.33112463364903" lon="-1.1059984947702786"><ele>924.0</ele><time>2026-04-24T17:44:49Z</time></trkpt><trkpt lat="40.33116964338507" lon="-1.1059363931564934"><ele>924.0</ele><time>2026-04-24T17:44:50Z</time></trkpt><trkpt lat="40.33121784424852" lon="-1.1058722519338995"><ele>924.0</ele><time>2026-04-24T17:44:51Z</time></trkpt><trkpt lat="40.33128114883649" lon="-1.105806387680348"><ele>924.0</ele><time>2026-04-24T17:44:52Z</time></trkpt><trkpt lat="40.33134225543811" lon="-1.1057468370635994"><ele>924.2</ele><time>2026-04-24T17:44:53Z</time></trkpt><trkpt lat="40.33142879433737" lon="-1.1056416335779113"><ele>924.4000000000001</ele><time>2026-04-24T17:44:55Z</time></trkpt><trkpt lat="40.331519607317794" lon="-1.105533852673331"><ele>924.6</ele><time>2026-04-24T17:44:57Z</time></trkpt><trkpt lat="40.33159957378438" lon="-1.1054329382352373"><ele>924.8</ele><time>2026-04-24T17:44:59Z</time></trkpt><trkpt lat="40.33165182341522" lon="-1.1053765022293964"><ele>925.0</ele><time>2026-04-24T17:45:00Z</time></trkpt><trkpt lat="40.33170785200572" lon="-1.10530132705612"><ele>925.0</ele><time>2026-04-24T17:45:01Z</time></trkpt><trkpt lat="40.331780806692834" lon="-1.1052186396911678"><ele>925.0</ele><time>2026-04-24T17:45:02Z</time></trkpt><trkpt lat="40.33185750900263" lon="-1.1051349130143822"><ele>925.0</ele><time>2026-04-24T17:45:03Z</time></trkpt><trkpt lat="40.3319309196805" lon="-1.1050486352376503"><ele>925.0</ele><time>2026-04-24T17:45:04Z</time></trkpt><trkpt lat="40.33201149693345" lon="-1.1049665438389105"><ele>925.0</ele><time>2026-04-24T17:45:05Z</time></trkpt><trkpt lat="40.33208891319792" lon="-1.1048818135817953"><ele>925.2</ele><time>2026-04-24T17:45:06Z</time></trkpt><trkpt lat="40.33215735778031" lon="-1.1047985049482811"><ele>925.4</ele><time>2026-04-24T17:45:07Z</time></trkpt><trkpt lat="40.33222094449309" lon="-1.104705742544331"><ele>925.5999999999999</ele><time>2026-04-24T17:45:08Z</time></trkpt><trkpt lat="40.33228440129251" lon="-1.1046075320537385"><ele>925.8</ele><time>2026-04-24T17:45:09Z</time></trkpt><trkpt lat="40.33234584637234" lon="-1.1045229613706025"><ele>926.0</ele><time>2026-04-24T17:45:10Z</time></trkpt><trkpt lat="40.33240989092573" lon="-1.1044437369797284"><ele>926.0000000000001</ele><time>2026-04-24T17:45:10.999Z</time></trkpt><trkpt lat="40.33247314964073" lon="-1.1043713732815648"><ele>926.0</ele><time>2026-04-24T17:45:11.999Z</time></trkpt><trkpt lat="40.332528545290764" lon="-1.10430993743905"><ele>926.0</ele><time>2026-04-24T17:45:12.999Z</time></trkpt><trkpt lat="40.33259400966132" lon="-1.1042311689920126"><ele>926.0</ele><time>2026-04-24T17:45:14.999Z</time></trkpt><trkpt lat="40.33267785392464" lon="-1.1041321118214977"><ele>926.0000000000001</ele><time>2026-04-24T17:45:16.999Z</time></trkpt><trkpt lat="40.33272596181064" lon="-1.1040524703154424"><ele>926.0</ele><time>2026-04-24T17:45:17.999Z</time></trkpt><trkpt lat="40.33277822762359" lon="-1.103981607859434"><ele>926.0000000000001</ele><time>2026-04-24T17:45:18.999Z</time></trkpt><trkpt lat="40.33284301784443" lon="-1.1039096065465823"><ele>926.0</ele><time>2026-04-24T17:45:19.999Z</time></trkpt><trkpt lat="40.332925291986264" lon="-1.1038500718016633"><ele>926.0</ele><time>2026-04-24T17:45:20.999Z</time></trkpt><trkpt lat="40.33297582084965" lon="-1.1037587157738569"><ele>926.0</ele><time>2026-04-24T17:45:21.999Z</time></trkpt><trkpt lat="40.33303574716225" lon="-1.1036728659551176"><ele>926.0000000000001</ele><time>2026-04-24T17:45:22.999Z</time></trkpt><trkpt lat="40.33309748381407" lon="-1.1035906170843641"><ele>926.0</ele><time>2026-04-24T17:45:23.999Z</time></trkpt><trkpt lat="40.33316490022267" lon="-1.1035022141081408"><ele>926.0</ele><time>2026-04-24T17:45:24.999Z</time></trkpt><trkpt lat="40.333234694867926" lon="-1.1034146422020399"><ele>925.9999999999999</ele><time>2026-04-24T17:45:25.999Z</time></trkpt><trkpt lat="40.33332551334622" lon="-1.1033325296962884"><ele>925.9999999999999</ele><time>2026-04-24T17:45:26.999Z</time></trkpt><trkpt lat="40.33339438848361" lon="-1.1032342832960544"><ele>926.0</ele><time>2026-04-24T17:45:27.999Z</time></trkpt><trkpt lat="40.33345565867352" lon="-1.1031266619900242"><ele>926.0</ele><time>2026-04-24T17:45:28.999Z</time></trkpt><trkpt lat="40.33350049613627" lon="-1.103014197057619"><ele>925.8</ele><time>2026-04-24T17:45:29.999Z</time></trkpt><trkpt lat="40.33353429143394" lon="-1.102869416592308"><ele>925.5999999999999</ele><time>2026-04-24T17:45:31.999Z</time></trkpt><trkpt lat="40.33360310157366" lon="-1.1027189478883557"><ele>925.4</ele><time>2026-04-24T17:45:33.999Z</time></trkpt><trkpt lat="40.333637108549716" lon="-1.1026243776096256"><ele>925.2</ele><time>2026-04-24T17:45:34.999Z</time></trkpt><trkpt lat="40.333675107803444" lon="-1.1025217574257637"><ele>925.0</ele><time>2026-04-24T17:45:35.999Z</time></trkpt><trkpt lat="40.33371201421781" lon="-1.1024285606773552"><ele>924.8</ele><time>2026-04-24T17:45:36.999Z</time></trkpt><trkpt lat="40.333739531294235" lon="-1.1023255774202123"><ele>924.6</ele><time>2026-04-24T17:45:37.999Z</time></trkpt><trkpt lat="40.33377529771617" lon="-1.1021866012143735"><ele>924.4000000000001</ele><time>2026-04-24T17:45:39.999Z</time></trkpt><trkpt lat="40.33378232163726" lon="-1.1020529741748974"><ele>924.2</ele><time>2026-04-24T17:45:41.999Z</time></trkpt><trkpt lat="40.33383706726963" lon="-1.1019541461256"><ele>924.0</ele><time>2026-04-24T17:45:43.999Z</time></trkpt><trkpt lat="40.333921971872066" lon="-1.1019885044794522"><ele>924.0</ele><time>2026-04-24T17:45:45.999Z</time></trkpt><trkpt lat="40.33398378857516" lon="-1.1020317453778818"><ele>924.0</ele><time>2026-04-24T17:45:46.999Z</time></trkpt><trkpt lat="40.33404093375069" lon="-1.1021073448128638"><ele>924.0</ele><time>2026-04-24T17:45:47.999Z</time></trkpt><trkpt lat="40.33409584191878" lon="-1.1021631215498908"><ele>924.0</ele><time>2026-04-24T17:45:48.999Z</time></trkpt><trkpt lat="40.33419093573661" lon="-1.1022400662400575"><ele>924.0</ele><time>2026-04-24T17:45:50.999Z</time></trkpt><trkpt lat="40.334279640154286" lon="-1.102305711683681"><ele>924.0</ele><time>2026-04-24T17:45:52.999Z</time></trkpt><trkpt lat="40.33433512390695" lon="-1.1023471595355516"><ele>924.0</ele><time>2026-04-24T17:45:53.999Z</time></trkpt><trkpt lat="40.33439395541056" lon="-1.102397181040528"><ele>924.0</ele><time>2026-04-24T17:45:54.999Z</time></trkpt><trkpt lat="40.33446027988224" lon="-1.1024561855037647"><ele>924.0</ele><time>2026-04-24T17:45:55.999Z</time></trkpt><trkpt lat="40.33454080586656" lon="-1.10252426048283"><ele>924.0</ele><time>2026-04-24T17:45:56.999Z</time></trkpt><trkpt lat="40.3346352655403" lon="-1.1025930251519191"><ele>924.0</ele><time>2026-04-24T17:45:57.999Z</time></trkpt><trkpt lat="40.33471347285358" lon="-1.1026537150927744"><ele>924.0</ele><time>2026-04-24T17:45:58.999Z</time></trkpt><trkpt lat="40.33477613614848" lon="-1.1027116119534996"><ele>923.7142857142858</ele><time>2026-04-24T17:45:59.999Z</time></trkpt><trkpt lat="40.334829083937755" lon="-1.102770565554303"><ele>923.4285714285714</ele><time>2026-04-24T17:46:00.999Z</time></trkpt><trkpt lat="40.33491400677205" lon="-1.1027772772984736"><ele>923.1428571428571</ele><time>2026-04-24T17:46:03.999Z</time></trkpt><trkpt lat="40.33497089317492" lon="-1.1028208141027613"><ele>922.8571428571429</ele><time>2026-04-24T17:46:49Z</time></trkpt><trkpt lat="40.335033746243006" lon="-1.1028655935735812"><ele>922.5714285714287</ele><time>2026-04-24T17:47:04Z</time></trkpt><trkpt lat="40.33509645536547" lon="-1.102903129632078"><ele>922.2857142857143</ele><time>2026-04-24T17:47:07Z</time></trkpt><trkpt lat="40.335140950574846" lon="-1.1029782119046803"><ele>922.0</ele><time>2026-04-24T17:47:13Z</time></trkpt><trkpt lat="40.33507991619454" lon="-1.1029444475628873"><ele>922.0</ele><time>2026-04-24T17:47:14Z</time></trkpt><trkpt lat="40.33515295715429" lon="-1.1029542946070756"><ele>922.0</ele><time>2026-04-24T17:47:17.999Z</time></trkpt><trkpt lat="40.335086736802765" lon="-1.1028793400885928"><ele>922.0</ele><time>2026-04-24T17:47:23.999Z</time></trkpt><trkpt lat="40.33495793834147" lon="-1.1027892495956118"><ele>922.0</ele><time>2026-04-24T17:47:28.999Z</time></trkpt><trkpt lat="40.33490118457081" lon="-1.1027473475000642"><ele>922.0</ele><time>2026-04-24T17:47:31.999Z</time></trkpt><trkpt lat="40.33499660555637" lon="-1.102532752055807"><ele>922.0</ele><time>2026-04-24T17:47:35.999Z</time></trkpt></trkseg><trkseg><trkpt lat="39.97184736897933" lon="-2.028918535917448"><ele>986.0</ele><time>2026-04-25T13:08:01.998Z</time></trkpt><trkpt lat="39.97223296504974" lon="-2.0290332330128815"><ele>986.0</ele><time>2026-04-25T13:08:03.998Z</time></trkpt><trkpt lat="39.9724284448649" lon="-2.0290933684113144"><ele>986.0</ele><time>2026-04-25T13:08:04.998Z</time></trkpt><trkpt lat="39.97262248627087" lon="-2.0291507684918946"><ele>986.0</ele><time>2026-04-25T13:08:05.998Z</time></trkpt><trkpt lat="39.972822124113584" lon="-2.0292095578002534"><ele>986.0</ele><time>2026-04-25T13:08:06.998Z</time></trkpt><trkpt lat="39.973043587632915" lon="-2.0292752067049147"><ele>986.0</ele><time>2026-04-25T13:08:07.998Z</time></trkpt><trkpt lat="39.973270039047506" lon="-2.0293424225379684"><ele>986.0</ele><time>2026-04-25T13:08:08.998Z</time></trkpt><trkpt lat="39.97350964440547" lon="-2.0294157743428816"><ele>986.5</ele><time>2026-04-25T13:08:09.998Z</time></trkpt><trkpt lat="39.97376809820091" lon="-2.029492867842698"><ele>987.0</ele><time>2026-04-25T13:08:11Z</time></trkpt><trkpt lat="39.974037462804205" lon="-2.0295734403212067"><ele>987.0</ele><time>2026-04-25T13:08:12Z</time></trkpt><trkpt lat="39.974329280122376" lon="-2.0296616047059857"><ele>987.0</ele><time>2026-04-25T13:08:13Z</time></trkpt><trkpt lat="39.974620638311734" lon="-2.0297512561121085"><ele>987.0</ele><time>2026-04-25T13:08:14Z</time></trkpt><trkpt lat="39.97491287475526" lon="-2.0298380849232527"><ele>987.0</ele><time>2026-04-25T13:08:15Z</time></trkpt><trkpt lat="39.975217885436635" lon="-2.02992689032511"><ele>984.0</ele><time>2026-04-25T13:08:16Z</time></trkpt><trkpt lat="39.97552537242275" lon="-2.030016779456445"><ele>981.0</ele><time>2026-04-25T13:08:17Z</time></trkpt><trkpt lat="39.97581939018183" lon="-2.030103564743584"><ele>980.5</ele><time>2026-04-25T13:08:18Z</time></trkpt><trkpt lat="39.97610631100988" lon="-2.0301921641432195"><ele>980.0</ele><time>2026-04-25T13:08:19Z</time></trkpt><trkpt lat="39.976377746091714" lon="-2.030278825285995"><ele>980.0</ele><time>2026-04-25T13:08:20Z</time></trkpt><trkpt lat="39.976632900771186" lon="-2.0303565879382988"><ele>980.0</ele><time>2026-04-25T13:08:21Z</time></trkpt><trkpt lat="39.976862495432485" lon="-2.0304236902528388"><ele>979.6666666666667</ele><time>2026-04-25T13:08:22Z</time></trkpt><trkpt lat="39.977079339015255" lon="-2.0304878895372935"><ele>979.3333333333333</ele><time>2026-04-25T13:08:23Z</time></trkpt><trkpt lat="39.97728091172437" lon="-2.0305491685106825"><ele>979.0</ele><time>2026-04-25T13:08:24Z</time></trkpt><trkpt lat="39.97747010499509" lon="-2.0306060455054977"><ele>979.0</ele><time>2026-04-25T13:08:25Z</time></trkpt><trkpt lat="39.97764740436246" lon="-2.030658547358802"><ele>979.0</ele><time>2026-04-25T13:08:26Z</time></trkpt><trkpt lat="39.9778209983363" lon="-2.0307103147387795"><ele>979.0</ele><time>2026-04-25T13:08:27Z</time></trkpt><trkpt lat="39.97799598485675" lon="-2.0307636590673295"><ele>978.6666666666666</ele><time>2026-04-25T13:08:28Z</time></trkpt><trkpt lat="39.97817000194048" lon="-2.0308190527842807"><ele>978.3333333333333</ele><time>2026-04-25T13:08:29Z</time></trkpt><trkpt lat="39.97834718658184" lon="-2.0308750787092875"><ele>978.0</ele><time>2026-04-25T13:08:30Z</time></trkpt><trkpt lat="39.97853204085961" lon="-2.030928816865318"><ele>978.0</ele><time>2026-04-25T13:08:31Z</time></trkpt><trkpt lat="39.978724887692984" lon="-2.030986271012629"><ele>978.0</ele><time>2026-04-25T13:08:32Z</time></trkpt><trkpt lat="39.978919942392295" lon="-2.03104627619045"><ele>978.0</ele><time>2026-04-25T13:08:33Z</time></trkpt><trkpt lat="39.97911967486501" lon="-2.0311084102864054"><ele>977.6666666666667</ele><time>2026-04-25T13:08:34Z</time></trkpt><trkpt lat="39.97932321161762" lon="-2.0311723612698316"><ele>977.3333333333334</ele><time>2026-04-25T13:08:35Z</time></trkpt><trkpt lat="39.97952550654878" lon="-2.031236161304001"><ele>977.0</ele><time>2026-04-25T13:08:36Z</time></trkpt><trkpt lat="39.979722950055056" lon="-2.0312963432486923"><ele>977.0</ele><time>2026-04-25T13:08:36.999Z</time></trkpt><trkpt lat="39.979898856175154" lon="-2.0313487515765147"><ele>977.0</ele><time>2026-04-25T13:08:37.999Z</time></trkpt><trkpt lat="39.98006235141732" lon="-2.0313956105779454"><ele>977.0</ele><time>2026-04-25T13:08:38.999Z</time></trkpt><trkpt lat="39.98020338510369" lon="-2.0314353797353757"><ele>977.0</ele><time>2026-04-25T13:08:39.999Z</time></trkpt><trkpt lat="39.980339056569846" lon="-2.0314763501826407"><ele>977.0</ele><time>2026-04-25T13:08:40.999Z</time></trkpt><trkpt lat="39.980467105625486" lon="-2.0315186920591297"><ele>977.0</ele><time>2026-04-25T13:08:41.999Z</time></trkpt><trkpt lat="39.98058618073121" lon="-2.0315561670635454"><ele>977.0</ele><time>2026-04-25T13:08:42.999Z</time></trkpt><trkpt lat="39.980703789653816" lon="-2.031591149350424"><ele>977.0</ele><time>2026-04-25T13:08:43.999Z</time></trkpt><trkpt lat="39.98081512364618" lon="-2.0316226295019093"><ele>977.0</ele><time>2026-04-25T13:08:44.999Z</time></trkpt><trkpt lat="39.98092103653452" lon="-2.0316522725004393"><ele>977.0</ele><time>2026-04-25T13:08:45.999Z</time></trkpt><trkpt lat="39.98102506329521" lon="-2.031684998443138"><ele>977.0</ele><time>2026-04-25T13:08:46.999Z</time></trkpt><trkpt lat="39.981127825239646" lon="-2.031716679633951"><ele>977.0</ele><time>2026-04-25T13:08:47.999Z</time></trkpt><trkpt lat="39.98124318795147" lon="-2.0317496050855706"><ele>976.25</ele><time>2026-04-25T13:08:48.999Z</time></trkpt><trkpt lat="39.98136460400858" lon="-2.031783993627013"><ele>975.5</ele><time>2026-04-25T13:08:49.999Z</time></trkpt><trkpt lat="39.981492051003364" lon="-2.031819632921889"><ele>974.75</ele><time>2026-04-25T13:08:50.999Z</time></trkpt><trkpt lat="39.98162703321638" lon="-2.0318559514460053"><ele>974.0</ele><time>2026-04-25T13:08:51.999Z</time></trkpt><trkpt lat="39.98177046588497" lon="-2.031898449432377"><ele>973.75</ele><time>2026-04-25T13:08:52.999Z</time></trkpt><trkpt lat="39.98191895672713" lon="-2.0319454035643263"><ele>973.5</ele><time>2026-04-25T13:08:53.999Z</time></trkpt><trkpt lat="39.98206562086292" lon="-2.0319898345812852"><ele>973.25</ele><time>2026-04-25T13:08:54.999Z</time></trkpt><trkpt lat="39.98220216410413" lon="-2.0320298379721877"><ele>973.0</ele><time>2026-04-25T13:08:55.999Z</time></trkpt><trkpt lat="39.982335097240956" lon="-2.0320708455798533"><ele>973.0</ele><time>2026-04-25T13:08:56.999Z</time></trkpt><trkpt lat="39.982461357916875" lon="-2.032110674231836"><ele>973.0</ele><time>2026-04-25T13:08:57.999Z</time></trkpt><trkpt lat="39.98258295743545" lon="-2.0321463551291536"><ele>973.0</ele><time>2026-04-25T13:08:58.999Z</time></trkpt><trkpt lat="39.98268837202145" lon="-2.032177271284542"><ele>973.0</ele><time>2026-04-25T13:08:59.999Z</time></trkpt><trkpt lat="39.982778476158245" lon="-2.0322066316645966"><ele>972.8333333333333</ele><time>2026-04-25T13:09:00.999Z</time></trkpt><trkpt lat="39.98286200153594" lon="-2.0322361028482097"><ele>972.6666666666666</ele><time>2026-04-25T13:09:01.999Z</time></trkpt><trkpt lat="39.98292643803103" lon="-2.0322605149375153"><ele>972.5</ele><time>2026-04-25T13:09:02.999Z</time></trkpt><trkpt lat="39.98302401499224" lon="-2.032286021499807"><ele>972.3333333333333</ele><time>2026-04-25T13:09:04.999Z</time></trkpt><trkpt lat="39.983099134188684" lon="-2.0322923331432357"><ele>972.1666666666666</ele><time>2026-04-25T13:09:06.999Z</time></trkpt><trkpt lat="39.98317938116667" lon="-2.032257544480092"><ele>972.0</ele><time>2026-04-25T13:09:09.999Z</time></trkpt><trkpt lat="39.983245090421605" lon="-2.032232721198446"><ele>972.0</ele><time>2026-04-25T13:09:50.998Z</time></trkpt><trkpt lat="39.98327865605668" lon="-2.0323030263255144"><ele>972.0</ele><time>2026-04-25T13:09:53.998Z</time></trkpt><trkpt lat="39.98336483318631" lon="-2.0323982165797636"><ele>972.0</ele><time>2026-04-25T13:09:55.998Z</time></trkpt><trkpt lat="39.9834366111488" lon="-2.032404450611169"><ele>972.0</ele><time>2026-04-25T13:09:56.998Z</time></trkpt><trkpt lat="39.983516056839996" lon="-2.0324183281003467"><ele>972.0</ele><time>2026-04-25T13:09:57.998Z</time></trkpt><trkpt lat="39.98360442231763" lon="-2.0324388608104087"><ele>972.0</ele><time>2026-04-25T13:09:58.998Z</time></trkpt><trkpt lat="39.9836998097787" lon="-2.0324671591337027"><ele>971.5</ele><time>2026-04-25T13:09:59.998Z</time></trkpt><trkpt lat="39.98379987402695" lon="-2.0325006968247394"><ele>971.0</ele><time>2026-04-25T13:10:00.998Z</time></trkpt><trkpt lat="39.98390808902923" lon="-2.03253498210954"><ele>970.5</ele><time>2026-04-25T13:10:01.998Z</time></trkpt><trkpt lat="39.98402320045361" lon="-2.0325700965547346"><ele>970.0</ele><time>2026-04-25T13:10:02.998Z</time></trkpt><trkpt lat="39.984147577315234" lon="-2.032606361627422"><ele>970.5</ele><time>2026-04-25T13:10:03.998Z</time></trkpt><trkpt lat="39.98427728036797" lon="-2.0326445512765035"><ele>971.0</ele><time>2026-04-25T13:10:04.998Z</time></trkpt><trkpt lat="39.984411145661404" lon="-2.032683643048269"><ele>971.5</ele><time>2026-04-25T13:10:05.998Z</time></trkpt><trkpt lat="39.98454762824706" lon="-2.0327233880903113"><ele>972.0</ele><time>2026-04-25T13:10:06.998Z</time></trkpt><trkpt lat="39.984685172767506" lon="-2.032763757139561"><ele>972.0</ele><time>2026-04-25T13:10:07.998Z</time></trkpt><trkpt lat="39.9848230831847" lon="-2.032806289892506"><ele>972.0</ele><time>2026-04-25T13:10:08.998Z</time></trkpt><trkpt lat="39.98496350252143" lon="-2.0328512119538122"><ele>972.0</ele><time>2026-04-25T13:10:09.998Z</time></trkpt><trkpt lat="39.98510819278068" lon="-2.0329004653637357"><ele>972.0</ele><time>2026-04-25T13:10:10.998Z</time></trkpt><trkpt lat="39.98525533668476" lon="-2.0329463694539434"><ele>972.0</ele><time>2026-04-25T13:10:11.998Z</time></trkpt><trkpt lat="39.98539910895926" lon="-2.0329909341179473"><ele>972.0</ele><time>2026-04-25T13:10:12.998Z</time></trkpt><trkpt lat="39.98552801019178" lon="-2.0330285056405715"><ele>972.0</ele><time>2026-04-25T13:10:13.998Z</time></trkpt><trkpt lat="39.98563598558556" lon="-2.0330591561030467"><ele>972.0</ele><time>2026-04-25T13:10:14.998Z</time></trkpt><trkpt lat="39.985724008471806" lon="-2.033087843973901"><ele>972.0</ele><time>2026-04-25T13:10:15.998Z</time></trkpt><trkpt lat="39.98579785852678" lon="-2.0331241260238624"><ele>972.0</ele><time>2026-04-25T13:10:16.999Z</time></trkpt><trkpt lat="39.98589997029595" lon="-2.033134315206701"><ele>972.0</ele><time>2026-04-25T13:10:18.999Z</time></trkpt><trkpt lat="39.9858931684648" lon="-2.0333459524822612"><ele>972.0</ele><time>2026-04-25T13:10:19.999Z</time></trkpt><trkpt lat="39.98590114968724" lon="-2.0334373696905765"><ele>972.0</ele><time>2026-04-25T13:10:20.999Z</time></trkpt><trkpt lat="39.98591038219755" lon="-2.0335621787715072"><ele>971.75</ele><time>2026-04-25T13:10:21.999Z</time></trkpt><trkpt lat="39.98592007433046" lon="-2.0337021527031163"><ele>971.5</ele><time>2026-04-25T13:10:22.999Z</time></trkpt><trkpt lat="39.98594987989237" lon="-2.033858354505977"><ele>971.25</ele><time>2026-04-25T13:10:23.999Z</time></trkpt><trkpt lat="39.98596823220669" lon="-2.0340217793397284"><ele>971.0</ele><time>2026-04-25T13:10:24.999Z</time></trkpt><trkpt lat="39.98596840747813" lon="-2.0341817670522677"><ele>971.5</ele><time>2026-04-25T13:10:25.999Z</time></trkpt><trkpt lat="39.98598447226249" lon="-2.034342024971395"><ele>972.0</ele><time>2026-04-25T13:10:26.999Z</time></trkpt><trkpt lat="39.986016787919176" lon="-2.034499925810026"><ele>972.5</ele><time>2026-04-25T13:10:27.999Z</time></trkpt><trkpt lat="39.986018634042175" lon="-2.0346745828525297"><ele>973.0</ele><time>2026-04-25T13:10:28.999Z</time></trkpt><trkpt lat="39.98603468804437" lon="-2.0348664930229963"><ele>972.5</ele><time>2026-04-25T13:10:29.999Z</time></trkpt><trkpt lat="39.98605280259124" lon="-2.035062828044361"><ele>972.0</ele><time>2026-04-25T13:10:30.999Z</time></trkpt><trkpt lat="39.98608635934574" lon="-2.0352325398392765"><ele>971.5</ele><time>2026-04-25T13:10:31.999Z</time></trkpt><trkpt lat="39.98610321338641" lon="-2.0353932167178184"><ele>971.0</ele><time>2026-04-25T13:10:32.999Z</time></trkpt><trkpt lat="39.98611888049609" lon="-2.0355489796259616"><ele>971.0</ele><time>2026-04-25T13:10:33.999Z</time></trkpt><trkpt lat="39.986132203596654" lon="-2.035708429843669"><ele>970.9999999999999</ele><time>2026-04-25T13:10:34.999Z</time></trkpt><trkpt lat="39.9861373697496" lon="-2.035864756855273"><ele>970.9999999999999</ele><time>2026-04-25T13:10:35.999Z</time></trkpt><trkpt lat="39.9861598200264" lon="-2.0360062497982545"><ele>971.0</ele><time>2026-04-25T13:10:36.999Z</time></trkpt><trkpt lat="39.986168040023024" lon="-2.036130462920946"><ele>971.0</ele><time>2026-04-25T13:10:37.999Z</time></trkpt><trkpt lat="39.986179035449055" lon="-2.0362470638046486"><ele>971.0</ele><time>2026-04-25T13:10:38.999Z</time></trkpt><trkpt lat="39.98619242195459" lon="-2.036361956352997"><ele>970.9999999999999</ele><time>2026-04-25T13:10:39.999Z</time></trkpt><trkpt lat="39.98619945352702" lon="-2.0364910923984487"><ele>970.9999999999999</ele><time>2026-04-25T13:10:40.999Z</time></trkpt><trkpt lat="39.98620952800345" lon="-2.036625601919067"><ele>971.0</ele><time>2026-04-25T13:10:41.999Z</time></trkpt><trkpt lat="39.98621447802399" lon="-2.036768799208059"><ele>971.0</ele><time>2026-04-25T13:10:42.999Z</time></trkpt><trkpt lat="39.98623810831817" lon="-2.0369260558959557"><ele>970.75</ele><time>2026-04-25T13:10:43.999Z</time></trkpt><trkpt lat="39.986253890058165" lon="-2.0371006186162046"><ele>970.5</ele><time>2026-04-25T13:10:44.999Z</time></trkpt><trkpt lat="39.986272045192536" lon="-2.037277113538056"><ele>970.25</ele><time>2026-04-25T13:10:45.999Z</time></trkpt><trkpt lat="39.9862768090387" lon="-2.037454626962949"><ele>970.0</ele><time>2026-04-25T13:10:46.999Z</time></trkpt><trkpt lat="39.98629794142623" lon="-2.0376094376736797"><ele>970.0</ele><time>2026-04-25T13:10:47.999Z</time></trkpt><trkpt lat="39.98631016117745" lon="-2.0377814988759213"><ele>970.0</ele><time>2026-04-25T13:10:48.999Z</time></trkpt><trkpt lat="39.98632341573601" lon="-2.0379636195028676"><ele>970.0</ele><time>2026-04-25T13:10:49.999Z</time></trkpt><trkpt lat="39.98632322356745" lon="-2.038152416352001"><ele>970.0</ele><time>2026-04-25T13:10:50.999Z</time></trkpt><trkpt lat="39.98634003218653" lon="-2.038331974988964"><ele>970.25</ele><time>2026-04-25T13:10:51.999Z</time></trkpt><trkpt lat="39.98635482686227" lon="-2.038516733761941"><ele>970.5</ele><time>2026-04-25T13:10:52.999Z</time></trkpt><trkpt lat="39.98636713448309" lon="-2.038684423740799"><ele>970.75</ele><time>2026-04-25T13:10:53.999Z</time></trkpt><trkpt lat="39.98635848731559" lon="-2.0388373329983565"><ele>971.0</ele><time>2026-04-25T13:10:54.999Z</time></trkpt><trkpt lat="39.98631962404264" lon="-2.0389985080564825"><ele>971.75</ele><time>2026-04-25T13:10:55.999Z</time></trkpt><trkpt lat="39.98627730203152" lon="-2.0391606596225054"><ele>972.5</ele><time>2026-04-25T13:10:56.999Z</time></trkpt><trkpt lat="39.98621852111591" lon="-2.0393092038427314"><ele>973.25</ele><time>2026-04-25T13:10:57.999Z</time></trkpt><trkpt lat="39.98615373044351" lon="-2.0394539201232424"><ele>974.0</ele><time>2026-04-25T13:10:58.999Z</time></trkpt><trkpt lat="39.98608260898829" lon="-2.0395985603476645"><ele>974.0</ele><time>2026-04-25T13:10:59.999Z</time></trkpt><trkpt lat="39.98600595655934" lon="-2.0397465617491854"><ele>974.0</ele><time>2026-04-25T13:11:00.999Z</time></trkpt><trkpt lat="39.9859218629615" lon="-2.0398845759165978"><ele>974.0</ele><time>2026-04-25T13:11:01.999Z</time></trkpt><trkpt lat="39.98583088123385" lon="-2.0400183162350407"><ele>974.0</ele><time>2026-04-25T13:11:02.999Z</time></trkpt><trkpt lat="39.985731743730916" lon="-2.040138388827643"><ele>974.0</ele><time>2026-04-25T13:11:03.999Z</time></trkpt><trkpt lat="39.985624301421986" lon="-2.0402605008784187"><ele>974.0</ele><time>2026-04-25T13:11:04.999Z</time></trkpt><trkpt lat="39.98550992964452" lon="-2.040372826237354"><ele>974.0</ele><time>2026-04-25T13:11:05.999Z</time></trkpt><trkpt lat="39.98539136456021" lon="-2.0404832219799895"><ele>974.0</ele><time>2026-04-25T13:11:06.999Z</time></trkpt><trkpt lat="39.985269144109665" lon="-2.0405779434679197"><ele>974.0</ele><time>2026-04-25T13:11:07.999Z</time></trkpt><trkpt lat="39.985141976234786" lon="-2.04063913959275"><ele>974.0</ele><time>2026-04-25T13:11:08.999Z</time></trkpt><trkpt lat="39.98499963364706" lon="-2.0406861597550567"><ele>974.0</ele><time>2026-04-25T13:11:09.999Z</time></trkpt><trkpt lat="39.984845002460574" lon="-2.040725135818397"><ele>974.0</ele><time>2026-04-25T13:11:10.999Z</time></trkpt><trkpt lat="39.98469044246795" lon="-2.040757964837729"><ele>974.0</ele><time>2026-04-25T13:11:11.999Z</time></trkpt><trkpt lat="39.9845367501663" lon="-2.040787221713488"><ele>974.0</ele><time>2026-04-25T13:11:12.999Z</time></trkpt><trkpt lat="39.98439445890937" lon="-2.0408183397280806"><ele>974.0</ele><time>2026-04-25T13:11:13.999Z</time></trkpt><trkpt lat="39.98424799099626" lon="-2.040861871092918"><ele>974.5</ele><time>2026-04-25T13:11:14.999Z</time></trkpt><trkpt lat="39.98411305204496" lon="-2.0409409133458563"><ele>975.0</ele><time>2026-04-25T13:11:15.999Z</time></trkpt><trkpt lat="39.98399916875935" lon="-2.0410243912911996"><ele>975.5</ele><time>2026-04-25T13:11:16.999Z</time></trkpt><trkpt lat="39.983879917981675" lon="-2.041125191256364"><ele>976.0</ele><time>2026-04-25T13:11:17.999Z</time></trkpt><trkpt lat="39.98376537763682" lon="-2.0412334171393085"><ele>976.0</ele><time>2026-04-25T13:11:18.999Z</time></trkpt><trkpt lat="39.98366945683139" lon="-2.0413408327728186"><ele>976.0</ele><time>2026-04-25T13:11:19.999Z</time></trkpt><trkpt lat="39.98357724041955" lon="-2.041467040995938"><ele>976.0</ele><time>2026-04-25T13:11:20.999Z</time></trkpt><trkpt lat="39.9834837132104" lon="-2.0416160482489545"><ele>976.0</ele><time>2026-04-25T13:11:21.999Z</time></trkpt><trkpt lat="39.9833880240145" lon="-2.0417756978271453"><ele>976.5</ele><time>2026-04-25T13:11:22.999Z</time></trkpt><trkpt lat="39.98329299905489" lon="-2.041931739072655"><ele>977.0</ele><time>2026-04-25T13:11:23.999Z</time></trkpt><trkpt lat="39.983200236724635" lon="-2.042079120433536"><ele>977.5</ele><time>2026-04-25T13:11:24.999Z</time></trkpt><trkpt lat="39.98310983894909" lon="-2.0422194501846707"><ele>978.0</ele><time>2026-04-25T13:11:25.999Z</time></trkpt><trkpt lat="39.98302337455916" lon="-2.042363398873176"><ele>979.6666666666667</ele><time>2026-04-25T13:11:26.999Z</time></trkpt><trkpt lat="39.9829297543665" lon="-2.042520403320336"><ele>981.3333333333334</ele><time>2026-04-25T13:11:27.999Z</time></trkpt><trkpt lat="39.98282293825731" lon="-2.0426936918719867"><ele>983.0</ele><time>2026-04-25T13:11:28.999Z</time></trkpt><trkpt lat="39.98270599954652" lon="-2.042880834894441"><ele>983.0</ele><time>2026-04-25T13:11:29.999Z</time></trkpt><trkpt lat="39.98259102392953" lon="-2.0430617976175816"><ele>983.0</ele><time>2026-04-25T13:11:30.999Z</time></trkpt><trkpt lat="39.98247947601331" lon="-2.0432433558859384"><ele>983.0</ele><time>2026-04-25T13:11:31.999Z</time></trkpt><trkpt lat="39.98236903532846" lon="-2.0434208953377366"><ele>983.3333333333334</ele><time>2026-04-25T13:11:32.999Z</time></trkpt><trkpt lat="39.98225525162728" lon="-2.043602261763008"><ele>983.6666666666667</ele><time>2026-04-25T13:11:33.999Z</time></trkpt><trkpt lat="39.98214474690959" lon="-2.043784951706283"><ele>984.0</ele><time>2026-04-25T13:11:34.999Z</time></trkpt><trkpt lat="39.98203150926603" lon="-2.0439696788329615"><ele>987.3333333333333</ele><time>2026-04-25T13:11:35.999Z</time></trkpt><trkpt lat="39.98191551179528" lon="-2.044154035947423"><ele>990.6666666666666</ele><time>2026-04-25T13:11:36.999Z</time></trkpt><trkpt lat="39.98180259233481" lon="-2.0443257508019412"><ele>994.0</ele><time>2026-04-25T13:11:37.999Z</time></trkpt><trkpt lat="39.98169476237107" lon="-2.0444872521833584"><ele>993.5</ele><time>2026-04-25T13:11:38.999Z</time></trkpt><trkpt lat="39.98158684328129" lon="-2.0446249926805016"><ele>993.0</ele><time>2026-04-25T13:11:39.999Z</time></trkpt><trkpt lat="39.981511785440524" lon="-2.0447834283536293"><ele>992.5</ele><time>2026-04-25T13:11:40.999Z</time></trkpt><trkpt lat="39.981424636492385" lon="-2.0449281959963534"><ele>992.0</ele><time>2026-04-25T13:11:41.999Z</time></trkpt><trkpt lat="39.98133626074697" lon="-2.0450750017153303"><ele>994.0</ele><time>2026-04-25T13:11:42.999Z</time></trkpt><trkpt lat="39.98125465033339" lon="-2.04519810603601"><ele>996.0</ele><time>2026-04-25T13:11:43.999Z</time></trkpt><trkpt lat="39.9811701272167" lon="-2.0453003471406275"><ele>998.0</ele><time>2026-04-25T13:11:44.999Z</time></trkpt><trkpt lat="39.981103625272155" lon="-2.0454416997044516"><ele>1000.0</ele><time>2026-04-25T13:11:45.999Z</time></trkpt><trkpt lat="39.981002708704246" lon="-2.045580384907357"><ele>1000.0</ele><time>2026-04-25T13:11:46.999Z</time></trkpt><trkpt lat="39.98089621444353" lon="-2.045740985143396"><ele>1000.0</ele><time>2026-04-25T13:11:47.999Z</time></trkpt><trkpt lat="39.9807895227695" lon="-2.045914696605059"><ele>1000.0</ele><time>2026-04-25T13:11:48.999Z</time></trkpt><trkpt lat="39.980690222166615" lon="-2.0460745332595325"><ele>1000.0</ele><time>2026-04-25T13:11:49.999Z</time></trkpt><trkpt lat="39.980593821725556" lon="-2.046220269635369"><ele>1000.0</ele><time>2026-04-25T13:11:50.998Z</time></trkpt><trkpt lat="39.98049163078736" lon="-2.046363287434519"><ele>1000.0</ele><time>2026-04-25T13:11:51.998Z</time></trkpt><trkpt lat="39.9803956613211" lon="-2.046504593762478"><ele>1000.0</ele><time>2026-04-25T13:11:52.998Z</time></trkpt><trkpt lat="39.98031785303059" lon="-2.04663463891225"><ele>1000.0</ele><time>2026-04-25T13:11:53.998Z</time></trkpt><trkpt lat="39.980250889852485" lon="-2.046737543384959"><ele>1000.0</ele><time>2026-04-25T13:11:54.998Z</time></trkpt><trkpt lat="39.980188403615884" lon="-2.0468251941582833"><ele>1000.0</ele><time>2026-04-25T13:11:55.998Z</time></trkpt><trkpt lat="39.980125367911185" lon="-2.0469229711645287"><ele>1000.0</ele><time>2026-04-25T13:11:56.998Z</time></trkpt><trkpt lat="39.98010540781623" lon="-2.0470234780365315"><ele>1000.0</ele><time>2026-04-25T13:11:57.998Z</time></trkpt><trkpt lat="39.98010724354842" lon="-2.0471492184303055"><ele>1000.0</ele><time>2026-04-25T13:11:58.998Z</time></trkpt><trkpt lat="39.9801375459017" lon="-2.0472941444473887"><ele>1000.0</ele><time>2026-04-25T13:11:59.998Z</time></trkpt><trkpt lat="39.98017039491886" lon="-2.047437922740439"><ele>1000.0</ele><time>2026-04-25T13:12:00.998Z</time></trkpt><trkpt lat="39.98020713855811" lon="-2.047599061656254"><ele>1000.0</ele><time>2026-04-25T13:12:01.998Z</time></trkpt><trkpt lat="39.980247907697496" lon="-2.047770050179579"><ele>1000.75</ele><time>2026-04-25T13:12:02.998Z</time></trkpt><trkpt lat="39.980284037984106" lon="-2.0479439460413684"><ele>1001.5</ele><time>2026-04-25T13:12:03.998Z</time></trkpt><trkpt lat="39.98032400519229" lon="-2.048122684222032"><ele>1002.25</ele><time>2026-04-25T13:12:04.998Z</time></trkpt><trkpt lat="39.98035643950735" lon="-2.048313026729882"><ele>1003.0</ele><time>2026-04-25T13:12:05.998Z</time></trkpt><trkpt lat="39.98038500400681" lon="-2.048516348813551"><ele>1004.6666666666666</ele><time>2026-04-25T13:12:06.998Z</time></trkpt><trkpt lat="39.98039871308495" lon="-2.0487292836790756"><ele>1006.3333333333333</ele><time>2026-04-25T13:12:07.998Z</time></trkpt><trkpt lat="39.980409842476305" lon="-2.0489331810109404"><ele>1008.0</ele><time>2026-04-25T13:12:08.998Z</time></trkpt><trkpt lat="39.98040532349552" lon="-2.0491435731637395"><ele>1010.0</ele><time>2026-04-25T13:12:09.998Z</time></trkpt><trkpt lat="39.98039893223201" lon="-2.049352882231425"><ele>1012.0</ele><time>2026-04-25T13:12:10.998Z</time></trkpt><trkpt lat="39.980388111436476" lon="-2.049563151048723"><ele>1014.0</ele><time>2026-04-25T13:12:11.998Z</time></trkpt><trkpt lat="39.98037658290065" lon="-2.049776216540661"><ele>1015.3333333333333</ele><time>2026-04-25T13:12:12.998Z</time></trkpt><trkpt lat="39.980380191355906" lon="-2.0499932325010555"><ele>1016.6666666666666</ele><time>2026-04-25T13:12:13.998Z</time></trkpt><trkpt lat="39.980352786578" lon="-2.050197747410059"><ele>1018.0</ele><time>2026-04-25T13:12:14.998Z</time></trkpt><trkpt lat="39.98034196578344" lon="-2.050381095142381"><ele>1018.0</ele><time>2026-04-25T13:12:15.998Z</time></trkpt><trkpt lat="39.98035019779482" lon="-2.0505414462684617"><ele>1018.0</ele><time>2026-04-25T13:12:16.998Z</time></trkpt><trkpt lat="39.98035235959478" lon="-2.0506853630406168"><ele>1018.0</ele><time>2026-04-25T13:12:17.998Z</time></trkpt><trkpt lat="39.98037215428027" lon="-2.050828448874828"><ele>1018.0</ele><time>2026-04-25T13:12:18.998Z</time></trkpt><trkpt lat="39.98041395402027" lon="-2.0509899644046783"><ele>1019.0</ele><time>2026-04-25T13:12:19.998Z</time></trkpt><trkpt lat="39.98048294269574" lon="-2.051162818511947"><ele>1020.0</ele><time>2026-04-25T13:12:20.998Z</time></trkpt><trkpt lat="39.98053706620385" lon="-2.0513642193936463"><ele>1021.0</ele><time>2026-04-25T13:12:21.998Z</time></trkpt><trkpt lat="39.98055508166644" lon="-2.0515707069226403"><ele>1022.6666666666666</ele><time>2026-04-25T13:12:22.999Z</time></trkpt><trkpt lat="39.980584280898746" lon="-2.051784397101982"><ele>1024.3333333333333</ele><time>2026-04-25T13:12:23.999Z</time></trkpt><trkpt lat="39.98062385346396" lon="-2.051991045003784"><ele>1026.0</ele><time>2026-04-25T13:12:24.999Z</time></trkpt><trkpt lat="39.98064269867169" lon="-2.0521774022133368"><ele>1026.0</ele><time>2026-04-25T13:12:25.999Z</time></trkpt><trkpt lat="39.98063953965706" lon="-2.052347055404444"><ele>1026.0</ele><time>2026-04-25T13:12:26.999Z</time></trkpt><trkpt lat="39.98062348633505" lon="-2.0525094534005244"><ele>1026.0</ele><time>2026-04-25T13:12:27.999Z</time></trkpt><trkpt lat="39.980578522306374" lon="-2.052684947710979"><ele>1026.0</ele><time>2026-04-25T13:12:28.999Z</time></trkpt><trkpt lat="39.98052442134195" lon="-2.052865984329806"><ele>1026.5</ele><time>2026-04-25T13:12:29.999Z</time></trkpt><trkpt lat="39.980466275343595" lon="-2.053051810166742"><ele>1027.0</ele><time>2026-04-25T13:12:30.999Z</time></trkpt><trkpt lat="39.98040870191154" lon="-2.0532350418650482"><ele>1027.5</ele><time>2026-04-25T13:12:31.999Z</time></trkpt><trkpt lat="39.9803500416379" lon="-2.0533950014904576"><ele>1028.0</ele><time>2026-04-25T13:12:32.999Z</time></trkpt><trkpt lat="39.98029272264124" lon="-2.0535245950736063"><ele>1029.3333333333335</ele><time>2026-04-25T13:12:33.999Z</time></trkpt><trkpt lat="39.98023429765054" lon="-2.053637619772279"><ele>1030.6666666666667</ele><time>2026-04-25T13:12:34.999Z</time></trkpt><trkpt lat="39.98017001376712" lon="-2.0537248873735616"><ele>1032.0</ele><time>2026-04-25T13:12:36Z</time></trkpt><trkpt lat="39.9801089850865" lon="-2.0537777087764537"><ele>1033.3333333333333</ele><time>2026-04-25T13:12:37Z</time></trkpt><trkpt lat="39.980043473518286" lon="-2.053801322854873"><ele>1034.6666666666665</ele><time>2026-04-25T13:12:39Z</time></trkpt><trkpt lat="39.98008820651726" lon="-2.0538687327295277"><ele>1036.0</ele><time>2026-04-25T13:12:41Z</time></trkpt><trkpt lat="39.980156641609504" lon="-2.053919223877643"><ele>1036.0</ele><time>2026-04-25T13:12:43Z</time></trkpt><trkpt lat="39.980214603733124" lon="-2.053962132274828"><ele>1036.0</ele><time>2026-04-25T13:12:44.999Z</time></trkpt><trkpt lat="39.980264611419145" lon="-2.054017867912354"><ele>1036.0</ele><time>2026-04-25T13:12:46.999Z</time></trkpt><trkpt lat="39.980328614078296" lon="-2.0541242682161007"><ele>1036.0</ele><time>2026-04-25T13:12:48.999Z</time></trkpt><trkpt lat="39.98035727810127" lon="-2.0542139374967965"><ele>1036.0</ele><time>2026-04-25T13:12:50.999Z</time></trkpt><trkpt lat="39.98038604415166" lon="-2.0542903283231007"><ele>1036.0</ele><time>2026-04-25T13:12:52.999Z</time></trkpt><trkpt lat="39.98038702339687" lon="-2.05439244097203"><ele>1036.8333333333333</ele><time>2026-04-25T13:13:29.999Z</time></trkpt><trkpt lat="39.98038846254916" lon="-2.0545246579057523"><ele>1037.6666666666665</ele><time>2026-04-25T13:13:31.999Z</time></trkpt><trkpt lat="39.98038444437566" lon="-2.05462417738243"><ele>1038.5</ele><time>2026-04-25T13:13:33.999Z</time></trkpt><trkpt lat="39.98039054587589" lon="-2.054718541579977"><ele>1039.3333333333333</ele><time>2026-04-25T13:13:35.999Z</time></trkpt><trkpt lat="39.98039246311879" lon="-2.0548012646061067"><ele>1040.1666666666667</ele><time>2026-04-25T13:13:46.999Z</time></trkpt><trkpt lat="39.980363937947494" lon="-2.054716481831807"><ele>1041.0</ele><time>2026-04-25T13:13:56.999Z</time></trkpt><trkpt lat="39.98038680244247" lon="-2.054621076020467"><ele>1041.0</ele><time>2026-04-25T13:13:59.999Z</time></trkpt><trkpt lat="39.980398896811124" lon="-2.0545196419658796"><ele>1041.0</ele><time>2026-04-25T13:14:01.999Z</time></trkpt><trkpt lat="39.98039745124338" lon="-2.054397989128733"><ele>1041.0</ele><time>2026-04-25T13:14:03.999Z</time></trkpt><trkpt lat="39.980374024923954" lon="-2.0542528242140086"><ele>1041.0</ele><time>2026-04-25T13:14:05.999Z</time></trkpt><trkpt lat="39.98034636269757" lon="-2.0541594956223803"><ele>1041.0</ele><time>2026-04-25T13:14:07.999Z</time></trkpt><trkpt lat="39.9803049347804" lon="-2.054055429320467"><ele>1040.0</ele><time>2026-04-25T13:14:10.998Z</time></trkpt><trkpt lat="39.98024959415492" lon="-2.053990479197764"><ele>1039.0</ele><time>2026-04-25T13:14:12.998Z</time></trkpt><trkpt lat="39.980160560089736" lon="-2.053907973746422"><ele>1038.0</ele><time>2026-04-25T13:15:08Z</time></trkpt><trkpt lat="39.98004649690339" lon="-2.0538532398571325"><ele>1037.0</ele><time>2026-04-25T13:15:10Z</time></trkpt><trkpt lat="39.97995896720742" lon="-2.0538330042250292"><ele>1036.0</ele><time>2026-04-25T13:15:11.999Z</time></trkpt><trkpt lat="39.980061485402615" lon="-2.053812712523665"><ele>1036.0</ele><time>2026-04-25T13:15:18.999Z</time></trkpt><trkpt lat="39.98017528225874" lon="-2.05392833332372"><ele>1036.0</ele><time>2026-04-25T13:15:20.999Z</time></trkpt><trkpt lat="39.98026947929474" lon="-2.0540185935474655"><ele>1036.0</ele><time>2026-04-25T13:15:22.999Z</time></trkpt><trkpt lat="39.980340974224426" lon="-2.054158835523757"><ele>1036.0</ele><time>2026-04-25T13:15:24.999Z</time></trkpt><trkpt lat="39.9803652041297" lon="-2.0542354744262474"><ele>1036.8333333333333</ele><time>2026-04-25T13:15:25.999Z</time></trkpt><trkpt lat="39.98038127983013" lon="-2.0543213787833774"><ele>1037.6666666666665</ele><time>2026-04-25T13:15:26.999Z</time></trkpt><trkpt lat="39.98039088297729" lon="-2.0544102346021447"><ele>1038.5</ele><time>2026-04-25T13:15:27.999Z</time></trkpt><trkpt lat="39.98038801064274" lon="-2.0545041118640652"><ele>1039.3333333333333</ele><time>2026-04-25T13:15:28.999Z</time></trkpt><trkpt lat="39.980378941238804" lon="-2.054664656674074"><ele>1040.1666666666667</ele><time>2026-04-25T13:15:30.999Z</time></trkpt><trkpt lat="39.980376524862145" lon="-2.054748511143178"><ele>1041.0</ele><time>2026-04-25T13:15:31.999Z</time></trkpt><trkpt lat="39.980365440769" lon="-2.054911599220273"><ele>1040.3333333333333</ele><time>2026-04-25T13:15:33.999Z</time></trkpt><trkpt lat="39.980353153711214" lon="-2.0550558429794563"><ele>1039.6666666666667</ele><time>2026-04-25T13:15:35.999Z</time></trkpt><trkpt lat="39.980378702353164" lon="-2.0551664805360024"><ele>1039.0</ele><time>2026-04-25T13:15:37.999Z</time></trkpt><trkpt lat="39.9804295786875" lon="-2.0552419771116197"><ele>1038.3333333333335</ele><time>2026-04-25T13:15:40.999Z</time></trkpt><trkpt lat="39.98048275627519" lon="-2.055301164647853"><ele>1037.6666666666667</ele><time>2026-04-25T13:15:58.999Z</time></trkpt><trkpt lat="39.98053972409091" lon="-2.0553438465336407"><ele>1037.0</ele><time>2026-04-25T13:16:01.999Z</time></trkpt><trkpt lat="39.98060484770065" lon="-2.0553634102931313"><ele>1037.0</ele><time>2026-04-25T13:16:04.999Z</time></trkpt><trkpt lat="39.98067192069654" lon="-2.055372182423008"><ele>1037.0</ele><time>2026-04-25T13:16:06.999Z</time></trkpt><trkpt lat="39.98074084166478" lon="-2.0553920494963402"><ele>1037.0</ele><time>2026-04-25T13:16:10.999Z</time></trkpt><trkpt lat="39.98067236190017" lon="-2.055386196467234"><ele>1037.0</ele><time>2026-04-25T13:16:20.999Z</time></trkpt><trkpt lat="39.9805871099539" lon="-2.055371732506934"><ele>1037.0</ele><time>2026-04-25T13:16:23.999Z</time></trkpt><trkpt lat="39.98052025619532" lon="-2.0553437223589683"><ele>1037.0</ele><time>2026-04-25T13:16:27.999Z</time></trkpt><trkpt lat="39.98046517694726" lon="-2.055289779382785"><ele>1037.0</ele><time>2026-04-25T13:17:43.999Z</time></trkpt><trkpt lat="39.980415755671096" lon="-2.0552299499244095"><ele>1037.0</ele><time>2026-04-25T13:17:45.999Z</time></trkpt><trkpt lat="39.98037498502291" lon="-2.055156512636345"><ele>1037.0</ele><time>2026-04-25T13:17:47.999Z</time></trkpt><trkpt lat="39.98035672361729" lon="-2.0550553509214162"><ele>1037.0</ele><time>2026-04-25T13:17:49.999Z</time></trkpt><trkpt lat="39.98036954951535" lon="-2.054858955421733"><ele>1037.0</ele><time>2026-04-25T13:17:51.999Z</time></trkpt><trkpt lat="39.980378932893686" lon="-2.054740566604501"><ele>1037.0</ele><time>2026-04-25T13:17:53.999Z</time></trkpt><trkpt lat="39.98038277625463" lon="-2.0545817949900074"><ele>1036.857142857143</ele><time>2026-04-25T13:17:55.999Z</time></trkpt><trkpt lat="39.98038414241515" lon="-2.0544960277262834"><ele>1036.7142857142858</ele><time>2026-04-25T13:17:56.999Z</time></trkpt><trkpt lat="39.980378629637244" lon="-2.0544098174656042"><ele>1036.5714285714284</ele><time>2026-04-25T13:17:57.999Z</time></trkpt><trkpt lat="39.980371533918365" lon="-2.0543217005481305"><ele>1036.4285714285716</ele><time>2026-04-25T13:17:58.999Z</time></trkpt><trkpt lat="39.98035436370298" lon="-2.0542345723404862"><ele>1036.2857142857142</ele><time>2026-04-25T13:17:59.999Z</time></trkpt><trkpt lat="39.9803238709619" lon="-2.0541391558908164"><ele>1036.142857142857</ele><time>2026-04-25T13:18:00.999Z</time></trkpt><trkpt lat="39.98028164544371" lon="-2.0540491002451255"><ele>1036.0</ele><time>2026-04-25T13:18:01.999Z</time></trkpt><trkpt lat="39.98022462457113" lon="-2.0539779557491955"><ele>1036.0</ele><time>2026-04-25T13:18:02.999Z</time></trkpt><trkpt lat="39.9801597736217" lon="-2.0539130288698915"><ele>1036.0</ele><time>2026-04-25T13:18:03.999Z</time></trkpt><trkpt lat="39.98008282149237" lon="-2.0538566341508497"><ele>1036.0</ele><time>2026-04-25T13:18:04.999Z</time></trkpt><trkpt lat="39.98000495294596" lon="-2.0538187020668066"><ele>1036.0</ele><time>2026-04-25T13:18:05.999Z</time></trkpt><trkpt lat="39.97991440367885" lon="-2.053785623604894"><ele>1036.0</ele><time>2026-04-25T13:18:06.999Z</time></trkpt><trkpt lat="39.97981218768919" lon="-2.053754326692523"><ele>1035.6</ele><time>2026-04-25T13:18:07.999Z</time></trkpt><trkpt lat="39.97970412614985" lon="-2.0537126211338412"><ele>1035.1999999999998</ele><time>2026-04-25T13:18:08.999Z</time></trkpt><trkpt lat="39.97960166918918" lon="-2.053646942749423"><ele>1034.8000000000002</ele><time>2026-04-25T13:18:09.999Z</time></trkpt><trkpt lat="39.9795089356823" lon="-2.0535601615555272"><ele>1034.4</ele><time>2026-04-25T13:18:10.999Z</time></trkpt><trkpt lat="39.979441806062965" lon="-2.053477861611426"><ele>1034.0</ele><time>2026-04-25T13:18:11.999Z</time></trkpt><trkpt lat="39.97939079312283" lon="-2.0534176055938334"><ele>1034.0</ele><time>2026-04-25T13:18:12.999Z</time></trkpt><trkpt lat="39.97927754633022" lon="-2.0533674448431376"><ele>1034.0</ele><time>2026-04-25T13:18:14.999Z</time></trkpt><trkpt lat="39.9792147967125" lon="-2.0533885188918335"><ele>1034.0</ele><time>2026-04-25T13:18:15.999Z</time></trkpt><trkpt lat="39.979145780677094" lon="-2.0534419430956095"><ele>1034.0</ele><time>2026-04-25T13:18:16.999Z</time></trkpt><trkpt lat="39.97906736472154" lon="-2.053518334646629"><ele>1034.0</ele><time>2026-04-25T13:18:17.999Z</time></trkpt><trkpt lat="39.97897825285997" lon="-2.053605036114441"><ele>1034.5</ele><time>2026-04-25T13:18:18.999Z</time></trkpt><trkpt lat="39.978877478246304" lon="-2.0536892747769953"><ele>1035.0</ele><time>2026-04-25T13:18:19.999Z</time></trkpt><trkpt lat="39.97876891633105" lon="-2.0537699112656504"><ele>1035.5</ele><time>2026-04-25T13:18:20.999Z</time></trkpt><trkpt lat="39.978659015676534" lon="-2.0538519296587636"><ele>1036.0</ele><time>2026-04-25T13:18:21.999Z</time></trkpt><trkpt lat="39.978546389181574" lon="-2.0539284564907527"><ele>1036.0</ele><time>2026-04-25T13:18:22.999Z</time></trkpt><trkpt lat="39.97843812152577" lon="-2.0540220331943404"><ele>1036.0</ele><time>2026-04-25T13:18:23.999Z</time></trkpt><trkpt lat="39.9783361693046" lon="-2.0541002432996063"><ele>1036.0</ele><time>2026-04-25T13:18:24.999Z</time></trkpt><trkpt lat="39.97825104952351" lon="-2.054180593859583"><ele>1036.0</ele><time>2026-04-25T13:18:25.999Z</time></trkpt><trkpt lat="39.97817715580608" lon="-2.054272419472927"><ele>1035.3999999999999</ele><time>2026-04-25T13:18:26.999Z</time></trkpt><trkpt lat="39.978120467570825" lon="-2.054383114196395"><ele>1034.8</ele><time>2026-04-25T13:18:27.999Z</time></trkpt><trkpt lat="39.978062293777214" lon="-2.054504123405284"><ele>1034.1999999999998</ele><time>2026-04-25T13:18:28.999Z</time></trkpt><trkpt lat="39.97799414319946" lon="-2.054607992712446"><ele>1033.6</ele><time>2026-04-25T13:18:29.999Z</time></trkpt><trkpt lat="39.97793134368045" lon="-2.054728123549548"><ele>1033.0</ele><time>2026-04-25T13:18:30.999Z</time></trkpt><trkpt lat="39.97786614294419" lon="-2.054854660330688"><ele>1032.0</ele><time>2026-04-25T13:18:31.999Z</time></trkpt><trkpt lat="39.97780434491052" lon="-2.0549671537544163"><ele>1031.0</ele><time>2026-04-25T13:18:32.999Z</time></trkpt><trkpt lat="39.977746842865024" lon="-2.055075499532278"><ele>1030.0</ele><time>2026-04-25T13:18:33.999Z</time></trkpt><trkpt lat="39.97772683133953" lon="-2.0552015692179513"><ele>1029.0</ele><time>2026-04-25T13:18:34.999Z</time></trkpt><trkpt lat="39.9777199092058" lon="-2.0553251350144452"><ele>1028.0</ele><time>2026-04-25T13:18:35.999Z</time></trkpt><trkpt lat="39.97773486318619" lon="-2.055447190131549"><ele>1028.0</ele><time>2026-04-25T13:18:36.999Z</time></trkpt><trkpt lat="39.977757010151045" lon="-2.055585761640135"><ele>1028.0</ele><time>2026-04-25T13:18:37.999Z</time></trkpt><trkpt lat="39.9777846915274" lon="-2.0557305669861776"><ele>1028.0</ele><time>2026-04-25T13:18:38.999Z</time></trkpt><trkpt lat="39.977797790782766" lon="-2.0558810617963763"><ele>1028.0</ele><time>2026-04-25T13:18:39.999Z</time></trkpt><trkpt lat="39.977795159129066" lon="-2.0560388855021294"><ele>1027.25</ele><time>2026-04-25T13:18:41Z</time></trkpt><trkpt lat="39.97779035787042" lon="-2.0561912390866146"><ele>1026.5</ele><time>2026-04-25T13:18:42Z</time></trkpt><trkpt lat="39.977795646619114" lon="-2.0563630153324093"><ele>1025.75</ele><time>2026-04-25T13:18:43Z</time></trkpt><trkpt lat="39.97778687264968" lon="-2.0565355737975106"><ele>1025.0</ele><time>2026-04-25T13:18:44Z</time></trkpt><trkpt lat="39.977776340657385" lon="-2.0567053457143287"><ele>1024.0</ele><time>2026-04-25T13:18:45Z</time></trkpt><trkpt lat="39.977756552102" lon="-2.0568705580162776"><ele>1023.0</ele><time>2026-04-25T13:18:46Z</time></trkpt><trkpt lat="39.97773242298734" lon="-2.057011036472837"><ele>1022.0</ele><time>2026-04-25T13:18:47Z</time></trkpt><trkpt lat="39.97770385576149" lon="-2.0571503922473484"><ele>1021.0</ele><time>2026-04-25T13:18:48Z</time></trkpt><trkpt lat="39.977682241168345" lon="-2.0572867993178034"><ele>1021.0</ele><time>2026-04-25T13:18:49Z</time></trkpt><trkpt lat="39.97765840094335" lon="-2.0574180788278107"><ele>1020.9999999999999</ele><time>2026-04-25T13:18:50Z</time></trkpt><trkpt lat="39.97764908686386" lon="-2.0575459649294454"><ele>1020.9999999999999</ele><time>2026-04-25T13:18:51Z</time></trkpt><trkpt lat="39.977628798998246" lon="-2.0576607492721584"><ele>1021.0</ele><time>2026-04-25T13:18:52Z</time></trkpt><trkpt lat="39.977609313754414" lon="-2.057768637212067"><ele>1021.0</ele><time>2026-04-25T13:18:53Z</time></trkpt><trkpt lat="39.97758997840431" lon="-2.0578626925435906"><ele>1020.1999999999999</ele><time>2026-04-25T13:18:54Z</time></trkpt><trkpt lat="39.977636305995276" lon="-2.0580361742164537"><ele>1019.3999999999999</ele><time>2026-04-25T13:18:56Z</time></trkpt><trkpt lat="39.977698948734925" lon="-2.0581042328578314"><ele>1018.6</ele><time>2026-04-25T13:18:57Z</time></trkpt><trkpt lat="39.977767435928776" lon="-2.0582168531222136"><ele>1017.8</ele><time>2026-04-25T13:18:58Z</time></trkpt><trkpt lat="39.97783425164067" lon="-2.0583287543143065"><ele>1017.0</ele><time>2026-04-25T13:18:59Z</time></trkpt><trkpt lat="39.9779088452651" lon="-2.0584437679713106"><ele>1016.5</ele><time>2026-04-25T13:19:00Z</time></trkpt><trkpt lat="39.97798523974655" lon="-2.058550107090985"><ele>1016.0</ele><time>2026-04-25T13:19:01Z</time></trkpt><trkpt lat="39.978061925062235" lon="-2.058640685393328"><ele>1015.5</ele><time>2026-04-25T13:19:02Z</time></trkpt><trkpt lat="39.97814792504843" lon="-2.0587407455438624"><ele>1015.0</ele><time>2026-04-25T13:19:03Z</time></trkpt><trkpt lat="39.97823909531536" lon="-2.0588516058826047"><ele>1015.0</ele><time>2026-04-25T13:19:04Z</time></trkpt><trkpt lat="39.97831397735613" lon="-2.0589800717427895"><ele>1015.0</ele><time>2026-04-25T13:19:05Z</time></trkpt><trkpt lat="39.97838717325271" lon="-2.0590909249616938"><ele>1015.0</ele><time>2026-04-25T13:19:06Z</time></trkpt><trkpt lat="39.9784464612933" lon="-2.0592128503790588"><ele>1015.0</ele><time>2026-04-25T13:19:07Z</time></trkpt><trkpt lat="39.97851710730559" lon="-2.059334623682565"><ele>1015.75</ele><time>2026-04-25T13:19:08Z</time></trkpt><trkpt lat="39.978597550350415" lon="-2.0594531331670085"><ele>1016.5</ele><time>2026-04-25T13:19:09Z</time></trkpt><trkpt lat="39.97869659442555" lon="-2.0595489219565173"><ele>1017.25</ele><time>2026-04-25T13:19:10Z</time></trkpt><trkpt lat="39.97877453965412" lon="-2.059665670733543"><ele>1018.0</ele><time>2026-04-25T13:19:11Z</time></trkpt><trkpt lat="39.978864857276285" lon="-2.0597583082283464"><ele>1018.0</ele><time>2026-04-25T13:19:12Z</time></trkpt><trkpt lat="39.97894018984236" lon="-2.059880787977095"><ele>1018.0</ele><time>2026-04-25T13:19:13Z</time></trkpt><trkpt lat="39.97904246492955" lon="-2.059984704507339"><ele>1018.0</ele><time>2026-04-25T13:19:14Z</time></trkpt><trkpt lat="39.97912578749994" lon="-2.0601239545484447"><ele>1018.0</ele><time>2026-04-25T13:19:15Z</time></trkpt><trkpt lat="39.979222464150254" lon="-2.0602520856492155"><ele>1018.0</ele><time>2026-04-25T13:19:16Z</time></trkpt><trkpt lat="39.979319281194115" lon="-2.0603877762606264"><ele>1018.0</ele><time>2026-04-25T13:19:17Z</time></trkpt><trkpt lat="39.979397635504945" lon="-2.060529043610756"><ele>1018.0</ele><time>2026-04-25T13:19:18Z</time></trkpt><trkpt lat="39.97947605252304" lon="-2.06066555220799"><ele>1018.0</ele><time>2026-04-25T13:19:19Z</time></trkpt><trkpt lat="39.9795356319694" lon="-2.0607977402039865"><ele>1018.0</ele><time>2026-04-25T13:19:20Z</time></trkpt><trkpt lat="39.97958091299388" lon="-2.0609428973078017"><ele>1018.0</ele><time>2026-04-25T13:19:21Z</time></trkpt><trkpt lat="39.97964871582663" lon="-2.0610872123333857"><ele>1018.0</ele><time>2026-04-25T13:19:22Z</time></trkpt><trkpt lat="39.9796896964989" lon="-2.0612552207214687"><ele>1018.0</ele><time>2026-04-25T13:19:23Z</time></trkpt><trkpt lat="39.97973232161654" lon="-2.061419842257954"><ele>1018.0</ele><time>2026-04-25T13:19:24Z</time></trkpt><trkpt lat="39.97977462833075" lon="-2.0615797522025376"><ele>1018.0</ele><time>2026-04-25T13:19:25Z</time></trkpt><trkpt lat="39.9798113159153" lon="-2.0617482436067847"><ele>1018.0</ele><time>2026-04-25T13:19:26Z</time></trkpt><trkpt lat="39.97981982000303" lon="-2.0619209689386646"><ele>1018.0</ele><time>2026-04-25T13:19:27Z</time></trkpt><trkpt lat="39.979867409730964" lon="-2.0620707290619498"><ele>1017.5999999999999</ele><time>2026-04-25T13:19:28Z</time></trkpt><trkpt lat="39.979906726885794" lon="-2.0622098545932186"><ele>1017.1999999999999</ele><time>2026-04-25T13:19:29Z</time></trkpt><trkpt lat="39.97995909324546" lon="-2.0623417991646584"><ele>1016.8</ele><time>2026-04-25T13:19:30Z</time></trkpt><trkpt lat="39.980023169394435" lon="-2.0624555980021815"><ele>1016.4</ele><time>2026-04-25T13:19:31Z</time></trkpt><trkpt lat="39.980095317372125" lon="-2.062559221848909"><ele>1016.0</ele><time>2026-04-25T13:19:32Z</time></trkpt><trkpt lat="39.98018192469482" lon="-2.0626640238576686"><ele>1014.25</ele><time>2026-04-25T13:19:33Z</time></trkpt><trkpt lat="39.98027834681739" lon="-2.0627632333107893"><ele>1012.5</ele><time>2026-04-25T13:19:34Z</time></trkpt><trkpt lat="39.98036194917183" lon="-2.0628801945733377"><ele>1010.75</ele><time>2026-04-25T13:19:35Z</time></trkpt><trkpt lat="39.980458385411296" lon="-2.0629789917019394"><ele>1009.0</ele><time>2026-04-25T13:19:35.999Z</time></trkpt><trkpt lat="39.98050588332373" lon="-2.0631326790048776"><ele>1007.75</ele><time>2026-04-25T13:19:36.999Z</time></trkpt><trkpt lat="39.98056523825401" lon="-2.0632816929534514"><ele>1006.5</ele><time>2026-04-25T13:19:37.999Z</time></trkpt><trkpt lat="39.98059946852946" lon="-2.063448146607854"><ele>1005.25</ele><time>2026-04-25T13:19:38.999Z</time></trkpt><trkpt lat="39.980625894860545" lon="-2.0636215644313043"><ele>1004.0</ele><time>2026-04-25T13:19:39.999Z</time></trkpt><trkpt lat="39.98067156291921" lon="-2.063796850933161"><ele>1004.0</ele><time>2026-04-25T13:19:40.999Z</time></trkpt><trkpt lat="39.98071129239164" lon="-2.0639671216218294"><ele>1004.0</ele><time>2026-04-25T13:19:41.999Z</time></trkpt><trkpt lat="39.98075858175193" lon="-2.064134105457387"><ele>1004.0</ele><time>2026-04-25T13:19:42.999Z</time></trkpt><trkpt lat="39.98081112197582" lon="-2.064300466433602"><ele>1004.0</ele><time>2026-04-25T13:19:43.999Z</time></trkpt><trkpt lat="39.980875488353696" lon="-2.0644696186888454"><ele>1004.0</ele><time>2026-04-25T13:19:44.999Z</time></trkpt><trkpt lat="39.980955979939814" lon="-2.0646343941771934"><ele>1004.0</ele><time>2026-04-25T13:19:45.999Z</time></trkpt><trkpt lat="39.9810460738589" lon="-2.0647993673991705"><ele>1004.0</ele><time>2026-04-25T13:19:46.999Z</time></trkpt><trkpt lat="39.98113690887501" lon="-2.0649514977762404"><ele>1003.75</ele><time>2026-04-25T13:19:47.999Z</time></trkpt><trkpt lat="39.981223211787025" lon="-2.0650898328805805"><ele>1003.5</ele><time>2026-04-25T13:19:48.999Z</time></trkpt><trkpt lat="39.98130292370124" lon="-2.065237256092355"><ele>1003.25</ele><time>2026-04-25T13:19:49.999Z</time></trkpt><trkpt lat="39.981400313698124" lon="-2.065375786504714"><ele>1003.0</ele><time>2026-04-25T13:19:50.999Z</time></trkpt><trkpt lat="39.981487863657435" lon="-2.065525278744014"><ele>1003.0</ele><time>2026-04-25T13:19:51.999Z</time></trkpt><trkpt lat="39.9815727973264" lon="-2.065674148370209"><ele>1003.0</ele><time>2026-04-25T13:19:52.999Z</time></trkpt><trkpt lat="39.9816577054649" lon="-2.065830127540023"><ele>1003.0</ele><time>2026-04-25T13:19:53.999Z</time></trkpt><trkpt lat="39.98174049965691" lon="-2.0659842100360333"><ele>1003.0</ele><time>2026-04-25T13:19:54.999Z</time></trkpt><trkpt lat="39.98182142877095" lon="-2.0661496050609154"><ele>1004.0</ele><time>2026-04-25T13:19:55.999Z</time></trkpt><trkpt lat="39.98191747937786" lon="-2.0663022324697917"><ele>1005.0</ele><time>2026-04-25T13:19:56.999Z</time></trkpt><trkpt lat="39.98199337629045" lon="-2.066469889909179"><ele>1006.0</ele><time>2026-04-25T13:19:57.999Z</time></trkpt><trkpt lat="39.98204916526033" lon="-2.0666527931465355"><ele>1006.0</ele><time>2026-04-25T13:19:58.999Z</time></trkpt><trkpt lat="39.98211697336992" lon="-2.0668172565473912"><ele>1006.0</ele><time>2026-04-25T13:19:59.999Z</time></trkpt><trkpt lat="39.98215086246005" lon="-2.0670188961182285"><ele>1006.0</ele><time>2026-04-25T13:20:00.999Z</time></trkpt><trkpt lat="39.98216694525532" lon="-2.0672217371226376"><ele>1006.0</ele><time>2026-04-25T13:20:01.999Z</time></trkpt><trkpt lat="39.98216723687635" lon="-2.0674145579762824"><ele>1006.0</ele><time>2026-04-25T13:20:02.999Z</time></trkpt><trkpt lat="39.982171199789654" lon="-2.067581669331236"><ele>1006.0</ele><time>2026-04-25T13:20:03.999Z</time></trkpt><trkpt lat="39.98218268679995" lon="-2.0677160829970838"><ele>1006.0</ele><time>2026-04-25T13:20:04.999Z</time></trkpt><trkpt lat="39.982192844521336" lon="-2.067829198493386"><ele>1005.9999999999999</ele><time>2026-04-25T13:20:05.999Z</time></trkpt><trkpt lat="39.982209402846564" lon="-2.067916077172652"><ele>1006.0</ele><time>2026-04-25T13:20:06.999Z</time></trkpt><trkpt lat="39.98223316281122" lon="-2.068003518157512"><ele>1006.0</ele><time>2026-04-25T13:20:07.999Z</time></trkpt><trkpt lat="39.98231513577973" lon="-2.068054273777171"><ele>1006.0</ele><time>2026-04-25T13:20:08.999Z</time></trkpt><trkpt lat="39.98238665967488" lon="-2.06812901204491"><ele>1005.9999999999999</ele><time>2026-04-25T13:20:09.999Z</time></trkpt><trkpt lat="39.98245403248667" lon="-2.068220200352974"><ele>1006.0</ele><time>2026-04-25T13:20:10.999Z</time></trkpt><trkpt lat="39.982502871119614" lon="-2.068337339953186"><ele>1006.8</ele><time>2026-04-25T13:20:11.999Z</time></trkpt><trkpt lat="39.98255099502753" lon="-2.0684338749342173"><ele>1007.5999999999999</ele><time>2026-04-25T13:20:12.999Z</time></trkpt><trkpt lat="39.98259004681222" lon="-2.068533982456103"><ele>1008.4</ele><time>2026-04-25T13:20:13.999Z</time></trkpt><trkpt lat="39.98263329213722" lon="-2.0686400203207547"><ele>1009.2</ele><time>2026-04-25T13:20:14.999Z</time></trkpt><trkpt lat="39.98271140781339" lon="-2.0687213192176177"><ele>1010.0</ele><time>2026-04-25T13:20:15.999Z</time></trkpt><trkpt lat="39.98279639360449" lon="-2.0687851898726244"><ele>1010.0</ele><time>2026-04-25T13:20:16.999Z</time></trkpt><trkpt lat="39.98288938908828" lon="-2.068865256163436"><ele>1010.0</ele><time>2026-04-25T13:20:17.999Z</time></trkpt><trkpt lat="39.98298065342659" lon="-2.068965930610017"><ele>1010.0</ele><time>2026-04-25T13:20:18.999Z</time></trkpt><trkpt lat="39.98308739863738" lon="-2.0690581835371336"><ele>1010.0</ele><time>2026-04-25T13:20:19.999Z</time></trkpt><trkpt lat="39.98319722251423" lon="-2.0691740751348493"><ele>1009.25</ele><time>2026-04-25T13:20:20.999Z</time></trkpt><trkpt lat="39.98330605779413" lon="-2.0693124526813"><ele>1008.5</ele><time>2026-04-25T13:20:21.999Z</time></trkpt><trkpt lat="39.9834262605957" lon="-2.0694164847207137"><ele>1007.75</ele><time>2026-04-25T13:20:22.999Z</time></trkpt><trkpt lat="39.983523110311" lon="-2.0695071401793586"><ele>1007.0</ele><time>2026-04-25T13:20:23.999Z</time></trkpt><trkpt lat="39.9836228667894" lon="-2.0696126714696597"><ele>1007.0</ele><time>2026-04-25T13:20:24.999Z</time></trkpt><trkpt lat="39.98375379365825" lon="-2.0697059958534667"><ele>1007.0</ele><time>2026-04-25T13:20:25.999Z</time></trkpt><trkpt lat="39.98387396316214" lon="-2.0698433241369174"><ele>1007.0</ele><time>2026-04-25T13:20:26.999Z</time></trkpt><trkpt lat="39.984000100130324" lon="-2.0699709677080316"><ele>1006.3333333333334</ele><time>2026-04-25T13:20:27.999Z</time></trkpt><trkpt lat="39.98411365567537" lon="-2.0701256565827153"><ele>1005.6666666666667</ele><time>2026-04-25T13:20:28.999Z</time></trkpt><trkpt lat="39.98422114489541" lon="-2.0702740691049812"><ele>1005.0</ele><time>2026-04-25T13:20:29.999Z</time></trkpt><trkpt lat="39.984330222197094" lon="-2.0703770511217465"><ele>1005.0</ele><time>2026-04-25T13:20:30.999Z</time></trkpt><trkpt lat="39.98444879993044" lon="-2.070478421694687"><ele>1005.0</ele><time>2026-04-25T13:20:31.999Z</time></trkpt><trkpt lat="39.98456958671483" lon="-2.070570396421589"><ele>1005.0</ele><time>2026-04-25T13:20:32.999Z</time></trkpt><trkpt lat="39.984668210069124" lon="-2.070651192449513"><ele>1005.0</ele><time>2026-04-25T13:20:33.999Z</time></trkpt><trkpt lat="39.98474116577658" lon="-2.0707269661648384"><ele>1004.5</ele><time>2026-04-25T13:20:34.999Z</time></trkpt><trkpt lat="39.98481343753119" lon="-2.070811571157817"><ele>1004.0</ele><time>2026-04-25T13:20:35.999Z</time></trkpt><trkpt lat="39.98490370243428" lon="-2.070902019252084"><ele>1003.5</ele><time>2026-04-25T13:20:36.999Z</time></trkpt><trkpt lat="39.98500474669244" lon="-2.0710009586897633"><ele>1003.0</ele><time>2026-04-25T13:20:37.999Z</time></trkpt><trkpt lat="39.98511553217882" lon="-2.0710977057579036"><ele>1001.5</ele><time>2026-04-25T13:20:38.999Z</time></trkpt><trkpt lat="39.9852242251007" lon="-2.071182010034537"><ele>1000.0</ele><time>2026-04-25T13:20:39.999Z</time></trkpt><trkpt lat="39.98534871814579" lon="-2.0712772953767313"><ele>998.5</ele><time>2026-04-25T13:20:40.999Z</time></trkpt><trkpt lat="39.98547024874521" lon="-2.0713658640199175"><ele>997.0</ele><time>2026-04-25T13:20:41.999Z</time></trkpt><trkpt lat="39.98559436242277" lon="-2.0714553761613237"><ele>997.0</ele><time>2026-04-25T13:20:42.999Z</time></trkpt><trkpt lat="39.98570727296896" lon="-2.0715546262765097"><ele>997.0</ele><time>2026-04-25T13:20:43.999Z</time></trkpt><trkpt lat="39.985808319002636" lon="-2.0716618243797624"><ele>997.0</ele><time>2026-04-25T13:20:44.999Z</time></trkpt><trkpt lat="39.98590136430433" lon="-2.0717659259206833"><ele>997.0</ele><time>2026-04-25T13:20:45.999Z</time></trkpt><trkpt lat="39.98600307289639" lon="-2.07184435371444"><ele>996.25</ele><time>2026-04-25T13:20:47Z</time></trkpt><trkpt lat="39.9860991964505" lon="-2.071943557325765"><ele>995.5</ele><time>2026-04-25T13:20:48Z</time></trkpt><trkpt lat="39.98622146378656" lon="-2.072038814570662"><ele>994.75</ele><time>2026-04-25T13:20:49Z</time></trkpt><trkpt lat="39.98633556119774" lon="-2.0721487935537457"><ele>994.0</ele><time>2026-04-25T13:20:50Z</time></trkpt><trkpt lat="39.98644551233378" lon="-2.0722512440815137"><ele>994.0</ele><time>2026-04-25T13:20:51Z</time></trkpt><trkpt lat="39.98656888812724" lon="-2.072360546007585"><ele>994.0</ele><time>2026-04-25T13:20:52Z</time></trkpt><trkpt lat="39.98669926310119" lon="-2.07248465676748"><ele>994.0</ele><time>2026-04-25T13:20:53Z</time></trkpt><trkpt lat="39.98682513577797" lon="-2.072622327106798"><ele>996.0</ele><time>2026-04-25T13:20:54Z</time></trkpt><trkpt lat="39.98694030843288" lon="-2.072776508001582"><ele>998.0</ele><time>2026-04-25T13:20:55Z</time></trkpt><trkpt lat="39.98706906997255" lon="-2.0729216982360867"><ele>1000.0</ele><time>2026-04-25T13:20:56Z</time></trkpt><trkpt lat="39.98718941733235" lon="-2.0730657850242418"><ele>1000.0</ele><time>2026-04-25T13:20:57Z</time></trkpt><trkpt lat="39.98730055126131" lon="-2.0732006657850253"><ele>1000.0</ele><time>2026-04-25T13:20:58Z</time></trkpt><trkpt lat="39.98741113910965" lon="-2.0733409630417503"><ele>1000.0</ele><time>2026-04-25T13:20:59Z</time></trkpt><trkpt lat="39.98752354368063" lon="-2.0734920236790044"><ele>1004.5</ele><time>2026-04-25T13:21:00Z</time></trkpt><trkpt lat="39.987636394026175" lon="-2.073634436667837"><ele>1009.0</ele><time>2026-04-25T13:21:01Z</time></trkpt><trkpt lat="39.9877566473463" lon="-2.0737330328727603"><ele>1013.5</ele><time>2026-04-25T13:21:02Z</time></trkpt><trkpt lat="39.98788301562119" lon="-2.0738195949049416"><ele>1018.0</ele><time>2026-04-25T13:21:03Z</time></trkpt><trkpt lat="39.988019054047946" lon="-2.0739074379116818"><ele>1018.0</ele><time>2026-04-25T13:21:04Z</time></trkpt><trkpt lat="39.98814463271164" lon="-2.0740052331179313"><ele>1018.0</ele><time>2026-04-25T13:21:05Z</time></trkpt><trkpt lat="39.98826764065097" lon="-2.0740862684770067"><ele>1018.0</ele><time>2026-04-25T13:21:06Z</time></trkpt><trkpt lat="39.98837848459627" lon="-2.0741657459972016"><ele>1018.0</ele><time>2026-04-25T13:21:07Z</time></trkpt><trkpt lat="39.98849838179219" lon="-2.074267058319708"><ele>1018.0</ele><time>2026-04-25T13:21:08Z</time></trkpt><trkpt lat="39.98862540080223" lon="-2.0743536031650374"><ele>1018.0</ele><time>2026-04-25T13:21:09Z</time></trkpt><trkpt lat="39.98876117001753" lon="-2.0744542203826883"><ele>1018.0</ele><time>2026-04-25T13:21:10Z</time></trkpt><trkpt lat="39.988878019565135" lon="-2.0745411725134444"><ele>1018.0</ele><time>2026-04-25T13:21:11Z</time></trkpt><trkpt lat="39.988982824976276" lon="-2.0746083203655576"><ele>1018.0</ele><time>2026-04-25T13:21:12Z</time></trkpt><trkpt lat="39.98908468081839" lon="-2.0746686465526847"><ele>1018.0</ele><time>2026-04-25T13:21:13Z</time></trkpt><trkpt lat="39.989175730174196" lon="-2.074719821217851"><ele>1018.0</ele><time>2026-04-25T13:21:14Z</time></trkpt><trkpt lat="39.989251828946635" lon="-2.07478930145075"><ele>1018.0</ele><time>2026-04-25T13:21:15Z</time></trkpt><trkpt lat="39.98933393341093" lon="-2.074891732887384"><ele>1018.0</ele><time>2026-04-25T13:21:16Z</time></trkpt><trkpt lat="39.989428790006336" lon="-2.075019464851972"><ele>1015.75</ele><time>2026-04-25T13:21:17Z</time></trkpt><trkpt lat="39.989532394636356" lon="-2.0751223994497723"><ele>1013.5</ele><time>2026-04-25T13:21:18Z</time></trkpt><trkpt lat="39.98960682152064" lon="-2.075238923953271"><ele>1011.25</ele><time>2026-04-25T13:21:19Z</time></trkpt><trkpt lat="39.989685981599436" lon="-2.0753509950428817"><ele>1009.0</ele><time>2026-04-25T13:21:20Z</time></trkpt><trkpt lat="39.98978971831595" lon="-2.075458579405531"><ele>1009.0</ele><time>2026-04-25T13:21:21Z</time></trkpt><trkpt lat="39.989888313369626" lon="-2.0755896205634325"><ele>1009.0</ele><time>2026-04-25T13:21:22Z</time></trkpt><trkpt lat="39.989976391165804" lon="-2.0757258502791545"><ele>1009.0</ele><time>2026-04-25T13:21:23Z</time></trkpt><trkpt lat="39.99008184271684" lon="-2.075841135713635"><ele>1009.0</ele><time>2026-04-25T13:21:24Z</time></trkpt><trkpt lat="39.9901857937157" lon="-2.075956845445637"><ele>1007.25</ele><time>2026-04-25T13:21:25Z</time></trkpt><trkpt lat="39.99031331989246" lon="-2.076019007583185"><ele>1005.5</ele><time>2026-04-25T13:21:26Z</time></trkpt><trkpt lat="39.99040929699739" lon="-2.0761123701362716"><ele>1003.75</ele><time>2026-04-25T13:21:27Z</time></trkpt><trkpt lat="39.99050918931913" lon="-2.0762201128408413"><ele>1002.0</ele><time>2026-04-25T13:21:28Z</time></trkpt><trkpt lat="39.99060425392445" lon="-2.076349112212481"><ele>1002.0</ele><time>2026-04-25T13:21:29Z</time></trkpt><trkpt lat="39.990683098572646" lon="-2.0764774194817983"><ele>1002.0</ele><time>2026-04-25T13:21:30Z</time></trkpt><trkpt lat="39.99074862213827" lon="-2.0766054298666314"><ele>1002.0</ele><time>2026-04-25T13:21:31Z</time></trkpt><trkpt lat="39.99083054944164" lon="-2.076700581890948"><ele>1002.0</ele><time>2026-04-25T13:21:32Z</time></trkpt><trkpt lat="39.99091423198172" lon="-2.076815214986349"><ele>1000.0</ele><time>2026-04-25T13:21:33Z</time></trkpt><trkpt lat="39.99099374690679" lon="-2.076925058373397"><ele>998.0</ele><time>2026-04-25T13:21:34Z</time></trkpt><trkpt lat="39.991112865071365" lon="-2.0770004234926867"><ele>996.0</ele><time>2026-04-25T13:21:35Z</time></trkpt><trkpt lat="39.99122378850266" lon="-2.077091070924597"><ele>994.0</ele><time>2026-04-25T13:21:35.999Z</time></trkpt><trkpt lat="39.9913305570645" lon="-2.077198004656504"><ele>994.0</ele><time>2026-04-25T13:21:36.999Z</time></trkpt><trkpt lat="39.99144536523695" lon="-2.077298835807594"><ele>994.0</ele><time>2026-04-25T13:21:37.999Z</time></trkpt><trkpt lat="39.991560139579995" lon="-2.0774044611324616"><ele>994.0</ele><time>2026-04-25T13:21:38.999Z</time></trkpt><trkpt lat="39.99167538707072" lon="-2.0775160481872503"><ele>994.0</ele><time>2026-04-25T13:21:39.999Z</time></trkpt><trkpt lat="39.99178864066194" lon="-2.0776218521503638"><ele>995.0</ele><time>2026-04-25T13:21:40.999Z</time></trkpt><trkpt lat="39.99189623475307" lon="-2.0777194792392124"><ele>996.0</ele><time>2026-04-25T13:21:41.999Z</time></trkpt><trkpt lat="39.99200095681759" lon="-2.0778380395893343"><ele>997.0</ele><time>2026-04-25T13:21:42.999Z</time></trkpt><trkpt lat="39.992116468278375" lon="-2.0779691580445094"><ele>998.0</ele><time>2026-04-25T13:21:43.999Z</time></trkpt><trkpt lat="39.99224571279259" lon="-2.0781092255476175"><ele>998.0</ele><time>2026-04-25T13:21:44.999Z</time></trkpt><trkpt lat="39.99238078856984" lon="-2.078251210526993"><ele>998.0</ele><time>2026-04-25T13:21:45.999Z</time></trkpt><trkpt lat="39.992507664731036" lon="-2.078393266081093"><ele>998.0</ele><time>2026-04-25T13:21:46.999Z</time></trkpt><trkpt lat="39.992631050905935" lon="-2.0785351024705108"><ele>999.6666666666667</ele><time>2026-04-25T13:21:47.999Z</time></trkpt><trkpt lat="39.992756915383566" lon="-2.078674270437734"><ele>1001.3333333333333</ele><time>2026-04-25T13:21:48.999Z</time></trkpt><trkpt lat="39.9928851911483" lon="-2.0788101387254305"><ele>1003.0</ele><time>2026-04-25T13:21:49.999Z</time></trkpt><trkpt lat="39.993026218622155" lon="-2.0789518885349594"><ele>1003.0</ele><time>2026-04-25T13:21:50.999Z</time></trkpt><trkpt lat="39.99316979074336" lon="-2.0790945202238285"><ele>1003.0</ele><time>2026-04-25T13:21:51.999Z</time></trkpt><trkpt lat="39.99330989520986" lon="-2.0792374639804603"><ele>1003.0</ele><time>2026-04-25T13:21:52.999Z</time></trkpt><trkpt lat="39.993437312309865" lon="-2.0793686401008635"><ele>1002.0</ele><time>2026-04-25T13:21:53.999Z</time></trkpt><trkpt lat="39.99354975758001" lon="-2.0794897202900735"><ele>1001.0</ele><time>2026-04-25T13:21:54.999Z</time></trkpt><trkpt lat="39.99367057392979" lon="-2.079585655444609"><ele>1000.0</ele><time>2026-04-25T13:21:55.999Z</time></trkpt><trkpt lat="39.99378187194846" lon="-2.0796889588310625"><ele>999.0</ele><time>2026-04-25T13:21:56.999Z</time></trkpt><trkpt lat="39.993889463682315" lon="-2.079805918012557"><ele>999.0</ele><time>2026-04-25T13:21:57.999Z</time></trkpt><trkpt lat="39.994003483478366" lon="-2.0798879869245646"><ele>999.0</ele><time>2026-04-25T13:21:58.999Z</time></trkpt><trkpt lat="39.994122482886965" lon="-2.0799468666941445"><ele>999.0</ele><time>2026-04-25T13:21:59.999Z</time></trkpt><trkpt lat="39.99422102504603" lon="-2.0800322821262087"><ele>999.0</ele><time>2026-04-25T13:22:00.999Z</time></trkpt><trkpt lat="39.99431779095131" lon="-2.0800949578233534"><ele>998.0</ele><time>2026-04-25T13:22:01.999Z</time></trkpt><trkpt lat="39.99440868913177" lon="-2.080155140764"><ele>997.0</ele><time>2026-04-25T13:22:02.999Z</time></trkpt><trkpt lat="39.994491210268315" lon="-2.0802092727223425"><ele>996.0</ele><time>2026-04-25T13:22:03.999Z</time></trkpt><trkpt lat="39.99456068867005" lon="-2.0802613177689167"><ele>995.0</ele><time>2026-04-25T13:22:04.999Z</time></trkpt><trkpt lat="39.99462154769596" lon="-2.0803067182691963"><ele>994.0</ele><time>2026-04-25T13:22:05.999Z</time></trkpt><trkpt lat="39.99470763709384" lon="-2.0803742122006867"><ele>993.0</ele><time>2026-04-25T13:22:06.999Z</time></trkpt><trkpt lat="39.99481321060654" lon="-2.080474338657811"><ele>993.0</ele><time>2026-04-25T13:22:07.999Z</time></trkpt><trkpt lat="39.99490099713601" lon="-2.080577272433903"><ele>993.0</ele><time>2026-04-25T13:22:08.999Z</time></trkpt><trkpt lat="39.99498496065536" lon="-2.0806813003812623"><ele>993.0</ele><time>2026-04-25T13:22:09.999Z</time></trkpt><trkpt lat="39.99507976792628" lon="-2.0807898324652667"><ele>993.0</ele><time>2026-04-25T13:22:10.999Z</time></trkpt><trkpt lat="39.995169292027356" lon="-2.0808951519160006"><ele>994.5999999999999</ele><time>2026-04-25T13:22:11.999Z</time></trkpt><trkpt lat="39.995247287518566" lon="-2.0809970950375303"><ele>996.1999999999999</ele><time>2026-04-25T13:22:12.999Z</time></trkpt><trkpt lat="39.99532370169843" lon="-2.0810831254923876"><ele>997.8</ele><time>2026-04-25T13:22:13.999Z</time></trkpt><trkpt lat="39.99541288649156" lon="-2.081150754331246"><ele>999.4</ele><time>2026-04-25T13:22:14.999Z</time></trkpt><trkpt lat="39.99549657258901" lon="-2.081252501698331"><ele>1001.0</ele><time>2026-04-25T13:22:15.999Z</time></trkpt><trkpt lat="39.99558465955397" lon="-2.0813453792707812"><ele>1001.0</ele><time>2026-04-25T13:22:16.999Z</time></trkpt><trkpt lat="39.99568146120485" lon="-2.081451538293036"><ele>1001.0</ele><time>2026-04-25T13:22:17.999Z</time></trkpt><trkpt lat="39.99579001907196" lon="-2.081568295402687"><ele>1001.0</ele><time>2026-04-25T13:22:18.999Z</time></trkpt><trkpt lat="39.99590109016065" lon="-2.081694295255732"><ele>1001.0</ele><time>2026-04-25T13:22:19.999Z</time></trkpt><trkpt lat="39.99599650437069" lon="-2.0818008664757373"><ele>1000.75</ele><time>2026-04-25T13:22:20.999Z</time></trkpt><trkpt lat="39.9960933939338" lon="-2.0818846495158136"><ele>1000.5</ele><time>2026-04-25T13:22:21.999Z</time></trkpt><trkpt lat="39.99617962741909" lon="-2.081990524646524"><ele>1000.25</ele><time>2026-04-25T13:22:22.999Z</time></trkpt><trkpt lat="39.996282593750195" lon="-2.0820928467697017"><ele>1000.0</ele><time>2026-04-25T13:22:23.999Z</time></trkpt><trkpt lat="39.99638572080331" lon="-2.082203194625568"><ele>1000.0</ele><time>2026-04-25T13:22:24.999Z</time></trkpt><trkpt lat="39.99648588219658" lon="-2.0823241327861113"><ele>1000.0</ele><time>2026-04-25T13:22:25.999Z</time></trkpt><trkpt lat="39.99660653818313" lon="-2.082430348102067"><ele>1000.0</ele><time>2026-04-25T13:22:26.999Z</time></trkpt><trkpt lat="39.99670890069288" lon="-2.0825764827770255"><ele>1000.0</ele><time>2026-04-25T13:22:27.999Z</time></trkpt><trkpt lat="39.996825857107986" lon="-2.0827079494370158"><ele>1001.5</ele><time>2026-04-25T13:22:28.999Z</time></trkpt><trkpt lat="39.9969274121181" lon="-2.0828329955583804"><ele>1003.0</ele><time>2026-04-25T13:22:29.999Z</time></trkpt><trkpt lat="39.99701499495909" lon="-2.0829215086303"><ele>1004.5</ele><time>2026-04-25T13:22:30.999Z</time></trkpt><trkpt lat="39.99710952061341" lon="-2.0830263216466607"><ele>1006.0</ele><time>2026-04-25T13:22:31.999Z</time></trkpt><trkpt lat="39.99723860141253" lon="-2.0831201422295464"><ele>1006.0</ele><time>2026-04-25T13:22:32.999Z</time></trkpt><trkpt lat="39.997372135048465" lon="-2.0832535901597096"><ele>1006.0</ele><time>2026-04-25T13:22:33.999Z</time></trkpt><trkpt lat="39.99751794825787" lon="-2.0833858207494336"><ele>1006.0</ele><time>2026-04-25T13:22:34.999Z</time></trkpt><trkpt lat="39.997663195747506" lon="-2.083513685340991"><ele>1008.3333333333333</ele><time>2026-04-25T13:22:35.999Z</time></trkpt><trkpt lat="39.99780368647181" lon="-2.0836303412776997"><ele>1010.6666666666667</ele><time>2026-04-25T13:22:36.999Z</time></trkpt><trkpt lat="39.997950910959005" lon="-2.0837519871204497"><ele>1013.0</ele><time>2026-04-25T13:22:37.999Z</time></trkpt><trkpt lat="39.998100250798466" lon="-2.0838842287848625"><ele>1013.0</ele><time>2026-04-25T13:22:38.999Z</time></trkpt><trkpt lat="39.99824608722625" lon="-2.0840174570454435"><ele>1013.0</ele><time>2026-04-25T13:22:39.999Z</time></trkpt><trkpt lat="39.998394809212535" lon="-2.084140219965884"><ele>1013.0</ele><time>2026-04-25T13:22:40.999Z</time></trkpt><trkpt lat="39.998528953522346" lon="-2.0842536679127805"><ele>1014.6666666666667</ele><time>2026-04-25T13:22:41.999Z</time></trkpt><trkpt lat="39.998655327005125" lon="-2.0843745513302134"><ele>1016.3333333333333</ele><time>2026-04-25T13:22:42.999Z</time></trkpt><trkpt lat="39.99878597659542" lon="-2.0845130630532878"><ele>1018.0</ele><time>2026-04-25T13:22:43.999Z</time></trkpt><trkpt lat="39.998919855578286" lon="-2.08465706813909"><ele>1018.0</ele><time>2026-04-25T13:22:44.999Z</time></trkpt><trkpt lat="39.99906405688108" lon="-2.0848116147605267"><ele>1018.0</ele><time>2026-04-25T13:22:45.999Z</time></trkpt><trkpt lat="39.99921737704281" lon="-2.0849708722838143"><ele>1018.0</ele><time>2026-04-25T13:22:46.999Z</time></trkpt><trkpt lat="39.99937074093392" lon="-2.085127499628371"><ele>1019.6666666666666</ele><time>2026-04-25T13:22:47.999Z</time></trkpt><trkpt lat="39.99951623463302" lon="-2.0852767417287015"><ele>1021.3333333333333</ele><time>2026-04-25T13:22:48.999Z</time></trkpt><trkpt lat="39.99964683728453" lon="-2.085410971567798"><ele>1023.0</ele><time>2026-04-25T13:22:49.999Z</time></trkpt><trkpt lat="39.99977173061996" lon="-2.08553351558639"><ele>1023.0</ele><time>2026-04-25T13:22:50.999Z</time></trkpt><trkpt lat="39.999898899027066" lon="-2.085646830893167"><ele>1023.0</ele><time>2026-04-25T13:22:51.999Z</time></trkpt><trkpt lat="40.000023639964674" lon="-2.0857176015734695"><ele>1023.0</ele><time>2026-04-25T13:22:53Z</time></trkpt><trkpt lat="40.000115242442" lon="-2.085792775916901"><ele>1023.0</ele><time>2026-04-25T13:22:54Z</time></trkpt><trkpt lat="40.00017482775457" lon="-2.0858792170519354"><ele>1023.2</ele><time>2026-04-25T13:22:55Z</time></trkpt><trkpt lat="40.000248097326384" lon="-2.08594144652729"><ele>1023.4</ele><time>2026-04-25T13:22:56Z</time></trkpt><trkpt lat="40.00030259442723" lon="-2.086050513686032"><ele>1023.6000000000001</ele><time>2026-04-25T13:22:57Z</time></trkpt><trkpt lat="40.00035256207126" lon="-2.0861798895044856"><ele>1023.8000000000001</ele><time>2026-04-25T13:22:58Z</time></trkpt><trkpt lat="40.00040940436906" lon="-2.0863264404001245"><ele>1024.0</ele><time>2026-04-25T13:22:59Z</time></trkpt><trkpt lat="40.00048042432702" lon="-2.0864717999470543"><ele>1022.6666666666666</ele><time>2026-04-25T13:23:00Z</time></trkpt><trkpt lat="40.000565323888644" lon="-2.086616516366784"><ele>1021.3333333333333</ele><time>2026-04-25T13:23:01Z</time></trkpt><trkpt lat="40.0006646860981" lon="-2.086777477018129"><ele>1020.0</ele><time>2026-04-25T13:23:02Z</time></trkpt><trkpt lat="40.00074875975928" lon="-2.086947751899397"><ele>1017.3333333333333</ele><time>2026-04-25T13:23:03Z</time></trkpt><trkpt lat="40.00085703908058" lon="-2.087111798575251"><ele>1014.6666666666666</ele><time>2026-04-25T13:23:04Z</time></trkpt><trkpt lat="40.00095764260912" lon="-2.087289692443468"><ele>1012.0</ele><time>2026-04-25T13:23:05Z</time></trkpt><trkpt lat="40.00106247103382" lon="-2.0874543443207476"><ele>1011.3333333333333</ele><time>2026-04-25T13:23:06Z</time></trkpt><trkpt lat="40.001165043028806" lon="-2.0876089197654557"><ele>1010.6666666666667</ele><time>2026-04-25T13:23:07Z</time></trkpt><trkpt lat="40.001271814999576" lon="-2.0877695682362662"><ele>1010.0</ele><time>2026-04-25T13:23:08Z</time></trkpt><trkpt lat="40.0013938128323" lon="-2.0879265650184893"><ele>1010.0</ele><time>2026-04-25T13:23:09Z</time></trkpt><trkpt lat="40.00150034270383" lon="-2.08809585496342"><ele>1010.0</ele><time>2026-04-25T13:23:10Z</time></trkpt><trkpt lat="40.001611096185506" lon="-2.088239971746767"><ele>1010.0</ele><time>2026-04-25T13:23:11Z</time></trkpt><trkpt lat="40.001727759141694" lon="-2.0883530701634196"><ele>1009.0</ele><time>2026-04-25T13:23:12Z</time></trkpt><trkpt lat="40.00182063425312" lon="-2.0884938941663336"><ele>1008.0</ele><time>2026-04-25T13:23:13Z</time></trkpt><trkpt lat="40.00192279609389" lon="-2.0886148501210804"><ele>1007.0</ele><time>2026-04-25T13:23:14Z</time></trkpt><trkpt lat="40.00201691737524" lon="-2.088747801993486"><ele>1006.0</ele><time>2026-04-25T13:23:15Z</time></trkpt><trkpt lat="40.00210493145388" lon="-2.088890153760245"><ele>1006.0</ele><time>2026-04-25T13:23:16Z</time></trkpt><trkpt lat="40.00219613235132" lon="-2.089041398905958"><ele>1006.0</ele><time>2026-04-25T13:23:17Z</time></trkpt><trkpt lat="40.002279691993714" lon="-2.0891737278444147"><ele>1006.0</ele><time>2026-04-25T13:23:18Z</time></trkpt><trkpt lat="40.00236117954629" lon="-2.089290410340276"><ele>1006.0</ele><time>2026-04-25T13:23:19Z</time></trkpt><trkpt lat="40.00246284457805" lon="-2.0893925258933734"><ele>1005.25</ele><time>2026-04-25T13:23:20Z</time></trkpt><trkpt lat="40.00255930418088" lon="-2.0895060581944094"><ele>1004.5</ele><time>2026-04-25T13:23:21Z</time></trkpt><trkpt lat="40.00266007995697" lon="-2.089607143358733"><ele>1003.75</ele><time>2026-04-25T13:23:22Z</time></trkpt><trkpt lat="40.00273939440977" lon="-2.089709225130253"><ele>1003.0</ele><time>2026-04-25T13:23:23Z</time></trkpt><trkpt lat="40.002820672572476" lon="-2.0897765106245156"><ele>1003.0</ele><time>2026-04-25T13:23:24Z</time></trkpt><trkpt lat="40.002874534085485" lon="-2.0898390756434044"><ele>1003.0</ele><time>2026-04-25T13:23:25Z</time></trkpt><trkpt lat="40.002926491596575" lon="-2.089907725490367"><ele>1003.0</ele><time>2026-04-25T13:23:26Z</time></trkpt><trkpt lat="40.00298737298057" lon="-2.0900091676707873"><ele>1003.0</ele><time>2026-04-25T13:23:27Z</time></trkpt><trkpt lat="40.0030545810874" lon="-2.090117200555467"><ele>1003.0</ele><time>2026-04-25T13:23:28Z</time></trkpt><trkpt lat="40.00312913490309" lon="-2.0902260561805175"><ele>1003.0</ele><time>2026-04-25T13:23:29Z</time></trkpt><trkpt lat="40.00321835708865" lon="-2.0903141321105223"><ele>1003.0</ele><time>2026-04-25T13:23:30Z</time></trkpt><trkpt lat="40.00330337578394" lon="-2.090417262817939"><ele>1003.0</ele><time>2026-04-25T13:23:31Z</time></trkpt><trkpt lat="40.00339486622595" lon="-2.090520051268627"><ele>1003.0</ele><time>2026-04-25T13:23:32Z</time></trkpt><trkpt lat="40.00350133092864" lon="-2.0906217749704457"><ele>1003.0</ele><time>2026-04-25T13:23:33Z</time></trkpt><trkpt lat="40.00361660993173" lon="-2.0907554710611236"><ele>1003.0</ele><time>2026-04-25T13:23:34Z</time></trkpt><trkpt lat="40.00371604328719" lon="-2.090879339790523"><ele>1003.0</ele><time>2026-04-25T13:23:35Z</time></trkpt><trkpt lat="40.00381436734959" lon="-2.090990579035054"><ele>1003.0</ele><time>2026-04-25T13:23:36Z</time></trkpt><trkpt lat="40.00390879884551" lon="-2.0910948124974893"><ele>1002.5</ele><time>2026-04-25T13:23:37Z</time></trkpt><trkpt lat="40.00400248510883" lon="-2.0912107784068534"><ele>1002.0</ele><time>2026-04-25T13:23:38Z</time></trkpt><trkpt lat="40.004085412992936" lon="-2.091347656233828"><ele>1001.5</ele><time>2026-04-25T13:23:39Z</time></trkpt><trkpt lat="40.00416022753972" lon="-2.091499478385168"><ele>1001.0</ele><time>2026-04-25T13:23:40Z</time></trkpt><trkpt lat="40.00422368594987" lon="-2.091647782707949"><ele>1000.1999999999999</ele><time>2026-04-25T13:23:41Z</time></trkpt><trkpt lat="40.004287679639525" lon="-2.0917777654580587"><ele>999.3999999999999</ele><time>2026-04-25T13:23:42Z</time></trkpt><trkpt lat="40.00434602980446" lon="-2.0919064702049885"><ele>998.6</ele><time>2026-04-25T13:23:43Z</time></trkpt><trkpt lat="40.00440231840254" lon="-2.0920177500679857"><ele>997.8</ele><time>2026-04-25T13:23:44Z</time></trkpt><trkpt lat="40.00447929026452" lon="-2.0921037061506897"><ele>997.0</ele><time>2026-04-25T13:23:44.999Z</time></trkpt><trkpt lat="40.00455537402805" lon="-2.092209166319078"><ele>997.0</ele><time>2026-04-25T13:23:45.999Z</time></trkpt><trkpt lat="40.004633385846944" lon="-2.092338881802281"><ele>997.0</ele><time>2026-04-25T13:23:46.999Z</time></trkpt><trkpt lat="40.00473556344545" lon="-2.0924584519219187"><ele>997.0</ele><time>2026-04-25T13:23:47.999Z</time></trkpt><trkpt lat="40.0048430895335" lon="-2.092585247014454"><ele>997.0</ele><time>2026-04-25T13:23:48.999Z</time></trkpt><trkpt lat="40.00494588276859" lon="-2.0927218684696642"><ele>999.6666666666666</ele><time>2026-04-25T13:23:49.999Z</time></trkpt><trkpt lat="40.00504670330103" lon="-2.092854175896204"><ele>1002.3333333333333</ele><time>2026-04-25T13:23:50.999Z</time></trkpt><trkpt lat="40.005143660536994" lon="-2.093020453385756"><ele>1005.0</ele><time>2026-04-25T13:23:51.999Z</time></trkpt><trkpt lat="40.005241481444045" lon="-2.0931823051635092"><ele>1005.25</ele><time>2026-04-25T13:23:52.999Z</time></trkpt><trkpt lat="40.005337300321216" lon="-2.0933386683665183"><ele>1005.5</ele><time>2026-04-25T13:23:53.999Z</time></trkpt><trkpt lat="40.005426704355756" lon="-2.093478278244907"><ele>1005.75</ele><time>2026-04-25T13:23:54.999Z</time></trkpt><trkpt lat="40.005522429307625" lon="-2.093604586530371"><ele>1006.0</ele><time>2026-04-25T13:23:55.999Z</time></trkpt><trkpt lat="40.00562352820206" lon="-2.093724331070524"><ele>1006.0</ele><time>2026-04-25T13:23:56.999Z</time></trkpt><trkpt lat="40.00573225323517" lon="-2.0938273306538937"><ele>1006.0</ele><time>2026-04-25T13:23:57.999Z</time></trkpt><trkpt lat="40.00584093855883" lon="-2.093918515064657"><ele>1006.0</ele><time>2026-04-25T13:23:58.999Z</time></trkpt><trkpt lat="40.00592600968709" lon="-2.094000350211832"><ele>1006.0</ele><time>2026-04-25T13:23:59.999Z</time></trkpt><trkpt lat="40.00600533859294" lon="-2.0940574934952205"><ele>1005.0</ele><time>2026-04-25T13:24:00.999Z</time></trkpt><trkpt lat="40.006071249682684" lon="-2.094120093431041"><ele>1003.9999999999999</ele><time>2026-04-25T13:24:01.999Z</time></trkpt><trkpt lat="40.00613788652171" lon="-2.094164911779991"><ele>1002.9999999999999</ele><time>2026-04-25T13:24:02.999Z</time></trkpt><trkpt lat="40.00623026329354" lon="-2.0942408482565997"><ele>1002.0</ele><time>2026-04-25T13:24:04.999Z</time></trkpt><trkpt lat="40.00629141178116" lon="-2.094270372045287"><ele>1001.0</ele><time>2026-04-25T13:24:06.999Z</time></trkpt><trkpt lat="40.00294136473799" lon="-2.0967503715964555"><ele>1005.3333333333334</ele><time>2026-04-25T13:24:54.999Z</time></trkpt><trkpt lat="40.00293836455757" lon="-2.0968360222332247"><ele>1009.6666666666667</ele><time>2026-04-25T13:24:55.999Z</time></trkpt><trkpt lat="40.00294309396643" lon="-2.096933354604914"><ele>1014.0</ele><time>2026-04-25T13:24:56.999Z</time></trkpt><trkpt lat="40.002949238376" lon="-2.09703136125041"><ele>1018.3333333333333</ele><time>2026-04-25T13:24:57.999Z</time></trkpt><trkpt lat="40.002954929332475" lon="-2.097145541614189"><ele>1022.6666666666666</ele><time>2026-04-25T13:24:59Z</time></trkpt><trkpt lat="40.00295475877978" lon="-2.0972385212708575"><ele>1027.0</ele><time>2026-04-25T13:25:00Z</time></trkpt><trkpt lat="40.00295137853698" lon="-2.0973478458344035"><ele>1027.8</ele><time>2026-04-25T13:25:01Z</time></trkpt><trkpt lat="40.00293524591648" lon="-2.097467201481569"><ele>1028.6</ele><time>2026-04-25T13:25:02Z</time></trkpt><trkpt lat="40.00294906007801" lon="-2.0975873114797885"><ele>1029.3999999999999</ele><time>2026-04-25T13:25:03Z</time></trkpt><trkpt lat="40.002951372225795" lon="-2.0977153747182156"><ele>1030.2</ele><time>2026-04-25T13:25:04Z</time></trkpt><trkpt lat="40.002956518272114" lon="-2.097846373521234"><ele>1031.0</ele><time>2026-04-25T13:25:05Z</time></trkpt><trkpt lat="40.00297143666316" lon="-2.09811609582233"><ele>1029.6</ele><time>2026-04-25T13:25:07Z</time></trkpt><trkpt lat="40.00296389664825" lon="-2.0982530783308246"><ele>1028.1999999999998</ele><time>2026-04-25T13:25:08Z</time></trkpt><trkpt lat="40.00298066261785" lon="-2.0983840940613137"><ele>1026.8000000000002</ele><time>2026-04-25T13:25:09Z</time></trkpt><trkpt lat="40.002986004475154" lon="-2.0985047852766527"><ele>1025.4</ele><time>2026-04-25T13:25:10Z</time></trkpt><trkpt lat="40.00299371283412" lon="-2.098630069156718"><ele>1024.0</ele><time>2026-04-25T13:25:11Z</time></trkpt><trkpt lat="40.00299826913786" lon="-2.0987449647433136"><ele>1024.0</ele><time>2026-04-25T13:25:12Z</time></trkpt><trkpt lat="40.003021828559405" lon="-2.098873886517664"><ele>1024.0</ele><time>2026-04-25T13:25:13Z</time></trkpt><trkpt lat="40.003030524554184" lon="-2.0989996120795835"><ele>1024.0</ele><time>2026-04-25T13:25:14Z</time></trkpt><trkpt lat="40.00304078926224" lon="-2.099156048867545"><ele>1024.0</ele><time>2026-04-25T13:25:15Z</time></trkpt><trkpt lat="40.00304910055569" lon="-2.0993031320562454"><ele>1024.0</ele><time>2026-04-25T13:25:16Z</time></trkpt><trkpt lat="40.003056393511166" lon="-2.099443534498621"><ele>1023.2</ele><time>2026-04-25T13:25:17Z</time></trkpt><trkpt lat="40.00306407254083" lon="-2.0995913696479156"><ele>1022.4000000000001</ele><time>2026-04-25T13:25:18Z</time></trkpt><trkpt lat="40.00307181132492" lon="-2.099740362653859"><ele>1021.6</ele><time>2026-04-25T13:25:19Z</time></trkpt><trkpt lat="40.00308017611985" lon="-2.0998757450498235"><ele>1020.8</ele><time>2026-04-25T13:25:20Z</time></trkpt><trkpt lat="40.00307971218854" lon="-2.100011790673952"><ele>1020.0</ele><time>2026-04-25T13:25:21Z</time></trkpt><trkpt lat="40.00310116049552" lon="-2.1001370087943947"><ele>1017.0</ele><time>2026-04-25T13:25:22Z</time></trkpt><trkpt lat="40.00311117696153" lon="-2.1002602113289686"><ele>1017.0</ele><time>2026-04-25T13:25:23Z</time></trkpt><trkpt lat="40.003119739648334" lon="-2.100375161517995"><ele>1017.0</ele><time>2026-04-25T13:25:24Z</time></trkpt><trkpt lat="40.00310971074436" lon="-2.1004571105834726"><ele>1017.0</ele><time>2026-04-25T13:25:25Z</time></trkpt><trkpt lat="40.003148403591645" lon="-2.1005587578979292"><ele>1017.0</ele><time>2026-04-25T13:25:26Z</time></trkpt></trkseg><trkseg><trkpt lat="40.00603518237767" lon="-2.1027799585555287"><ele>996.0</ele><time>2026-04-25T13:25:58.999Z</time></trkpt><trkpt lat="40.00613614811515" lon="-2.1027533668017178"><ele>995.9999999999999</ele><time>2026-04-25T13:25:59.999Z</time></trkpt><trkpt lat="40.006241273223864" lon="-2.1027496112744917"><ele>995.9999999999999</ele><time>2026-04-25T13:26:00.999Z</time></trkpt><trkpt lat="40.006345635910556" lon="-2.1027780327357726"><ele>996.0</ele><time>2026-04-25T13:26:01.999Z</time></trkpt><trkpt lat="40.006426460383175" lon="-2.102838048014821"><ele>996.0</ele><time>2026-04-25T13:26:02.999Z</time></trkpt><trkpt lat="40.00649173486054" lon="-2.1029362138918226"><ele>996.0</ele><time>2026-04-25T13:26:03.999Z</time></trkpt><trkpt lat="40.00654151988282" lon="-2.1030768456173146"><ele>996.0</ele><time>2026-04-25T13:26:04.999Z</time></trkpt><trkpt lat="40.006585337276704" lon="-2.1032433373687356"><ele>996.0</ele><time>2026-04-25T13:26:05.999Z</time></trkpt><trkpt lat="40.006679879539256" lon="-2.103373954805347"><ele>996.0</ele><time>2026-04-25T13:26:06.999Z</time></trkpt><trkpt lat="40.00681588420268" lon="-2.1034663026672225"><ele>994.6666666666667</ele><time>2026-04-25T13:26:07.999Z</time></trkpt><trkpt lat="40.00695920346713" lon="-2.103558974111349"><ele>993.3333333333334</ele><time>2026-04-25T13:26:08.999Z</time></trkpt><trkpt lat="40.00709097407554" lon="-2.1036510317790476"><ele>992.0</ele><time>2026-04-25T13:26:09.999Z</time></trkpt><trkpt lat="40.00723190570074" lon="-2.1037523529527213"><ele>992.0</ele><time>2026-04-25T13:26:10.999Z</time></trkpt><trkpt lat="40.00736599710263" lon="-2.103857653117258"><ele>992.0</ele><time>2026-04-25T13:26:11.999Z</time></trkpt><trkpt lat="40.00750465639373" lon="-2.1039587586894424"><ele>992.0</ele><time>2026-04-25T13:26:12.999Z</time></trkpt><trkpt lat="40.00764566939084" lon="-2.1040501440914054"><ele>993.0</ele><time>2026-04-25T13:26:13.999Z</time></trkpt><trkpt lat="40.00779982236152" lon="-2.104148566035217"><ele>994.0</ele><time>2026-04-25T13:26:14.999Z</time></trkpt><trkpt lat="40.007955288696536" lon="-2.1042576115155627"><ele>995.0</ele><time>2026-04-25T13:26:15.999Z</time></trkpt><trkpt lat="40.00813027163611" lon="-2.104369336856773"><ele>995.0</ele><time>2026-04-25T13:26:16.999Z</time></trkpt><trkpt lat="40.008256155516825" lon="-2.1044835824892405"><ele>995.0</ele><time>2026-04-25T13:26:17.999Z</time></trkpt><trkpt lat="40.00841159981726" lon="-2.104596635033554"><ele>995.0</ele><time>2026-04-25T13:26:18.999Z</time></trkpt><trkpt lat="40.00856998684591" lon="-2.104713114611837"><ele>994.3333333333334</ele><time>2026-04-25T13:26:19.999Z</time></trkpt><trkpt lat="40.00872772774775" lon="-2.104820890574526"><ele>993.6666666666667</ele><time>2026-04-25T13:26:20.999Z</time></trkpt><trkpt lat="40.00888368545937" lon="-2.104934930828295"><ele>993.0</ele><time>2026-04-25T13:26:21.999Z</time></trkpt><trkpt lat="40.009031045750525" lon="-2.1050444481692043"><ele>992.0</ele><time>2026-04-25T13:26:22.999Z</time></trkpt><trkpt lat="40.0091699204869" lon="-2.105141217469766"><ele>991.0</ele><time>2026-04-25T13:26:23.999Z</time></trkpt><trkpt lat="40.00932336353474" lon="-2.1052465862609644"><ele>990.0</ele><time>2026-04-25T13:26:24.999Z</time></trkpt><trkpt lat="40.00948335972662" lon="-2.1053561167107535"><ele>990.0</ele><time>2026-04-25T13:26:25.999Z</time></trkpt><trkpt lat="40.00964353990735" lon="-2.1054720825814073"><ele>990.0</ele><time>2026-04-25T13:26:26.999Z</time></trkpt><trkpt lat="40.009803967952784" lon="-2.1055961061408586"><ele>990.0</ele><time>2026-04-25T13:26:27.999Z</time></trkpt><trkpt lat="40.00996664092156" lon="-2.1057178614317222"><ele>990.6666666666667</ele><time>2026-04-25T13:26:28.999Z</time></trkpt><trkpt lat="40.01012641009153" lon="-2.105831579758191"><ele>991.3333333333334</ele><time>2026-04-25T13:26:29.999Z</time></trkpt><trkpt lat="40.01027776715393" lon="-2.1059366793512404"><ele>992.0</ele><time>2026-04-25T13:26:30.999Z</time></trkpt><trkpt lat="40.01043397048793" lon="-2.1060416952903713"><ele>992.0</ele><time>2026-04-25T13:26:31.999Z</time></trkpt><trkpt lat="40.010591139943244" lon="-2.1061479188465135"><ele>992.0</ele><time>2026-04-25T13:26:32.999Z</time></trkpt><trkpt lat="40.0107474930391" lon="-2.106255184777812"><ele>992.0</ele><time>2026-04-25T13:26:33.999Z</time></trkpt><trkpt lat="40.01090274810422" lon="-2.1063631581137923"><ele>993.3333333333334</ele><time>2026-04-25T13:26:34.999Z</time></trkpt><trkpt lat="40.01106055601763" lon="-2.106476758329135"><ele>994.6666666666667</ele><time>2026-04-25T13:26:35.999Z</time></trkpt><trkpt lat="40.011222250399676" lon="-2.1065941379689965"><ele>996.0</ele><time>2026-04-25T13:26:36.999Z</time></trkpt><trkpt lat="40.01138027020169" lon="-2.1067087564244034"><ele>996.0</ele><time>2026-04-25T13:26:37.999Z</time></trkpt><trkpt lat="40.01153297701867" lon="-2.106814028718781"><ele>996.0</ele><time>2026-04-25T13:26:38.999Z</time></trkpt><trkpt lat="40.0116777262987" lon="-2.106916206789179"><ele>996.0</ele><time>2026-04-25T13:26:39.999Z</time></trkpt><trkpt lat="40.011829514158215" lon="-2.1070215499008755"><ele>995.0</ele><time>2026-04-25T13:26:40.999Z</time></trkpt><trkpt lat="40.011981868771535" lon="-2.107131272139964"><ele>994.0</ele><time>2026-04-25T13:26:41.999Z</time></trkpt><trkpt lat="40.012134417697155" lon="-2.107240977529018"><ele>993.0</ele><time>2026-04-25T13:26:42.999Z</time></trkpt><trkpt lat="40.012289040280635" lon="-2.107353686251234"><ele>992.6666666666667</ele><time>2026-04-25T13:26:43.999Z</time></trkpt><trkpt lat="40.01245261165378" lon="-2.1074651111999456"><ele>992.3333333333334</ele><time>2026-04-25T13:26:44.999Z</time></trkpt><trkpt lat="40.01261850538825" lon="-2.1075856486336346"><ele>992.0</ele><time>2026-04-25T13:26:45.999Z</time></trkpt><trkpt lat="40.01278822409065" lon="-2.10770795915196"><ele>991.6666666666667</ele><time>2026-04-25T13:26:46.999Z</time></trkpt><trkpt lat="40.01296413820467" lon="-2.1078368248083685"><ele>991.3333333333333</ele><time>2026-04-25T13:26:47.999Z</time></trkpt><trkpt lat="40.01314503205963" lon="-2.1079432314253372"><ele>991.0</ele><time>2026-04-25T13:26:48.999Z</time></trkpt><trkpt lat="40.0133137561874" lon="-2.108060339502537"><ele>991.0</ele><time>2026-04-25T13:26:49.999Z</time></trkpt><trkpt lat="40.01348294195774" lon="-2.1081774275413787"><ele>991.0</ele><time>2026-04-25T13:26:50.999Z</time></trkpt><trkpt lat="40.01364577585307" lon="-2.10829455388784"><ele>991.0</ele><time>2026-04-25T13:26:51.999Z</time></trkpt><trkpt lat="40.01380855138959" lon="-2.1084183033238073"><ele>991.0</ele><time>2026-04-25T13:26:52.999Z</time></trkpt><trkpt lat="40.01397331800051" lon="-2.108556179872758"><ele>991.0</ele><time>2026-04-25T13:26:53.999Z</time></trkpt><trkpt lat="40.014130930709165" lon="-2.108671591771766"><ele>991.0</ele><time>2026-04-25T13:26:54.999Z</time></trkpt><trkpt lat="40.014284640349054" lon="-2.1087798458639617"><ele>990.6666666666666</ele><time>2026-04-25T13:26:55.999Z</time></trkpt><trkpt lat="40.01443650074852" lon="-2.108889650612152"><ele>990.3333333333333</ele><time>2026-04-25T13:26:56.999Z</time></trkpt><trkpt lat="40.01459448106118" lon="-2.1090014509199495"><ele>990.0</ele><time>2026-04-25T13:26:57.999Z</time></trkpt><trkpt lat="40.01475520116767" lon="-2.109117655489812"><ele>990.0</ele><time>2026-04-25T13:26:58.999Z</time></trkpt><trkpt lat="40.01491902808605" lon="-2.1092373255939028"><ele>990.0</ele><time>2026-04-25T13:26:59.999Z</time></trkpt><trkpt lat="40.015088229143956" lon="-2.1093576194338697"><ele>990.0</ele><time>2026-04-25T13:27:00.999Z</time></trkpt><trkpt lat="40.015247753880566" lon="-2.1094667185505496"><ele>990.0</ele><time>2026-04-25T13:27:01.999Z</time></trkpt><trkpt lat="40.01539676799672" lon="-2.1095750193930023"><ele>990.0</ele><time>2026-04-25T13:27:02.999Z</time></trkpt><trkpt lat="40.01555207883438" lon="-2.1096879143993226"><ele>990.0</ele><time>2026-04-25T13:27:03.999Z</time></trkpt><trkpt lat="40.01571589000576" lon="-2.109802817740788"><ele>990.0</ele><time>2026-04-25T13:27:05Z</time></trkpt></trkseg></trk></gpx>